<?xml version='1.0' encoding='UTF-8'?>
<gpx version="1.1" creator="https://www.komoot.de" xmlns="http://www.topografix.com/GPX/1/1" xmlns:xsi="http://www.w3.org/2001/XMLSchema-instance" xsi:schemaLocation="http://www.topografix.com/GPX/1/1 http://www.topografix.com/GPX/1/1/gpx.xsd">
  <metadata>
    <name>RTF 2026 - Tour 4 "Gravel"</name>
    <author>
      <link href="https://www.komoot.de">
        <text>komoot</text>
        <type>text/html</type>
      </link>
    </author>
  </metadata>
  <wpt lat="48.622185" lon="10.076371">
    <name>Blick auf die Landschaft der Schwäbischen Alb</name>
    <sym>Flag, Blue</sym>
  </wpt>
  <wpt lat="48.629117" lon="10.073957">
    <name>Bank unter immergrünem Baum im Geopark Schwäbische Alb</name>
    <sym>Flag, Blue</sym>
  </wpt>
  <wpt lat="48.612743" lon="10.177977">
    <name>Steinerne Jungfrauen Felsformationen, Eselsburger Tal</name>
    <sym>Flag, Blue</sym>
  </wpt>
  <wpt lat="48.561892" lon="10.195279">
    <name>Lonetal am Kühberg</name>
    <sym>Flag, Blue</sym>
  </wpt>
  <wpt lat="48.556737" lon="10.154036">
    <name>Lonetal – Höhlen und Eiszeitkunst (UNESCO‑Welterbestätte)</name>
    <sym>Flag, Blue</sym>
  </wpt>
  <trk>
    <name>RTF 2026 - Tour 4 "Gravel"</name>
    <trkseg>
      <trkpt lat="48.581667" lon="10.022335">
        <ele>601.715228</ele>
        <time>2025-12-13T05:33:51.590Z</time>
      </trkpt>
      <trkpt lat="48.581669" lon="10.022333">
        <ele>601.715228</ele>
        <time>2025-12-13T05:33:51.637Z</time>
      </trkpt>
      <trkpt lat="48.581667" lon="10.022335">
        <ele>601.715228</ele>
        <time>2025-12-13T05:33:51.678Z</time>
      </trkpt>
      <trkpt lat="48.581589" lon="10.022428">
        <ele>601.715228</ele>
        <time>2025-12-13T05:33:53.400Z</time>
      </trkpt>
      <trkpt lat="48.581327" lon="10.022431">
        <ele>601.715228</ele>
        <time>2025-12-13T05:33:57.932Z</time>
      </trkpt>
      <trkpt lat="48.581224" lon="10.022377">
        <ele>601.715228</ele>
        <time>2025-12-13T05:33:59.785Z</time>
      </trkpt>
      <trkpt lat="48.581097" lon="10.023435">
        <ele>600.951040</ele>
        <time>2025-12-13T05:34:20.072Z</time>
      </trkpt>
      <trkpt lat="48.581012" lon="10.023558">
        <ele>600.637942</ele>
        <time>2025-12-13T05:34:22.021Z</time>
      </trkpt>
      <trkpt lat="48.580982" lon="10.023956">
        <ele>599.932819</ele>
        <time>2025-12-13T05:34:26.556Z</time>
      </trkpt>
      <trkpt lat="48.580945" lon="10.024714">
        <ele>598.594901</ele>
        <time>2025-12-13T05:34:35.753Z</time>
      </trkpt>
      <trkpt lat="48.580915" lon="10.024863">
        <ele>598.320741</ele>
        <time>2025-12-13T05:34:37.800Z</time>
      </trkpt>
      <trkpt lat="48.581143" lon="10.024942">
        <ele>597.698345</ele>
        <time>2025-12-13T05:34:42.390Z</time>
      </trkpt>
      <trkpt lat="48.581185" lon="10.024952">
        <ele>597.585214</ele>
        <time>2025-12-13T05:34:43.262Z</time>
      </trkpt>
      <trkpt lat="48.581332" lon="10.024963">
        <ele>597.193598</ele>
        <time>2025-12-13T05:34:46.335Z</time>
      </trkpt>
      <trkpt lat="48.581417" lon="10.024964">
        <ele>596.967424</ele>
        <time>2025-12-13T05:34:48.168Z</time>
      </trkpt>
      <trkpt lat="48.581447" lon="10.024965">
        <ele>596.952425</ele>
        <time>2025-12-13T05:34:48.855Z</time>
      </trkpt>
      <trkpt lat="48.581621" lon="10.024987">
        <ele>597.208125</ele>
        <time>2025-12-13T05:34:53.165Z</time>
      </trkpt>
      <trkpt lat="48.581685" lon="10.025041">
        <ele>597.315460</ele>
        <time>2025-12-13T05:34:55.102Z</time>
      </trkpt>
      <trkpt lat="48.581747" lon="10.025149">
        <ele>597.453992</ele>
        <time>2025-12-13T05:34:57.755Z</time>
      </trkpt>
      <trkpt lat="48.581825" lon="10.025404">
        <ele>597.726162</ele>
        <time>2025-12-13T05:35:03.419Z</time>
      </trkpt>
      <trkpt lat="48.581872" lon="10.025799">
        <ele>598.114975</ele>
        <time>2025-12-13T05:35:12.256Z</time>
      </trkpt>
      <trkpt lat="48.581886" lon="10.026008">
        <ele>598.318487</ele>
        <time>2025-12-13T05:35:16.945Z</time>
      </trkpt>
      <trkpt lat="48.581885" lon="10.026207">
        <ele>598.511281</ele>
        <time>2025-12-13T05:35:21.405Z</time>
      </trkpt>
      <trkpt lat="48.581885" lon="10.026271">
        <ele>598.573284</ele>
        <time>2025-12-13T05:35:22.909Z</time>
      </trkpt>
      <trkpt lat="48.581880" lon="10.026535">
        <ele>598.829149</ele>
        <time>2025-12-13T05:35:28.836Z</time>
      </trkpt>
      <trkpt lat="48.581877" lon="10.026677">
        <ele>598.966787</ele>
        <time>2025-12-13T05:35:31.942Z</time>
      </trkpt>
      <trkpt lat="48.581874" lon="10.026813">
        <ele>599.098615</ele>
        <time>2025-12-13T05:35:34.905Z</time>
      </trkpt>
      <trkpt lat="48.581874" lon="10.026860">
        <ele>599.144148</ele>
        <time>2025-12-13T05:35:35.885Z</time>
      </trkpt>
      <trkpt lat="48.581871" lon="10.027220">
        <ele>599.492940</ele>
        <time>2025-12-13T05:35:43.488Z</time>
      </trkpt>
      <trkpt lat="48.581871" lon="10.027369">
        <ele>599.572488</ele>
        <time>2025-12-13T05:35:46.461Z</time>
      </trkpt>
      <trkpt lat="48.581866" lon="10.027569">
        <ele>599.596376</ele>
        <time>2025-12-13T05:35:50.388Z</time>
      </trkpt>
      <trkpt lat="48.581865" lon="10.027999">
        <ele>599.647700</ele>
        <time>2025-12-13T05:35:58.520Z</time>
      </trkpt>
      <trkpt lat="48.581866" lon="10.028034">
        <ele>599.651881</ele>
        <time>2025-12-13T05:35:59.151Z</time>
      </trkpt>
      <trkpt lat="48.581885" lon="10.028268">
        <ele>599.680020</ele>
        <time>2025-12-13T05:36:03.188Z</time>
      </trkpt>
      <trkpt lat="48.581951" lon="10.028776">
        <ele>599.741811</ele>
        <time>2025-12-13T05:36:11.410Z</time>
      </trkpt>
      <trkpt lat="48.582003" lon="10.029174">
        <ele>599.790232</ele>
        <time>2025-12-13T05:36:17.198Z</time>
      </trkpt>
      <trkpt lat="48.582053" lon="10.029949">
        <ele>599.883171</ele>
        <time>2025-12-13T05:36:27.604Z</time>
      </trkpt>
      <trkpt lat="48.582065" lon="10.030618">
        <ele>599.055130</ele>
        <time>2025-12-13T05:36:35.844Z</time>
      </trkpt>
      <trkpt lat="48.582085" lon="10.031130">
        <ele>598.376842</ele>
        <time>2025-12-13T05:36:42.026Z</time>
      </trkpt>
      <trkpt lat="48.582124" lon="10.031514">
        <ele>597.863060</ele>
        <time>2025-12-13T05:36:46.679Z</time>
      </trkpt>
      <trkpt lat="48.582297" lon="10.032803">
        <ele>596.118184</ele>
        <time>2025-12-13T05:37:02.299Z</time>
      </trkpt>
      <trkpt lat="48.582310" lon="10.032896">
        <ele>595.988395</ele>
        <time>2025-12-13T05:37:03.409Z</time>
      </trkpt>
      <trkpt lat="48.582624" lon="10.034873">
        <ele>593.212235</ele>
        <time>2025-12-13T05:37:27.898Z</time>
      </trkpt>
      <trkpt lat="48.582786" lon="10.035820">
        <ele>592.129524</ele>
        <time>2025-12-13T05:37:40.097Z</time>
      </trkpt>
      <trkpt lat="48.582951" lon="10.036524">
        <ele>591.476448</ele>
        <time>2025-12-13T05:37:49.384Z</time>
      </trkpt>
      <trkpt lat="48.583108" lon="10.037144">
        <ele>590.895955</ele>
        <time>2025-12-13T05:37:57.688Z</time>
      </trkpt>
      <trkpt lat="48.583364" lon="10.038235">
        <ele>590.579618</ele>
        <time>2025-12-13T05:38:13.060Z</time>
      </trkpt>
      <trkpt lat="48.583493" lon="10.038890">
        <ele>591.286872</ele>
        <time>2025-12-13T05:38:23.678Z</time>
      </trkpt>
      <trkpt lat="48.583642" lon="10.039519">
        <ele>591.978291</ele>
        <time>2025-12-13T05:38:37.253Z</time>
      </trkpt>
      <trkpt lat="48.583721" lon="10.039853">
        <ele>592.345371</ele>
        <time>2025-12-13T05:38:45.769Z</time>
      </trkpt>
      <trkpt lat="48.583965" lon="10.040518">
        <ele>593.257597</ele>
        <time>2025-12-13T05:39:06.080Z</time>
      </trkpt>
      <trkpt lat="48.584250" lon="10.041024">
        <ele>594.687189</ele>
        <time>2025-12-13T05:39:24.853Z</time>
      </trkpt>
      <trkpt lat="48.584428" lon="10.041286">
        <ele>595.495084</ele>
        <time>2025-12-13T05:39:35.540Z</time>
      </trkpt>
      <trkpt lat="48.584627" lon="10.041506">
        <ele>596.296790</ele>
        <time>2025-12-13T05:39:45.871Z</time>
      </trkpt>
      <trkpt lat="48.584825" lon="10.041664">
        <ele>597.024859</ele>
        <time>2025-12-13T05:39:54.929Z</time>
      </trkpt>
      <trkpt lat="48.585054" lon="10.041781">
        <ele>597.810916</ele>
        <time>2025-12-13T05:40:03.979Z</time>
      </trkpt>
      <trkpt lat="48.585214" lon="10.041828">
        <ele>598.340945</ele>
        <time>2025-12-13T05:40:09.621Z</time>
      </trkpt>
      <trkpt lat="48.585395" lon="10.041826">
        <ele>598.882734</ele>
        <time>2025-12-13T05:40:15.453Z</time>
      </trkpt>
      <trkpt lat="48.585796" lon="10.041674">
        <ele>599.249905</ele>
        <time>2025-12-13T05:40:27.388Z</time>
      </trkpt>
      <trkpt lat="48.585920" lon="10.041577">
        <ele>599.373905</ele>
        <time>2025-12-13T05:40:31.041Z</time>
      </trkpt>
      <trkpt lat="48.586074" lon="10.041407">
        <ele>599.543264</ele>
        <time>2025-12-13T05:40:35.809Z</time>
      </trkpt>
      <trkpt lat="48.586206" lon="10.041208">
        <ele>599.708831</ele>
        <time>2025-12-13T05:40:40.303Z</time>
      </trkpt>
      <trkpt lat="48.586338" lon="10.040952">
        <ele>599.899525</ele>
        <time>2025-12-13T05:40:45.295Z</time>
      </trkpt>
      <trkpt lat="48.586445" lon="10.040624">
        <ele>600.114383</ele>
        <time>2025-12-13T05:40:50.852Z</time>
      </trkpt>
      <trkpt lat="48.586728" lon="10.039506">
        <ele>600.523869</ele>
        <time>2025-12-13T05:41:10.682Z</time>
      </trkpt>
      <trkpt lat="48.586770" lon="10.039184">
        <ele>600.557143</ele>
        <time>2025-12-13T05:41:16.816Z</time>
      </trkpt>
      <trkpt lat="48.586813" lon="10.038861">
        <ele>600.590547</ele>
        <time>2025-12-13T05:41:22.962Z</time>
      </trkpt>
      <trkpt lat="48.586852" lon="10.038193">
        <ele>600.658534</ele>
        <time>2025-12-13T05:41:34.197Z</time>
      </trkpt>
      <trkpt lat="48.586913" lon="10.037801">
        <ele>600.699362</ele>
        <time>2025-12-13T05:41:39.900Z</time>
      </trkpt>
      <trkpt lat="48.586991" lon="10.037517">
        <ele>600.730538</ele>
        <time>2025-12-13T05:41:43.924Z</time>
      </trkpt>
      <trkpt lat="48.587137" lon="10.037285">
        <ele>600.377684</ele>
        <time>2025-12-13T05:41:47.950Z</time>
      </trkpt>
      <trkpt lat="48.587285" lon="10.037152">
        <ele>599.992955</ele>
        <time>2025-12-13T05:41:51.177Z</time>
      </trkpt>
      <trkpt lat="48.587464" lon="10.037066">
        <ele>599.573260</ele>
        <time>2025-12-13T05:41:54.622Z</time>
      </trkpt>
      <trkpt lat="48.587688" lon="10.037008">
        <ele>599.065436</ele>
        <time>2025-12-13T05:41:58.694Z</time>
      </trkpt>
      <trkpt lat="48.587850" lon="10.036923">
        <ele>598.682258</ele>
        <time>2025-12-13T05:42:01.723Z</time>
      </trkpt>
      <trkpt lat="48.587971" lon="10.036816">
        <ele>598.369021</ele>
        <time>2025-12-13T05:42:04.185Z</time>
      </trkpt>
      <trkpt lat="48.588666" lon="10.035621">
        <ele>594.784580</ele>
        <time>2025-12-13T05:42:22.764Z</time>
      </trkpt>
      <trkpt lat="48.588842" lon="10.035376">
        <ele>593.311437</ele>
        <time>2025-12-13T05:42:26.833Z</time>
      </trkpt>
      <trkpt lat="48.589012" lon="10.035197">
        <ele>592.035810</ele>
        <time>2025-12-13T05:42:30.158Z</time>
      </trkpt>
      <trkpt lat="48.589461" lon="10.034887">
        <ele>588.996461</ele>
        <time>2025-12-13T05:42:37.583Z</time>
      </trkpt>
      <trkpt lat="48.589689" lon="10.034776">
        <ele>587.521569</ele>
        <time>2025-12-13T05:42:41.061Z</time>
      </trkpt>
      <trkpt lat="48.590190" lon="10.034644">
        <ele>583.723597</ele>
        <time>2025-12-13T05:42:48.338Z</time>
      </trkpt>
      <trkpt lat="48.590222" lon="10.034803">
        <ele>582.686866</ele>
        <time>2025-12-13T05:42:51.145Z</time>
      </trkpt>
      <trkpt lat="48.590644" lon="10.034758">
        <ele>578.697154</ele>
        <time>2025-12-13T05:43:01.946Z</time>
      </trkpt>
      <trkpt lat="48.591683" lon="10.034750">
        <ele>568.898360</ele>
        <time>2025-12-13T05:43:28.929Z</time>
      </trkpt>
      <trkpt lat="48.591890" lon="10.034785">
        <ele>567.129832</ele>
        <time>2025-12-13T05:43:34.410Z</time>
      </trkpt>
      <trkpt lat="48.593003" lon="10.035855">
        <ele>556.085083</ele>
        <time>2025-12-13T05:44:09.303Z</time>
      </trkpt>
      <trkpt lat="48.593876" lon="10.036278">
        <ele>549.502408</ele>
        <time>2025-12-13T05:44:33.910Z</time>
      </trkpt>
      <trkpt lat="48.595214" lon="10.036927">
        <ele>541.141427</ele>
        <time>2025-12-13T05:45:12.951Z</time>
      </trkpt>
      <trkpt lat="48.595464" lon="10.037065">
        <ele>540.468751</ele>
        <time>2025-12-13T05:45:17.866Z</time>
      </trkpt>
      <trkpt lat="48.596778" lon="10.037539">
        <ele>537.149995</ele>
        <time>2025-12-13T05:46:03.113Z</time>
      </trkpt>
      <trkpt lat="48.596839" lon="10.037627">
        <ele>537.107676</ele>
        <time>2025-12-13T05:46:06.408Z</time>
      </trkpt>
      <trkpt lat="48.596837" lon="10.037768">
        <ele>537.060858</ele>
        <time>2025-12-13T05:46:09.819Z</time>
      </trkpt>
      <trkpt lat="48.596259" lon="10.038731">
        <ele>536.629150</ele>
        <time>2025-12-13T05:46:41.561Z</time>
      </trkpt>
      <trkpt lat="48.596140" lon="10.039153">
        <ele>536.476855</ele>
        <time>2025-12-13T05:46:52.452Z</time>
      </trkpt>
      <trkpt lat="48.596076" lon="10.039652">
        <ele>536.308116</ele>
        <time>2025-12-13T05:47:04.070Z</time>
      </trkpt>
      <trkpt lat="48.595974" lon="10.042111">
        <ele>535.194629</ele>
        <time>2025-12-13T05:48:01.225Z</time>
      </trkpt>
      <trkpt lat="48.595791" lon="10.043454">
        <ele>534.880309</ele>
        <time>2025-12-13T05:48:33.549Z</time>
      </trkpt>
      <trkpt lat="48.595865" lon="10.045080">
        <ele>534.643260</ele>
        <time>2025-12-13T05:49:11.997Z</time>
      </trkpt>
      <trkpt lat="48.595984" lon="10.046165">
        <ele>536.928773</ele>
        <time>2025-12-13T05:49:44.543Z</time>
      </trkpt>
      <trkpt lat="48.596018" lon="10.046730">
        <ele>538.215435</ele>
        <time>2025-12-13T05:50:05.703Z</time>
      </trkpt>
      <trkpt lat="48.596046" lon="10.046818">
        <ele>538.436906</ele>
        <time>2025-12-13T05:50:09.757Z</time>
      </trkpt>
      <trkpt lat="48.596002" lon="10.046872">
        <ele>538.631235</ele>
        <time>2025-12-13T05:50:12.368Z</time>
      </trkpt>
      <trkpt lat="48.596046" lon="10.046818">
        <ele>538.825563</ele>
        <time>2025-12-13T05:50:15.060Z</time>
      </trkpt>
      <trkpt lat="48.596190" lon="10.046807">
        <ele>539.319989</ele>
        <time>2025-12-13T05:50:22.243Z</time>
      </trkpt>
      <trkpt lat="48.596555" lon="10.046607">
        <ele>540.651275</ele>
        <time>2025-12-13T05:50:42.363Z</time>
      </trkpt>
      <trkpt lat="48.596878" lon="10.046452">
        <ele>542.340326</ele>
        <time>2025-12-13T05:51:01.082Z</time>
      </trkpt>
      <trkpt lat="48.597187" lon="10.046349">
        <ele>543.988816</ele>
        <time>2025-12-13T05:51:19.435Z</time>
      </trkpt>
      <trkpt lat="48.597468" lon="10.046193">
        <ele>545.548331</ele>
        <time>2025-12-13T05:51:35.414Z</time>
      </trkpt>
      <trkpt lat="48.598141" lon="10.045700">
        <ele>549.444332</ele>
        <time>2025-12-13T05:52:11.536Z</time>
      </trkpt>
      <trkpt lat="48.598432" lon="10.045410">
        <ele>550.858991</ele>
        <time>2025-12-13T05:52:27.368Z</time>
      </trkpt>
      <trkpt lat="48.598520" lon="10.045350">
        <ele>551.177029</ele>
        <time>2025-12-13T05:52:31.697Z</time>
      </trkpt>
      <trkpt lat="48.598672" lon="10.045332">
        <ele>551.679345</ele>
        <time>2025-12-13T05:52:38.381Z</time>
      </trkpt>
      <trkpt lat="48.598897" lon="10.045364">
        <ele>552.423907</ele>
        <time>2025-12-13T05:52:48.046Z</time>
      </trkpt>
      <trkpt lat="48.599956" lon="10.045681">
        <ele>555.980618</ele>
        <time>2025-12-13T05:53:31.573Z</time>
      </trkpt>
      <trkpt lat="48.600093" lon="10.045791">
        <ele>556.197699</ele>
        <time>2025-12-13T05:53:36.994Z</time>
      </trkpt>
      <trkpt lat="48.600331" lon="10.046119">
        <ele>556.472494</ele>
        <time>2025-12-13T05:53:47.596Z</time>
      </trkpt>
      <trkpt lat="48.600507" lon="10.046556">
        <ele>556.761243</ele>
        <time>2025-12-13T05:53:57.939Z</time>
      </trkpt>
      <trkpt lat="48.600516" lon="10.046701">
        <ele>556.843431</ele>
        <time>2025-12-13T05:54:00.818Z</time>
      </trkpt>
      <trkpt lat="48.600247" lon="10.046358">
        <ele>557.143702</ele>
        <time>2025-12-13T05:54:10.048Z</time>
      </trkpt>
      <trkpt lat="48.599851" lon="10.046207">
        <ele>557.492212</ele>
        <time>2025-12-13T05:54:20.042Z</time>
      </trkpt>
      <trkpt lat="48.599666" lon="10.046219">
        <ele>557.660448</ele>
        <time>2025-12-13T05:54:24.356Z</time>
      </trkpt>
      <trkpt lat="48.599467" lon="10.046133">
        <ele>557.925558</ele>
        <time>2025-12-13T05:54:29.060Z</time>
      </trkpt>
      <trkpt lat="48.599303" lon="10.046128">
        <ele>558.135673</ele>
        <time>2025-12-13T05:54:32.794Z</time>
      </trkpt>
      <trkpt lat="48.599023" lon="10.046039">
        <ele>558.502171</ele>
        <time>2025-12-13T05:54:40.006Z</time>
      </trkpt>
      <trkpt lat="48.598893" lon="10.046084">
        <ele>558.672999</ele>
        <time>2025-12-13T05:54:43.787Z</time>
      </trkpt>
      <trkpt lat="48.598726" lon="10.046187">
        <ele>558.904025</ele>
        <time>2025-12-13T05:54:49.258Z</time>
      </trkpt>
      <trkpt lat="48.598593" lon="10.046330">
        <ele>559.113065</ele>
        <time>2025-12-13T05:54:54.647Z</time>
      </trkpt>
      <trkpt lat="48.598396" lon="10.046626">
        <ele>559.468805</ele>
        <time>2025-12-13T05:55:04.741Z</time>
      </trkpt>
      <trkpt lat="48.598065" lon="10.047230">
        <ele>560.490637</ele>
        <time>2025-12-13T05:55:26.885Z</time>
      </trkpt>
      <trkpt lat="48.597634" lon="10.047705">
        <ele>562.397169</ele>
        <time>2025-12-13T05:55:47.849Z</time>
      </trkpt>
      <trkpt lat="48.597456" lon="10.047865">
        <ele>563.137419</ele>
        <time>2025-12-13T05:55:56.086Z</time>
      </trkpt>
      <trkpt lat="48.596702" lon="10.048282">
        <ele>566.007423</ele>
        <time>2025-12-13T05:56:29.794Z</time>
      </trkpt>
      <trkpt lat="48.596462" lon="10.048754">
        <ele>568.654586</ele>
        <time>2025-12-13T05:56:48.617Z</time>
      </trkpt>
      <trkpt lat="48.596284" lon="10.049214">
        <ele>571.399933</ele>
        <time>2025-12-13T05:57:09.487Z</time>
      </trkpt>
      <trkpt lat="48.596083" lon="10.050070">
        <ele>576.079059</ele>
        <time>2025-12-13T05:57:51.977Z</time>
      </trkpt>
      <trkpt lat="48.596024" lon="10.050532">
        <ele>578.502894</ele>
        <time>2025-12-13T05:58:15.846Z</time>
      </trkpt>
      <trkpt lat="48.595833" lon="10.051971">
        <ele>584.911055</ele>
        <time>2025-12-13T05:59:23.176Z</time>
      </trkpt>
      <trkpt lat="48.595842" lon="10.052107">
        <ele>585.472556</ele>
        <time>2025-12-13T05:59:28.387Z</time>
      </trkpt>
      <trkpt lat="48.596195" lon="10.052935">
        <ele>589.519592</ele>
        <time>2025-12-13T06:00:00.831Z</time>
      </trkpt>
      <trkpt lat="48.597430" lon="10.055730">
        <ele>595.779405</ele>
        <time>2025-12-13T06:01:53.081Z</time>
      </trkpt>
      <trkpt lat="48.599232" lon="10.059883">
        <ele>592.686934</ele>
        <time>2025-12-13T06:03:44.559Z</time>
      </trkpt>
      <trkpt lat="48.599389" lon="10.059970">
        <ele>592.476851</ele>
        <time>2025-12-13T06:03:47.623Z</time>
      </trkpt>
      <trkpt lat="48.599846" lon="10.060131">
        <ele>592.688772</ele>
        <time>2025-12-13T06:03:56.459Z</time>
      </trkpt>
      <trkpt lat="48.600818" lon="10.060612">
        <ele>593.344406</ele>
        <time>2025-12-13T06:04:22.769Z</time>
      </trkpt>
      <trkpt lat="48.601643" lon="10.061142">
        <ele>594.669668</ele>
        <time>2025-12-13T06:04:56.391Z</time>
      </trkpt>
      <trkpt lat="48.601673" lon="10.061444">
        <ele>595.078389</ele>
        <time>2025-12-13T06:05:04.178Z</time>
      </trkpt>
      <trkpt lat="48.601854" lon="10.061557">
        <ele>595.474700</ele>
        <time>2025-12-13T06:05:11.741Z</time>
      </trkpt>
      <trkpt lat="48.601978" lon="10.061718">
        <ele>595.805473</ele>
        <time>2025-12-13T06:05:17.689Z</time>
      </trkpt>
      <trkpt lat="48.602126" lon="10.061936">
        <ele>596.223618</ele>
        <time>2025-12-13T06:05:24.645Z</time>
      </trkpt>
      <trkpt lat="48.602177" lon="10.062013">
        <ele>596.369473</ele>
        <time>2025-12-13T06:05:26.896Z</time>
      </trkpt>
      <trkpt lat="48.602452" lon="10.061903">
        <ele>596.945179</ele>
        <time>2025-12-13T06:05:34.974Z</time>
      </trkpt>
      <trkpt lat="48.602604" lon="10.061945">
        <ele>597.194384</ele>
        <time>2025-12-13T06:05:38.889Z</time>
      </trkpt>
      <trkpt lat="48.602813" lon="10.062074">
        <ele>597.029052</ele>
        <time>2025-12-13T06:05:44.048Z</time>
      </trkpt>
      <trkpt lat="48.602994" lon="10.062389">
        <ele>596.826942</ele>
        <time>2025-12-13T06:05:49.812Z</time>
      </trkpt>
      <trkpt lat="48.603073" lon="10.062607">
        <ele>596.706545</ele>
        <time>2025-12-13T06:05:53.144Z</time>
      </trkpt>
      <trkpt lat="48.603181" lon="10.063159">
        <ele>596.427745</ele>
        <time>2025-12-13T06:06:00.697Z</time>
      </trkpt>
      <trkpt lat="48.603225" lon="10.063281">
        <ele>596.360441</ele>
        <time>2025-12-13T06:06:02.510Z</time>
      </trkpt>
      <trkpt lat="48.603289" lon="10.063361">
        <ele>596.299627</ele>
        <time>2025-12-13T06:06:04.165Z</time>
      </trkpt>
      <trkpt lat="48.603315" lon="10.063539">
        <ele>596.211340</ele>
        <time>2025-12-13T06:06:06.603Z</time>
      </trkpt>
      <trkpt lat="48.603568" lon="10.063847">
        <ele>595.973460</ele>
        <time>2025-12-13T06:06:13.475Z</time>
      </trkpt>
      <trkpt lat="48.604028" lon="10.064194">
        <ele>595.832287</ele>
        <time>2025-12-13T06:06:24.660Z</time>
      </trkpt>
      <trkpt lat="48.604464" lon="10.064483">
        <ele>595.759919</ele>
        <time>2025-12-13T06:06:35.637Z</time>
      </trkpt>
      <trkpt lat="48.604615" lon="10.064594">
        <ele>595.734395</ele>
        <time>2025-12-13T06:06:39.975Z</time>
      </trkpt>
      <trkpt lat="48.604717" lon="10.064739">
        <ele>595.713114</ele>
        <time>2025-12-13T06:06:43.665Z</time>
      </trkpt>
      <trkpt lat="48.604868" lon="10.065463">
        <ele>595.636801</ele>
        <time>2025-12-13T06:06:56.870Z</time>
      </trkpt>
      <trkpt lat="48.605220" lon="10.066770">
        <ele>594.530350</ele>
        <time>2025-12-13T06:07:16.163Z</time>
      </trkpt>
      <trkpt lat="48.605345" lon="10.067080">
        <ele>594.213449</ele>
        <time>2025-12-13T06:07:20.870Z</time>
      </trkpt>
      <trkpt lat="48.605433" lon="10.067216">
        <ele>594.047374</ele>
        <time>2025-12-13T06:07:23.314Z</time>
      </trkpt>
      <trkpt lat="48.605702" lon="10.067336">
        <ele>593.677190</ele>
        <time>2025-12-13T06:07:28.690Z</time>
      </trkpt>
      <trkpt lat="48.605848" lon="10.067469">
        <ele>593.452222</ele>
        <time>2025-12-13T06:07:31.964Z</time>
      </trkpt>
      <trkpt lat="48.606018" lon="10.067710">
        <ele>593.237071</ele>
        <time>2025-12-13T06:07:36.420Z</time>
      </trkpt>
      <trkpt lat="48.606404" lon="10.068250">
        <ele>593.173244</ele>
        <time>2025-12-13T06:07:46.682Z</time>
      </trkpt>
      <trkpt lat="48.606454" lon="10.068431">
        <ele>593.157499</ele>
        <time>2025-12-13T06:07:49.420Z</time>
      </trkpt>
      <trkpt lat="48.606628" lon="10.069473">
        <ele>593.071239</ele>
        <time>2025-12-13T06:08:07.867Z</time>
      </trkpt>
      <trkpt lat="48.606949" lon="10.070326">
        <ele>593.656277</ele>
        <time>2025-12-13T06:08:27.099Z</time>
      </trkpt>
      <trkpt lat="48.607121" lon="10.070630">
        <ele>594.222332</ele>
        <time>2025-12-13T06:08:36.225Z</time>
      </trkpt>
      <trkpt lat="48.607397" lon="10.070859">
        <ele>594.895910</ele>
        <time>2025-12-13T06:08:48.465Z</time>
      </trkpt>
      <trkpt lat="48.607737" lon="10.071093">
        <ele>595.695176</ele>
        <time>2025-12-13T06:09:02.325Z</time>
      </trkpt>
      <trkpt lat="48.607817" lon="10.071124">
        <ele>595.871878</ele>
        <time>2025-12-13T06:09:05.264Z</time>
      </trkpt>
      <trkpt lat="48.607880" lon="10.071149">
        <ele>596.011239</ele>
        <time>2025-12-13T06:09:07.424Z</time>
      </trkpt>
      <trkpt lat="48.607981" lon="10.071187">
        <ele>596.233930</ele>
        <time>2025-12-13T06:09:10.949Z</time>
      </trkpt>
      <trkpt lat="48.608162" lon="10.071249">
        <ele>596.631016</ele>
        <time>2025-12-13T06:09:16.912Z</time>
      </trkpt>
      <trkpt lat="48.608294" lon="10.071254">
        <ele>596.885498</ele>
        <time>2025-12-13T06:09:21.112Z</time>
      </trkpt>
      <trkpt lat="48.608308" lon="10.071255">
        <ele>596.892740</ele>
        <time>2025-12-13T06:09:21.569Z</time>
      </trkpt>
      <trkpt lat="48.608340" lon="10.071273">
        <ele>596.910382</ele>
        <time>2025-12-13T06:09:22.684Z</time>
      </trkpt>
      <trkpt lat="48.608533" lon="10.071382">
        <ele>597.016834</ele>
        <time>2025-12-13T06:09:29.630Z</time>
      </trkpt>
      <trkpt lat="48.608853" lon="10.071323">
        <ele>597.183408</ele>
        <time>2025-12-13T06:09:40.286Z</time>
      </trkpt>
      <trkpt lat="48.609464" lon="10.071003">
        <ele>597.517515</ele>
        <time>2025-12-13T06:09:57.805Z</time>
      </trkpt>
      <trkpt lat="48.610035" lon="10.070676">
        <ele>597.755413</ele>
        <time>2025-12-13T06:10:10.511Z</time>
      </trkpt>
      <trkpt lat="48.610210" lon="10.070623">
        <ele>597.583051</ele>
        <time>2025-12-13T06:10:13.998Z</time>
      </trkpt>
      <trkpt lat="48.610870" lon="10.070421">
        <ele>596.932735</ele>
        <time>2025-12-13T06:10:26.278Z</time>
      </trkpt>
      <trkpt lat="48.611489" lon="10.070428">
        <ele>596.334918</ele>
        <time>2025-12-13T06:10:38.426Z</time>
      </trkpt>
      <trkpt lat="48.612045" lon="10.070613">
        <ele>596.653211</ele>
        <time>2025-12-13T06:10:52.461Z</time>
      </trkpt>
      <trkpt lat="48.612473" lon="10.070711">
        <ele>597.513925</ele>
        <time>2025-12-13T06:11:06.351Z</time>
      </trkpt>
      <trkpt lat="48.612704" lon="10.070735">
        <ele>597.974319</ele>
        <time>2025-12-13T06:11:14.943Z</time>
      </trkpt>
      <trkpt lat="48.612821" lon="10.070748">
        <ele>598.207584</ele>
        <time>2025-12-13T06:11:19.403Z</time>
      </trkpt>
      <trkpt lat="48.613729" lon="10.070751">
        <ele>599.638464</ele>
        <time>2025-12-13T06:11:52.741Z</time>
      </trkpt>
      <trkpt lat="48.614015" lon="10.070790">
        <ele>599.627905</ele>
        <time>2025-12-13T06:12:01.397Z</time>
      </trkpt>
      <trkpt lat="48.614312" lon="10.070980">
        <ele>599.616048</ele>
        <time>2025-12-13T06:12:09.929Z</time>
      </trkpt>
      <trkpt lat="48.615082" lon="10.071858">
        <ele>599.580592</ele>
        <time>2025-12-13T06:12:30.022Z</time>
      </trkpt>
      <trkpt lat="48.615289" lon="10.072063">
        <ele>598.881173</ele>
        <time>2025-12-13T06:12:34.488Z</time>
      </trkpt>
      <trkpt lat="48.615501" lon="10.072269">
        <ele>598.034202</ele>
        <time>2025-12-13T06:12:38.940Z</time>
      </trkpt>
      <trkpt lat="48.615677" lon="10.072395">
        <ele>597.379692</ele>
        <time>2025-12-13T06:12:42.366Z</time>
      </trkpt>
      <trkpt lat="48.616388" lon="10.072724">
        <ele>594.880462</ele>
        <time>2025-12-13T06:12:55.316Z</time>
      </trkpt>
      <trkpt lat="48.616843" lon="10.073082">
        <ele>593.115086</ele>
        <time>2025-12-13T06:13:04.214Z</time>
      </trkpt>
      <trkpt lat="48.617300" lon="10.073599">
        <ele>590.985893</ele>
        <time>2025-12-13T06:13:14.369Z</time>
      </trkpt>
      <trkpt lat="48.617972" lon="10.074261">
        <ele>587.993819</ele>
        <time>2025-12-13T06:13:28.567Z</time>
      </trkpt>
      <trkpt lat="48.618294" lon="10.074569">
        <ele>586.514330</ele>
        <time>2025-12-13T06:13:35.160Z</time>
      </trkpt>
      <trkpt lat="48.619227" lon="10.075629">
        <ele>581.150163</ele>
        <time>2025-12-13T06:13:54.614Z</time>
      </trkpt>
      <trkpt lat="48.619394" lon="10.075758">
        <ele>580.288132</ele>
        <time>2025-12-13T06:13:57.692Z</time>
      </trkpt>
      <trkpt lat="48.619692" lon="10.075898">
        <ele>578.853627</ele>
        <time>2025-12-13T06:14:02.858Z</time>
      </trkpt>
      <trkpt lat="48.620148" lon="10.075972">
        <ele>578.392773</ele>
        <time>2025-12-13T06:14:10.854Z</time>
      </trkpt>
      <trkpt lat="48.620628" lon="10.076013">
        <ele>578.195988</ele>
        <time>2025-12-13T06:14:20.081Z</time>
      </trkpt>
      <trkpt lat="48.621589" lon="10.076177">
        <ele>577.857799</ele>
        <time>2025-12-13T06:14:51.821Z</time>
      </trkpt>
      <trkpt lat="48.622108" lon="10.076285">
        <ele>578.352221</ele>
        <time>2025-12-13T06:15:13.459Z</time>
      </trkpt>
      <trkpt lat="48.622194" lon="10.076319">
        <ele>578.436110</ele>
        <time>2025-12-13T06:15:16.831Z</time>
      </trkpt>
      <trkpt lat="48.622263" lon="10.076346">
        <ele>578.503372</ele>
        <time>2025-12-13T06:15:19.536Z</time>
      </trkpt>
      <trkpt lat="48.622527" lon="10.076408">
        <ele>578.755508</ele>
        <time>2025-12-13T06:15:28.551Z</time>
      </trkpt>
      <trkpt lat="48.623325" lon="10.076622">
        <ele>579.496328</ele>
        <time>2025-12-13T06:15:45.789Z</time>
      </trkpt>
      <trkpt lat="48.623779" lon="10.076737">
        <ele>577.961151</ele>
        <time>2025-12-13T06:15:59.832Z</time>
      </trkpt>
      <trkpt lat="48.625443" lon="10.076966">
        <ele>572.906981</ele>
        <time>2025-12-13T06:16:49.682Z</time>
      </trkpt>
      <trkpt lat="48.626131" lon="10.077030">
        <ele>571.664464</ele>
        <time>2025-12-13T06:17:11.888Z</time>
      </trkpt>
      <trkpt lat="48.627415" lon="10.077062">
        <ele>570.639954</ele>
        <time>2025-12-13T06:17:58.026Z</time>
      </trkpt>
      <trkpt lat="48.628649" lon="10.077207">
        <ele>571.522047</ele>
        <time>2025-12-13T06:18:51.351Z</time>
      </trkpt>
      <trkpt lat="48.628853" lon="10.077246">
        <ele>571.695079</ele>
        <time>2025-12-13T06:19:00.359Z</time>
      </trkpt>
      <trkpt lat="48.628908" lon="10.076985">
        <ele>571.854532</ele>
        <time>2025-12-13T06:19:08.141Z</time>
      </trkpt>
      <trkpt lat="48.628934" lon="10.076705">
        <ele>572.019109</ele>
        <time>2025-12-13T06:19:16.040Z</time>
      </trkpt>
      <trkpt lat="48.628918" lon="10.075871">
        <ele>572.504752</ele>
        <time>2025-12-13T06:19:39.019Z</time>
      </trkpt>
      <trkpt lat="48.628937" lon="10.074412">
        <ele>573.780584</ele>
        <time>2025-12-13T06:20:17.316Z</time>
      </trkpt>
      <trkpt lat="48.629036" lon="10.073920">
        <ele>574.676639</ele>
        <time>2025-12-13T06:20:31.651Z</time>
      </trkpt>
      <trkpt lat="48.629148" lon="10.073361">
        <ele>575.694347</ele>
        <time>2025-12-13T06:20:49.169Z</time>
      </trkpt>
      <trkpt lat="48.629440" lon="10.072318">
        <ele>577.667854</ele>
        <time>2025-12-13T06:21:33.394Z</time>
      </trkpt>
      <trkpt lat="48.629624" lon="10.071563">
        <ele>579.118626</ele>
        <time>2025-12-13T06:22:05.619Z</time>
      </trkpt>
      <trkpt lat="48.629781" lon="10.071141">
        <ele>579.996981</ele>
        <time>2025-12-13T06:22:23.694Z</time>
      </trkpt>
      <trkpt lat="48.630207" lon="10.070275">
        <ele>581.955030</ele>
        <time>2025-12-13T06:23:00.092Z</time>
      </trkpt>
      <trkpt lat="48.630493" lon="10.069524">
        <ele>582.963692</ele>
        <time>2025-12-13T06:23:21.014Z</time>
      </trkpt>
      <trkpt lat="48.630734" lon="10.068510">
        <ele>583.365885</ele>
        <time>2025-12-13T06:23:46.407Z</time>
      </trkpt>
      <trkpt lat="48.630927" lon="10.067925">
        <ele>583.609922</ele>
        <time>2025-12-13T06:24:04.327Z</time>
      </trkpt>
      <trkpt lat="48.631113" lon="10.067280">
        <ele>583.956655</ele>
        <time>2025-12-13T06:24:25.399Z</time>
      </trkpt>
      <trkpt lat="48.631275" lon="10.066425">
        <ele>585.002238</ele>
        <time>2025-12-13T06:24:52.579Z</time>
      </trkpt>
      <trkpt lat="48.631326" lon="10.065954">
        <ele>585.563302</ele>
        <time>2025-12-13T06:25:06.710Z</time>
      </trkpt>
      <trkpt lat="48.631348" lon="10.064971">
        <ele>586.719525</ele>
        <time>2025-12-13T06:25:35.971Z</time>
      </trkpt>
      <trkpt lat="48.631419" lon="10.064423">
        <ele>587.569477</ele>
        <time>2025-12-13T06:25:53.803Z</time>
      </trkpt>
      <trkpt lat="48.631393" lon="10.064125">
        <ele>588.122000</ele>
        <time>2025-12-13T06:26:03.788Z</time>
      </trkpt>
      <trkpt lat="48.631194" lon="10.063209">
        <ele>589.894389</ele>
        <time>2025-12-13T06:26:29.112Z</time>
      </trkpt>
      <trkpt lat="48.631094" lon="10.062613">
        <ele>591.024689</ele>
        <time>2025-12-13T06:26:46.332Z</time>
      </trkpt>
      <trkpt lat="48.631115" lon="10.062375">
        <ele>591.466054</ele>
        <time>2025-12-13T06:26:53.107Z</time>
      </trkpt>
      <trkpt lat="48.632058" lon="10.058655">
        <ele>598.710867</ele>
        <time>2025-12-13T06:28:29.018Z</time>
      </trkpt>
      <trkpt lat="48.632149" lon="10.058157">
        <ele>599.944973</ele>
        <time>2025-12-13T06:28:42.987Z</time>
      </trkpt>
      <trkpt lat="48.632270" lon="10.056402">
        <ele>604.765498</ele>
        <time>2025-12-13T06:29:39.014Z</time>
      </trkpt>
      <trkpt lat="48.632361" lon="10.054502">
        <ele>611.566770</ele>
        <time>2025-12-13T06:30:46.700Z</time>
      </trkpt>
      <trkpt lat="48.632320" lon="10.053845">
        <ele>613.705656</ele>
        <time>2025-12-13T06:31:09.051Z</time>
      </trkpt>
      <trkpt lat="48.632218" lon="10.052832">
        <ele>616.739067</ele>
        <time>2025-12-13T06:31:41.379Z</time>
      </trkpt>
      <trkpt lat="48.631871" lon="10.049394">
        <ele>626.072849</ele>
        <time>2025-12-13T06:33:23.744Z</time>
      </trkpt>
      <trkpt lat="48.631894" lon="10.049007">
        <ele>627.048245</ele>
        <time>2025-12-13T06:33:34.920Z</time>
      </trkpt>
      <trkpt lat="48.631957" lon="10.048623">
        <ele>627.851985</ele>
        <time>2025-12-13T06:33:45.945Z</time>
      </trkpt>
      <trkpt lat="48.632105" lon="10.048153">
        <ele>628.665200</ele>
        <time>2025-12-13T06:33:59.826Z</time>
      </trkpt>
      <trkpt lat="48.632232" lon="10.047917">
        <ele>629.140580</ele>
        <time>2025-12-13T06:34:07.642Z</time>
      </trkpt>
      <trkpt lat="48.633008" lon="10.047288">
        <ele>631.221216</ele>
        <time>2025-12-13T06:34:38.797Z</time>
      </trkpt>
      <trkpt lat="48.633547" lon="10.046549">
        <ele>631.665631</ele>
        <time>2025-12-13T06:35:00.843Z</time>
      </trkpt>
      <trkpt lat="48.634172" lon="10.045629">
        <ele>631.440936</ele>
        <time>2025-12-13T06:35:22.932Z</time>
      </trkpt>
      <trkpt lat="48.635158" lon="10.044003">
        <ele>627.097794</ele>
        <time>2025-12-13T06:35:52.121Z</time>
      </trkpt>
      <trkpt lat="48.635638" lon="10.043241">
        <ele>624.207243</ele>
        <time>2025-12-13T06:36:04.195Z</time>
      </trkpt>
      <trkpt lat="48.636047" lon="10.042434">
        <ele>620.799597</ele>
        <time>2025-12-13T06:36:15.555Z</time>
      </trkpt>
      <trkpt lat="48.636158" lon="10.041880">
        <ele>618.809203</ele>
        <time>2025-12-13T06:36:22.142Z</time>
      </trkpt>
      <trkpt lat="48.636380" lon="10.043267">
        <ele>614.214411</ele>
        <time>2025-12-13T06:36:38.416Z</time>
      </trkpt>
      <trkpt lat="48.636618" lon="10.044525">
        <ele>612.079067</ele>
        <time>2025-12-13T06:36:55.577Z</time>
      </trkpt>
      <trkpt lat="48.636661" lon="10.044749">
        <ele>611.698422</ele>
        <time>2025-12-13T06:36:58.678Z</time>
      </trkpt>
      <trkpt lat="48.637342" lon="10.046266">
        <ele>607.896866</ele>
        <time>2025-12-13T06:37:20.725Z</time>
      </trkpt>
      <trkpt lat="48.637444" lon="10.046553">
        <ele>607.046203</ele>
        <time>2025-12-13T06:37:24.404Z</time>
      </trkpt>
      <trkpt lat="48.637633" lon="10.047143">
        <ele>605.334650</ele>
        <time>2025-12-13T06:37:31.767Z</time>
      </trkpt>
      <trkpt lat="48.638033" lon="10.048319">
        <ele>602.320324</ele>
        <time>2025-12-13T06:37:46.478Z</time>
      </trkpt>
      <trkpt lat="48.638262" lon="10.049145">
        <ele>600.942071</ele>
        <time>2025-12-13T06:37:56.791Z</time>
      </trkpt>
      <trkpt lat="48.638473" lon="10.050031">
        <ele>599.492998</ele>
        <time>2025-12-13T06:38:08.589Z</time>
      </trkpt>
      <trkpt lat="48.638757" lon="10.050639">
        <ele>599.297039</ele>
        <time>2025-12-13T06:38:20.710Z</time>
      </trkpt>
      <trkpt lat="48.639163" lon="10.052014">
        <ele>602.293293</ele>
        <time>2025-12-13T06:39:01.335Z</time>
      </trkpt>
      <trkpt lat="48.639200" lon="10.052100">
        <ele>602.497459</ele>
        <time>2025-12-13T06:39:04.467Z</time>
      </trkpt>
      <trkpt lat="48.639293" lon="10.052422">
        <ele>603.196595</ele>
        <time>2025-12-13T06:39:15.725Z</time>
      </trkpt>
      <trkpt lat="48.639428" lon="10.052917">
        <ele>604.236635</ele>
        <time>2025-12-13T06:39:31.434Z</time>
      </trkpt>
      <trkpt lat="48.639572" lon="10.053241">
        <ele>604.782383</ele>
        <time>2025-12-13T06:39:41.965Z</time>
      </trkpt>
      <trkpt lat="48.639622" lon="10.053427">
        <ele>605.063039</ele>
        <time>2025-12-13T06:39:47.128Z</time>
      </trkpt>
      <trkpt lat="48.639864" lon="10.054327">
        <ele>606.421099</ele>
        <time>2025-12-13T06:40:09.049Z</time>
      </trkpt>
      <trkpt lat="48.640056" lon="10.055038">
        <ele>607.494618</ele>
        <time>2025-12-13T06:40:22.987Z</time>
      </trkpt>
      <trkpt lat="48.640090" lon="10.055167">
        <ele>607.688730</ele>
        <time>2025-12-13T06:40:25.478Z</time>
      </trkpt>
      <trkpt lat="48.640451" lon="10.056215">
        <ele>608.986808</ele>
        <time>2025-12-13T06:40:58.260Z</time>
      </trkpt>
      <trkpt lat="48.640743" lon="10.056864">
        <ele>609.798619</ele>
        <time>2025-12-13T06:41:20.927Z</time>
      </trkpt>
      <trkpt lat="48.640921" lon="10.057104">
        <ele>610.171648</ele>
        <time>2025-12-13T06:41:31.804Z</time>
      </trkpt>
      <trkpt lat="48.641342" lon="10.058105">
        <ele>612.038681</ele>
        <time>2025-12-13T06:42:10.092Z</time>
      </trkpt>
      <trkpt lat="48.641726" lon="10.059555">
        <ele>615.368855</ele>
        <time>2025-12-13T06:43:06.323Z</time>
      </trkpt>
      <trkpt lat="48.641827" lon="10.060105">
        <ele>616.585792</ele>
        <time>2025-12-13T06:43:27.360Z</time>
      </trkpt>
      <trkpt lat="48.642157" lon="10.061008">
        <ele>619.030760</ele>
        <time>2025-12-13T06:44:06.152Z</time>
      </trkpt>
      <trkpt lat="48.642306" lon="10.061374">
        <ele>620.049917</ele>
        <time>2025-12-13T06:44:22.448Z</time>
      </trkpt>
      <trkpt lat="48.642840" lon="10.062500">
        <ele>623.274274</ele>
        <time>2025-12-13T06:45:11.296Z</time>
      </trkpt>
      <trkpt lat="48.643465" lon="10.063746">
        <ele>626.179744</ele>
        <time>2025-12-13T06:46:04.362Z</time>
      </trkpt>
      <trkpt lat="48.645365" lon="10.067468">
        <ele>632.748015</ele>
        <time>2025-12-13T06:48:40.634Z</time>
      </trkpt>
      <trkpt lat="48.646783" lon="10.070579">
        <ele>631.600182</ele>
        <time>2025-12-13T06:50:04.044Z</time>
      </trkpt>
      <trkpt lat="48.648081" lon="10.073787">
        <ele>632.082732</ele>
        <time>2025-12-13T06:51:46.151Z</time>
      </trkpt>
      <trkpt lat="48.648552" lon="10.075834">
        <ele>630.692188</ele>
        <time>2025-12-13T06:52:35.235Z</time>
      </trkpt>
      <trkpt lat="48.648445" lon="10.076372">
        <ele>629.915721</ele>
        <time>2025-12-13T06:52:47.182Z</time>
      </trkpt>
      <trkpt lat="48.647762" lon="10.077579">
        <ele>626.858828</ele>
        <time>2025-12-13T06:53:19.694Z</time>
      </trkpt>
      <trkpt lat="48.647227" lon="10.078278">
        <ele>624.926413</ele>
        <time>2025-12-13T06:53:41.068Z</time>
      </trkpt>
      <trkpt lat="48.646824" lon="10.078727">
        <ele>623.832968</ele>
        <time>2025-12-13T06:53:56.516Z</time>
      </trkpt>
      <trkpt lat="48.645142" lon="10.082314">
        <ele>618.529504</ele>
        <time>2025-12-13T06:55:33.897Z</time>
      </trkpt>
      <trkpt lat="48.644106" lon="10.084610">
        <ele>613.337992</ele>
        <time>2025-12-13T06:56:31.869Z</time>
      </trkpt>
      <trkpt lat="48.643122" lon="10.086714">
        <ele>604.643118</ele>
        <time>2025-12-13T06:57:20.299Z</time>
      </trkpt>
      <trkpt lat="48.642582" lon="10.087725">
        <ele>600.273234</ele>
        <time>2025-12-13T06:57:44.639Z</time>
      </trkpt>
      <trkpt lat="48.642255" lon="10.088456">
        <ele>597.306851</ele>
        <time>2025-12-13T06:58:01.543Z</time>
      </trkpt>
      <trkpt lat="48.642085" lon="10.088835">
        <ele>595.767556</ele>
        <time>2025-12-13T06:58:10.360Z</time>
      </trkpt>
      <trkpt lat="48.641874" lon="10.089463">
        <ele>593.408074</ele>
        <time>2025-12-13T06:58:23.940Z</time>
      </trkpt>
      <trkpt lat="48.640262" lon="10.095234">
        <ele>570.759572</ele>
        <time>2025-12-13T07:00:22.463Z</time>
      </trkpt>
      <trkpt lat="48.639424" lon="10.098235">
        <ele>557.201483</ele>
        <time>2025-12-13T07:01:19.678Z</time>
      </trkpt>
      <trkpt lat="48.639071" lon="10.099596">
        <ele>554.952721</ele>
        <time>2025-12-13T07:01:50.785Z</time>
      </trkpt>
      <trkpt lat="48.638940" lon="10.099927">
        <ele>555.673588</ele>
        <time>2025-12-13T07:02:04.078Z</time>
      </trkpt>
      <trkpt lat="48.638847" lon="10.100048">
        <ele>556.020362</ele>
        <time>2025-12-13T07:02:10.874Z</time>
      </trkpt>
      <trkpt lat="48.638685" lon="10.100156">
        <ele>556.520884</ele>
        <time>2025-12-13T07:02:21.005Z</time>
      </trkpt>
      <trkpt lat="48.638549" lon="10.100223">
        <ele>556.925279</ele>
        <time>2025-12-13T07:02:29.476Z</time>
      </trkpt>
      <trkpt lat="48.638310" lon="10.100248">
        <ele>557.602648</ele>
        <time>2025-12-13T07:02:44.269Z</time>
      </trkpt>
      <trkpt lat="48.638148" lon="10.100319">
        <ele>558.079516</ele>
        <time>2025-12-13T07:02:55.121Z</time>
      </trkpt>
      <trkpt lat="48.638045" lon="10.100385">
        <ele>558.395774</ele>
        <time>2025-12-13T07:03:02.512Z</time>
      </trkpt>
      <trkpt lat="48.637928" lon="10.100528">
        <ele>558.821005</ele>
        <time>2025-12-13T07:03:12.841Z</time>
      </trkpt>
      <trkpt lat="48.637850" lon="10.100743">
        <ele>559.612634</ele>
        <time>2025-12-13T07:03:24.336Z</time>
      </trkpt>
      <trkpt lat="48.637746" lon="10.101245">
        <ele>561.469914</ele>
        <time>2025-12-13T07:03:48.376Z</time>
      </trkpt>
      <trkpt lat="48.637408" lon="10.103203">
        <ele>568.621083</ele>
        <time>2025-12-13T07:05:10.410Z</time>
      </trkpt>
      <trkpt lat="48.636918" lon="10.104753">
        <ele>575.095378</ele>
        <time>2025-12-13T07:06:25.493Z</time>
      </trkpt>
      <trkpt lat="48.636807" lon="10.105343">
        <ele>577.406852</ele>
        <time>2025-12-13T07:06:53.036Z</time>
      </trkpt>
      <trkpt lat="48.636680" lon="10.106821">
        <ele>582.863005</ele>
        <time>2025-12-13T07:07:57.335Z</time>
      </trkpt>
      <trkpt lat="48.636618" lon="10.107197">
        <ele>584.268342</ele>
        <time>2025-12-13T07:08:13.779Z</time>
      </trkpt>
      <trkpt lat="48.636584" lon="10.107349">
        <ele>584.850278</ele>
        <time>2025-12-13T07:08:20.526Z</time>
      </trkpt>
      <trkpt lat="48.636518" lon="10.107478">
        <ele>585.441904</ele>
        <time>2025-12-13T07:08:27.396Z</time>
      </trkpt>
      <trkpt lat="48.636508" lon="10.107884">
        <ele>586.915252</ele>
        <time>2025-12-13T07:08:40.583Z</time>
      </trkpt>
      <trkpt lat="48.636261" lon="10.108776">
        <ele>590.151679</ele>
        <time>2025-12-13T07:09:12.116Z</time>
      </trkpt>
      <trkpt lat="48.635902" lon="10.110878">
        <ele>596.828868</ele>
        <time>2025-12-13T07:10:20.319Z</time>
      </trkpt>
      <trkpt lat="48.635032" lon="10.110646">
        <ele>597.105543</ele>
        <time>2025-12-13T07:10:59.446Z</time>
      </trkpt>
      <trkpt lat="48.633875" lon="10.110572">
        <ele>597.187637</ele>
        <time>2025-12-13T07:11:37.306Z</time>
      </trkpt>
      <trkpt lat="48.633203" lon="10.110459">
        <ele>597.103563</ele>
        <time>2025-12-13T07:12:00.195Z</time>
      </trkpt>
      <trkpt lat="48.632942" lon="10.112966">
        <ele>597.219148</ele>
        <time>2025-12-13T07:13:12.736Z</time>
      </trkpt>
      <trkpt lat="48.632133" lon="10.120050">
        <ele>597.339586</ele>
        <time>2025-12-13T07:16:10.074Z</time>
      </trkpt>
      <trkpt lat="48.631965" lon="10.119946">
        <ele>596.725836</ele>
        <time>2025-12-13T07:16:13.564Z</time>
      </trkpt>
      <trkpt lat="48.631918" lon="10.120033">
        <ele>596.474735</ele>
        <time>2025-12-13T07:16:15.057Z</time>
      </trkpt>
      <trkpt lat="48.631903" lon="10.120061">
        <ele>596.394191</ele>
        <time>2025-12-13T07:16:15.537Z</time>
      </trkpt>
      <trkpt lat="48.631424" lon="10.120956">
        <ele>593.820632</ele>
        <time>2025-12-13T07:16:30.087Z</time>
      </trkpt>
      <trkpt lat="48.630816" lon="10.121535">
        <ele>591.206893</ele>
        <time>2025-12-13T07:16:42.973Z</time>
      </trkpt>
      <trkpt lat="48.630600" lon="10.121672">
        <ele>589.831873</ele>
        <time>2025-12-13T07:16:47.142Z</time>
      </trkpt>
      <trkpt lat="48.629205" lon="10.122567">
        <ele>580.897536</ele>
        <time>2025-12-13T07:17:13.580Z</time>
      </trkpt>
      <trkpt lat="48.629030" lon="10.122740">
        <ele>579.347184</ele>
        <time>2025-12-13T07:17:17.144Z</time>
      </trkpt>
      <trkpt lat="48.628871" lon="10.122974">
        <ele>577.702137</ele>
        <time>2025-12-13T07:17:20.885Z</time>
      </trkpt>
      <trkpt lat="48.628136" lon="10.123953">
        <ele>570.439671</ele>
        <time>2025-12-13T07:17:37.181Z</time>
      </trkpt>
      <trkpt lat="48.627193" lon="10.124806">
        <ele>563.561865</ele>
        <time>2025-12-13T07:17:55.598Z</time>
      </trkpt>
      <trkpt lat="48.626399" lon="10.125304">
        <ele>558.672818</ele>
        <time>2025-12-13T07:18:10.935Z</time>
      </trkpt>
      <trkpt lat="48.626419" lon="10.125990">
        <ele>557.057117</ele>
        <time>2025-12-13T07:18:19.764Z</time>
      </trkpt>
      <trkpt lat="48.626487" lon="10.126622">
        <ele>556.285948</ele>
        <time>2025-12-13T07:18:28.534Z</time>
      </trkpt>
      <trkpt lat="48.626535" lon="10.127066">
        <ele>555.744110</ele>
        <time>2025-12-13T07:18:35.069Z</time>
      </trkpt>
      <trkpt lat="48.626584" lon="10.128382">
        <ele>554.191344</ele>
        <time>2025-12-13T07:18:54.272Z</time>
      </trkpt>
      <trkpt lat="48.626616" lon="10.129491">
        <ele>553.445869</ele>
        <time>2025-12-13T07:19:10.382Z</time>
      </trkpt>
      <trkpt lat="48.626608" lon="10.130081">
        <ele>553.049563</ele>
        <time>2025-12-13T07:19:19.219Z</time>
      </trkpt>
      <trkpt lat="48.626579" lon="10.130308">
        <ele>552.894296</ele>
        <time>2025-12-13T07:19:22.679Z</time>
      </trkpt>
      <trkpt lat="48.626316" lon="10.131434">
        <ele>552.262890</ele>
        <time>2025-12-13T07:19:40.304Z</time>
      </trkpt>
      <trkpt lat="48.626239" lon="10.131664">
        <ele>552.183441</ele>
        <time>2025-12-13T07:19:44.138Z</time>
      </trkpt>
      <trkpt lat="48.625930" lon="10.132415">
        <ele>551.910838</ele>
        <time>2025-12-13T07:19:57.505Z</time>
      </trkpt>
      <trkpt lat="48.625892" lon="10.132712">
        <ele>551.817616</ele>
        <time>2025-12-13T07:20:02.088Z</time>
      </trkpt>
      <trkpt lat="48.626008" lon="10.134383">
        <ele>552.219645</ele>
        <time>2025-12-13T07:20:30.933Z</time>
      </trkpt>
      <trkpt lat="48.626058" lon="10.134799">
        <ele>552.534642</ele>
        <time>2025-12-13T07:20:39.894Z</time>
      </trkpt>
      <trkpt lat="48.626166" lon="10.135324">
        <ele>552.944265</ele>
        <time>2025-12-13T07:20:51.768Z</time>
      </trkpt>
      <trkpt lat="48.626230" lon="10.135629">
        <ele>553.182661</ele>
        <time>2025-12-13T07:21:01.431Z</time>
      </trkpt>
      <trkpt lat="48.626299" lon="10.136151">
        <ele>553.579244</ele>
        <time>2025-12-13T07:21:17.599Z</time>
      </trkpt>
      <trkpt lat="48.626396" lon="10.137384">
        <ele>554.571941</ele>
        <time>2025-12-13T07:21:54.430Z</time>
      </trkpt>
      <trkpt lat="48.626491" lon="10.137971">
        <ele>555.055706</ele>
        <time>2025-12-13T07:22:11.345Z</time>
      </trkpt>
      <trkpt lat="48.626665" lon="10.138708">
        <ele>555.682167</ele>
        <time>2025-12-13T07:22:32.886Z</time>
      </trkpt>
      <trkpt lat="48.626892" lon="10.139876">
        <ele>555.495886</ele>
        <time>2025-12-13T07:23:05.135Z</time>
      </trkpt>
      <trkpt lat="48.626946" lon="10.140516">
        <ele>555.332729</ele>
        <time>2025-12-13T07:23:20.787Z</time>
      </trkpt>
      <trkpt lat="48.626976" lon="10.141364">
        <ele>555.117979</ele>
        <time>2025-12-13T07:23:40.081Z</time>
      </trkpt>
      <trkpt lat="48.627029" lon="10.141945">
        <ele>553.760794</ele>
        <time>2025-12-13T07:23:47.452Z</time>
      </trkpt>
      <trkpt lat="48.627107" lon="10.142269">
        <ele>552.770693</ele>
        <time>2025-12-13T07:23:51.529Z</time>
      </trkpt>
      <trkpt lat="48.627243" lon="10.142606">
        <ele>551.636947</ele>
        <time>2025-12-13T07:23:56.032Z</time>
      </trkpt>
      <trkpt lat="48.627511" lon="10.143148">
        <ele>549.693394</ele>
        <time>2025-12-13T07:24:03.483Z</time>
      </trkpt>
      <trkpt lat="48.627366" lon="10.143570">
        <ele>548.327748</ele>
        <time>2025-12-13T07:24:08.369Z</time>
      </trkpt>
      <trkpt lat="48.626997" lon="10.144613">
        <ele>543.711791</ele>
        <time>2025-12-13T07:24:20.237Z</time>
      </trkpt>
      <trkpt lat="48.626928" lon="10.144723">
        <ele>543.049661</ele>
        <time>2025-12-13T07:24:21.727Z</time>
      </trkpt>
      <trkpt lat="48.626587" lon="10.144998">
        <ele>540.497073</ele>
        <time>2025-12-13T07:24:27.521Z</time>
      </trkpt>
      <trkpt lat="48.626559" lon="10.145120">
        <ele>539.933202</ele>
        <time>2025-12-13T07:24:28.782Z</time>
      </trkpt>
      <trkpt lat="48.626573" lon="10.145174">
        <ele>539.679940</ele>
        <time>2025-12-13T07:24:29.356Z</time>
      </trkpt>
      <trkpt lat="48.626596" lon="10.145241">
        <ele>539.350305</ele>
        <time>2025-12-13T07:24:30.103Z</time>
      </trkpt>
      <trkpt lat="48.626661" lon="10.145281">
        <ele>538.886771</ele>
        <time>2025-12-13T07:24:31.137Z</time>
      </trkpt>
      <trkpt lat="48.627031" lon="10.145249">
        <ele>536.438649</ele>
        <time>2025-12-13T07:24:36.701Z</time>
      </trkpt>
      <trkpt lat="48.627118" lon="10.145268">
        <ele>535.857992</ele>
        <time>2025-12-13T07:24:38.026Z</time>
      </trkpt>
      <trkpt lat="48.627705" lon="10.145555">
        <ele>532.397478</ele>
        <time>2025-12-13T07:24:47.644Z</time>
      </trkpt>
      <trkpt lat="48.627792" lon="10.145556">
        <ele>531.920636</ele>
        <time>2025-12-13T07:24:49.049Z</time>
      </trkpt>
      <trkpt lat="48.627880" lon="10.145519">
        <ele>531.420049</ele>
        <time>2025-12-13T07:24:50.530Z</time>
      </trkpt>
      <trkpt lat="48.627971" lon="10.145429">
        <ele>530.824191</ele>
        <time>2025-12-13T07:24:52.250Z</time>
      </trkpt>
      <trkpt lat="48.628259" lon="10.145081">
        <ele>528.804107</ele>
        <time>2025-12-13T07:24:58.119Z</time>
      </trkpt>
      <trkpt lat="48.628758" lon="10.144636">
        <ele>525.629476</ele>
        <time>2025-12-13T07:25:07.465Z</time>
      </trkpt>
      <trkpt lat="48.629232" lon="10.144293">
        <ele>521.194579</ele>
        <time>2025-12-13T07:25:15.335Z</time>
      </trkpt>
      <trkpt lat="48.629432" lon="10.144160">
        <ele>519.328266</ele>
        <time>2025-12-13T07:25:18.499Z</time>
      </trkpt>
      <trkpt lat="48.629643" lon="10.144134">
        <ele>517.519757</ele>
        <time>2025-12-13T07:25:21.517Z</time>
      </trkpt>
      <trkpt lat="48.629747" lon="10.144216">
        <ele>516.517904</ele>
        <time>2025-12-13T07:25:23.201Z</time>
      </trkpt>
      <trkpt lat="48.629888" lon="10.144408">
        <ele>514.897378</ele>
        <time>2025-12-13T07:25:25.952Z</time>
      </trkpt>
      <trkpt lat="48.629988" lon="10.144504">
        <ele>513.885648</ele>
        <time>2025-12-13T07:25:27.669Z</time>
      </trkpt>
      <trkpt lat="48.630136" lon="10.144567">
        <ele>512.572223</ele>
        <time>2025-12-13T07:25:29.829Z</time>
      </trkpt>
      <trkpt lat="48.630294" lon="10.144574">
        <ele>511.221874</ele>
        <time>2025-12-13T07:25:32.058Z</time>
      </trkpt>
      <trkpt lat="48.630499" lon="10.144453">
        <ele>509.248023</ele>
        <time>2025-12-13T07:25:35.148Z</time>
      </trkpt>
      <trkpt lat="48.630569" lon="10.144482">
        <ele>508.557410</ele>
        <time>2025-12-13T07:25:36.182Z</time>
      </trkpt>
      <trkpt lat="48.630612" lon="10.144582">
        <ele>507.807119</ele>
        <time>2025-12-13T07:25:37.272Z</time>
      </trkpt>
      <trkpt lat="48.630567" lon="10.144677">
        <ele>507.072060</ele>
        <time>2025-12-13T07:25:38.361Z</time>
      </trkpt>
      <trkpt lat="48.630411" lon="10.144767">
        <ele>505.483371</ele>
        <time>2025-12-13T07:25:40.700Z</time>
      </trkpt>
      <trkpt lat="48.630260" lon="10.144888">
        <ele>503.857440</ele>
        <time>2025-12-13T07:25:43.112Z</time>
      </trkpt>
      <trkpt lat="48.630168" lon="10.145046">
        <ele>502.533139</ele>
        <time>2025-12-13T07:25:45.099Z</time>
      </trkpt>
      <trkpt lat="48.630088" lon="10.145213">
        <ele>501.235998</ele>
        <time>2025-12-13T07:25:47.773Z</time>
      </trkpt>
      <trkpt lat="48.630033" lon="10.145391">
        <ele>500.000247</ele>
        <time>2025-12-13T07:25:50.321Z</time>
      </trkpt>
      <trkpt lat="48.630004" lon="10.145499">
        <ele>499.267110</ele>
        <time>2025-12-13T07:25:51.834Z</time>
      </trkpt>
      <trkpt lat="48.629993" lon="10.145783">
        <ele>497.477949</ele>
        <time>2025-12-13T07:25:54.515Z</time>
      </trkpt>
      <trkpt lat="48.629999" lon="10.145897">
        <ele>496.758725</ele>
        <time>2025-12-13T07:25:55.631Z</time>
      </trkpt>
      <trkpt lat="48.630007" lon="10.145983">
        <ele>496.212534</ele>
        <time>2025-12-13T07:25:56.463Z</time>
      </trkpt>
      <trkpt lat="48.630028" lon="10.146166">
        <ele>495.044416</ele>
        <time>2025-12-13T07:25:58.227Z</time>
      </trkpt>
      <trkpt lat="48.630061" lon="10.146330">
        <ele>493.966266</ele>
        <time>2025-12-13T07:25:59.830Z</time>
      </trkpt>
      <trkpt lat="48.630075" lon="10.146408">
        <ele>493.457952</ele>
        <time>2025-12-13T07:26:00.605Z</time>
      </trkpt>
      <trkpt lat="48.630125" lon="10.146605">
        <ele>492.570707</ele>
        <time>2025-12-13T07:26:02.632Z</time>
      </trkpt>
      <trkpt lat="48.630217" lon="10.146915">
        <ele>491.453517</ele>
        <time>2025-12-13T07:26:05.993Z</time>
      </trkpt>
      <trkpt lat="48.630352" lon="10.147348">
        <ele>489.879543</ele>
        <time>2025-12-13T07:26:10.745Z</time>
      </trkpt>
      <trkpt lat="48.630357" lon="10.147374">
        <ele>489.790520</ele>
        <time>2025-12-13T07:26:11.017Z</time>
      </trkpt>
      <trkpt lat="48.630443" lon="10.147607">
        <ele>488.913152</ele>
        <time>2025-12-13T07:26:13.740Z</time>
      </trkpt>
      <trkpt lat="48.630459" lon="10.147649">
        <ele>488.753778</ele>
        <time>2025-12-13T07:26:14.243Z</time>
      </trkpt>
      <trkpt lat="48.630485" lon="10.147739">
        <ele>488.430864</ele>
        <time>2025-12-13T07:26:15.277Z</time>
      </trkpt>
      <trkpt lat="48.630530" lon="10.147895">
        <ele>487.871280</ele>
        <time>2025-12-13T07:26:17.102Z</time>
      </trkpt>
      <trkpt lat="48.630567" lon="10.148008">
        <ele>487.456691</ele>
        <time>2025-12-13T07:26:18.478Z</time>
      </trkpt>
      <trkpt lat="48.630545" lon="10.148061">
        <ele>487.250933</ele>
        <time>2025-12-13T07:26:19.177Z</time>
      </trkpt>
      <trkpt lat="48.630519" lon="10.148125">
        <ele>487.003957</ele>
        <time>2025-12-13T07:26:20.001Z</time>
      </trkpt>
      <trkpt lat="48.630490" lon="10.148196">
        <ele>486.729560</ele>
        <time>2025-12-13T07:26:20.924Z</time>
      </trkpt>
      <trkpt lat="48.630490" lon="10.148245">
        <ele>486.568468</ele>
        <time>2025-12-13T07:26:21.496Z</time>
      </trkpt>
      <trkpt lat="48.630486" lon="10.148415">
        <ele>486.009225</ele>
        <time>2025-12-13T07:26:23.530Z</time>
      </trkpt>
      <trkpt lat="48.630529" lon="10.149507">
        <ele>483.700258</ele>
        <time>2025-12-13T07:26:37.039Z</time>
      </trkpt>
      <trkpt lat="48.630545" lon="10.149891">
        <ele>483.397393</ele>
        <time>2025-12-13T07:26:42.094Z</time>
      </trkpt>
      <trkpt lat="48.630553" lon="10.150094">
        <ele>483.237318</ele>
        <time>2025-12-13T07:26:44.873Z</time>
      </trkpt>
      <trkpt lat="48.630561" lon="10.150299">
        <ele>483.075672</ele>
        <time>2025-12-13T07:26:47.748Z</time>
      </trkpt>
      <trkpt lat="48.630569" lon="10.150594">
        <ele>482.843267</ele>
        <time>2025-12-13T07:26:51.888Z</time>
      </trkpt>
      <trkpt lat="48.630575" lon="10.150817">
        <ele>482.667588</ele>
        <time>2025-12-13T07:26:55.022Z</time>
      </trkpt>
      <trkpt lat="48.630632" lon="10.151194">
        <ele>482.363167</ele>
        <time>2025-12-13T07:27:00.362Z</time>
      </trkpt>
      <trkpt lat="48.630576" lon="10.151414">
        <ele>482.177595</ele>
        <time>2025-12-13T07:27:03.487Z</time>
      </trkpt>
      <trkpt lat="48.630550" lon="10.151673">
        <ele>481.971385</ele>
        <time>2025-12-13T07:27:06.785Z</time>
      </trkpt>
      <trkpt lat="48.630541" lon="10.151790">
        <ele>481.782819</ele>
        <time>2025-12-13T07:27:08.238Z</time>
      </trkpt>
      <trkpt lat="48.630530" lon="10.151919">
        <ele>481.564566</ele>
        <time>2025-12-13T07:27:09.803Z</time>
      </trkpt>
      <trkpt lat="48.630515" lon="10.152119">
        <ele>481.226818</ele>
        <time>2025-12-13T07:27:12.214Z</time>
      </trkpt>
      <trkpt lat="48.630490" lon="10.152481">
        <ele>480.616084</ele>
        <time>2025-12-13T07:27:16.538Z</time>
      </trkpt>
      <trkpt lat="48.630472" lon="10.152682">
        <ele>480.275730</ele>
        <time>2025-12-13T07:27:18.931Z</time>
      </trkpt>
      <trkpt lat="48.630468" lon="10.152723">
        <ele>480.206187</ele>
        <time>2025-12-13T07:27:19.421Z</time>
      </trkpt>
      <trkpt lat="48.630434" lon="10.152828">
        <ele>480.009990</ele>
        <time>2025-12-13T07:27:20.778Z</time>
      </trkpt>
      <trkpt lat="48.630342" lon="10.152943">
        <ele>479.707014</ele>
        <time>2025-12-13T07:27:22.859Z</time>
      </trkpt>
      <trkpt lat="48.630146" lon="10.153006">
        <ele>479.198290</ele>
        <time>2025-12-13T07:27:26.294Z</time>
      </trkpt>
      <trkpt lat="48.629851" lon="10.152973">
        <ele>478.447278</ele>
        <time>2025-12-13T07:27:31.284Z</time>
      </trkpt>
      <trkpt lat="48.629781" lon="10.153009">
        <ele>478.259571</ele>
        <time>2025-12-13T07:27:32.549Z</time>
      </trkpt>
      <trkpt lat="48.629746" lon="10.153116">
        <ele>478.059239</ele>
        <time>2025-12-13T07:27:33.871Z</time>
      </trkpt>
      <trkpt lat="48.629734" lon="10.153327">
        <ele>477.703873</ele>
        <time>2025-12-13T07:27:36.264Z</time>
      </trkpt>
      <trkpt lat="48.629722" lon="10.153718">
        <ele>477.156036</ele>
        <time>2025-12-13T07:27:40.759Z</time>
      </trkpt>
      <trkpt lat="48.629723" lon="10.153988">
        <ele>476.844121</ele>
        <time>2025-12-13T07:27:43.947Z</time>
      </trkpt>
      <trkpt lat="48.629743" lon="10.154335">
        <ele>476.441737</ele>
        <time>2025-12-13T07:27:48.183Z</time>
      </trkpt>
      <trkpt lat="48.629775" lon="10.154552">
        <ele>476.184890</ele>
        <time>2025-12-13T07:27:50.951Z</time>
      </trkpt>
      <trkpt lat="48.629787" lon="10.154611">
        <ele>476.113578</ele>
        <time>2025-12-13T07:27:51.732Z</time>
      </trkpt>
      <trkpt lat="48.629829" lon="10.154772">
        <ele>475.913623</ele>
        <time>2025-12-13T07:27:53.900Z</time>
      </trkpt>
      <trkpt lat="48.629934" lon="10.155020">
        <ele>475.573385</ele>
        <time>2025-12-13T07:27:57.615Z</time>
      </trkpt>
      <trkpt lat="48.629700" lon="10.155318">
        <ele>475.038783</ele>
        <time>2025-12-13T07:28:03.725Z</time>
      </trkpt>
      <trkpt lat="48.629648" lon="10.155394">
        <ele>474.912413</ele>
        <time>2025-12-13T07:28:05.181Z</time>
      </trkpt>
      <trkpt lat="48.629572" lon="10.155532">
        <ele>474.704900</ele>
        <time>2025-12-13T07:28:07.619Z</time>
      </trkpt>
      <trkpt lat="48.629498" lon="10.155684">
        <ele>474.486810</ele>
        <time>2025-12-13T07:28:10.217Z</time>
      </trkpt>
      <trkpt lat="48.629431" lon="10.155999">
        <ele>474.183583</ele>
        <time>2025-12-13T07:28:14.795Z</time>
      </trkpt>
      <trkpt lat="48.628374" lon="10.156090">
        <ele>473.318401</ele>
        <time>2025-12-13T07:28:36.079Z</time>
      </trkpt>
      <trkpt lat="48.628158" lon="10.156106">
        <ele>473.141674</ele>
        <time>2025-12-13T07:28:40.464Z</time>
      </trkpt>
      <trkpt lat="48.627321" lon="10.156166">
        <ele>472.687143</ele>
        <time>2025-12-13T07:28:57.749Z</time>
      </trkpt>
      <trkpt lat="48.626849" lon="10.156195">
        <ele>472.573552</ele>
        <time>2025-12-13T07:29:07.902Z</time>
      </trkpt>
      <trkpt lat="48.625659" lon="10.156282">
        <ele>472.323181</ele>
        <time>2025-12-13T07:29:34.193Z</time>
      </trkpt>
      <trkpt lat="48.625544" lon="10.156291">
        <ele>472.311223</ele>
        <time>2025-12-13T07:29:36.817Z</time>
      </trkpt>
      <trkpt lat="48.625189" lon="10.156326">
        <ele>472.274279</ele>
        <time>2025-12-13T07:29:44.936Z</time>
      </trkpt>
      <trkpt lat="48.624901" lon="10.156345">
        <ele>472.244342</ele>
        <time>2025-12-13T07:29:51.317Z</time>
      </trkpt>
      <trkpt lat="48.624429" lon="10.156373">
        <ele>472.195289</ele>
        <time>2025-12-13T07:30:01.589Z</time>
      </trkpt>
      <trkpt lat="48.624169" lon="10.156389">
        <ele>472.168266</ele>
        <time>2025-12-13T07:30:07.222Z</time>
      </trkpt>
      <trkpt lat="48.622894" lon="10.156475">
        <ele>471.767834</ele>
        <time>2025-12-13T07:30:34.189Z</time>
      </trkpt>
      <trkpt lat="48.622246" lon="10.156536">
        <ele>471.585463</ele>
        <time>2025-12-13T07:30:48.204Z</time>
      </trkpt>
      <trkpt lat="48.621684" lon="10.156559">
        <ele>471.578565</ele>
        <time>2025-12-13T07:31:00.625Z</time>
      </trkpt>
      <trkpt lat="48.619937" lon="10.156702">
        <ele>472.059212</ele>
        <time>2025-12-13T07:31:39.843Z</time>
      </trkpt>
      <trkpt lat="48.619852" lon="10.156708">
        <ele>472.129683</ele>
        <time>2025-12-13T07:31:41.759Z</time>
      </trkpt>
      <trkpt lat="48.619706" lon="10.156719">
        <ele>472.250745</ele>
        <time>2025-12-13T07:31:47.244Z</time>
      </trkpt>
      <trkpt lat="48.619852" lon="10.156708">
        <ele>472.371807</ele>
        <time>2025-12-13T07:31:52.733Z</time>
      </trkpt>
      <trkpt lat="48.620099" lon="10.158336">
        <ele>474.166137</ele>
        <time>2025-12-13T07:32:25.039Z</time>
      </trkpt>
      <trkpt lat="48.620258" lon="10.159483">
        <ele>477.238536</ele>
        <time>2025-12-13T07:32:57.351Z</time>
      </trkpt>
      <trkpt lat="48.620331" lon="10.159852">
        <ele>478.248303</ele>
        <time>2025-12-13T07:33:09.538Z</time>
      </trkpt>
      <trkpt lat="48.620773" lon="10.160502">
        <ele>480.889272</ele>
        <time>2025-12-13T07:33:39.810Z</time>
      </trkpt>
      <trkpt lat="48.621190" lon="10.160985">
        <ele>483.780417</ele>
        <time>2025-12-13T07:34:06.376Z</time>
      </trkpt>
      <trkpt lat="48.621389" lon="10.161279">
        <ele>485.311636</ele>
        <time>2025-12-13T07:34:21.635Z</time>
      </trkpt>
      <trkpt lat="48.621563" lon="10.161647">
        <ele>486.958063</ele>
        <time>2025-12-13T07:34:37.377Z</time>
      </trkpt>
      <trkpt lat="48.621594" lon="10.161951">
        <ele>488.077374</ele>
        <time>2025-12-13T07:34:48.104Z</time>
      </trkpt>
      <trkpt lat="48.621598" lon="10.161999">
        <ele>488.253424</ele>
        <time>2025-12-13T07:34:49.814Z</time>
      </trkpt>
      <trkpt lat="48.621697" lon="10.162174">
        <ele>489.091596</ele>
        <time>2025-12-13T07:34:57.358Z</time>
      </trkpt>
      <trkpt lat="48.621770" lon="10.162303">
        <ele>489.709530</ele>
        <time>2025-12-13T07:35:02.272Z</time>
      </trkpt>
      <trkpt lat="48.621954" lon="10.162859">
        <ele>491.142356</ele>
        <time>2025-12-13T07:35:18.720Z</time>
      </trkpt>
      <trkpt lat="48.622019" lon="10.163055">
        <ele>491.588788</ele>
        <time>2025-12-13T07:35:25.206Z</time>
      </trkpt>
      <trkpt lat="48.622097" lon="10.163291">
        <ele>492.125962</ele>
        <time>2025-12-13T07:35:33.129Z</time>
      </trkpt>
      <trkpt lat="48.622151" lon="10.163443">
        <ele>492.477274</ele>
        <time>2025-12-13T07:35:38.639Z</time>
      </trkpt>
      <trkpt lat="48.622165" lon="10.163483">
        <ele>492.569419</ele>
        <time>2025-12-13T07:35:39.911Z</time>
      </trkpt>
      <trkpt lat="48.622218" lon="10.163627">
        <ele>492.904963</ele>
        <time>2025-12-13T07:35:44.901Z</time>
      </trkpt>
      <trkpt lat="48.622242" lon="10.163690">
        <ele>493.052997</ele>
        <time>2025-12-13T07:35:46.699Z</time>
      </trkpt>
      <trkpt lat="48.622277" lon="10.163764">
        <ele>493.238243</ele>
        <time>2025-12-13T07:35:49.316Z</time>
      </trkpt>
      <trkpt lat="48.622360" lon="10.163858">
        <ele>493.557569</ele>
        <time>2025-12-13T07:35:52.807Z</time>
      </trkpt>
      <trkpt lat="48.622351" lon="10.164026">
        <ele>493.900713</ele>
        <time>2025-12-13T07:35:56.951Z</time>
      </trkpt>
      <trkpt lat="48.622391" lon="10.164171">
        <ele>494.220587</ele>
        <time>2025-12-13T07:36:00.453Z</time>
      </trkpt>
      <trkpt lat="48.622486" lon="10.164554">
        <ele>495.053405</ele>
        <time>2025-12-13T07:36:08.657Z</time>
      </trkpt>
      <trkpt lat="48.622637" lon="10.165029">
        <ele>495.172702</ele>
        <time>2025-12-13T07:36:16.904Z</time>
      </trkpt>
      <trkpt lat="48.622702" lon="10.165311">
        <ele>494.617103</ele>
        <time>2025-12-13T07:36:21.066Z</time>
      </trkpt>
      <trkpt lat="48.622826" lon="10.165916">
        <ele>493.438729</ele>
        <time>2025-12-13T07:36:30.265Z</time>
      </trkpt>
      <trkpt lat="48.622882" lon="10.166184">
        <ele>492.915839</ele>
        <time>2025-12-13T07:36:33.654Z</time>
      </trkpt>
      <trkpt lat="48.622976" lon="10.166581">
        <ele>492.131331</ele>
        <time>2025-12-13T07:36:38.270Z</time>
      </trkpt>
      <trkpt lat="48.622929" lon="10.167386">
        <ele>490.627926</ele>
        <time>2025-12-13T07:36:46.458Z</time>
      </trkpt>
      <trkpt lat="48.623001" lon="10.167876">
        <ele>488.174311</ele>
        <time>2025-12-13T07:36:51.378Z</time>
      </trkpt>
      <trkpt lat="48.623059" lon="10.168143">
        <ele>486.740113</ele>
        <time>2025-12-13T07:36:54.104Z</time>
      </trkpt>
      <trkpt lat="48.623152" lon="10.168412">
        <ele>485.190979</ele>
        <time>2025-12-13T07:36:57.059Z</time>
      </trkpt>
      <trkpt lat="48.623215" lon="10.168566">
        <ele>484.266787</ele>
        <time>2025-12-13T07:36:58.822Z</time>
      </trkpt>
      <trkpt lat="48.623250" lon="10.168654">
        <ele>483.742699</ele>
        <time>2025-12-13T07:36:59.829Z</time>
      </trkpt>
      <trkpt lat="48.623278" lon="10.168722">
        <ele>483.333874</ele>
        <time>2025-12-13T07:37:00.598Z</time>
      </trkpt>
      <trkpt lat="48.623302" lon="10.168791">
        <ele>482.935994</ele>
        <time>2025-12-13T07:37:01.352Z</time>
      </trkpt>
      <trkpt lat="48.623316" lon="10.168824">
        <ele>482.735895</ele>
        <time>2025-12-13T07:37:01.733Z</time>
      </trkpt>
      <trkpt lat="48.623481" lon="10.169229">
        <ele>480.308162</ele>
        <time>2025-12-13T07:37:06.260Z</time>
      </trkpt>
      <trkpt lat="48.623530" lon="10.169360">
        <ele>479.540062</ele>
        <time>2025-12-13T07:37:07.676Z</time>
      </trkpt>
      <trkpt lat="48.623610" lon="10.169575">
        <ele>478.281034</ele>
        <time>2025-12-13T07:37:10.019Z</time>
      </trkpt>
      <trkpt lat="48.623646" lon="10.169749">
        <ele>477.350638</ele>
        <time>2025-12-13T07:37:11.774Z</time>
      </trkpt>
      <trkpt lat="48.623502" lon="10.169752">
        <ele>476.446130</ele>
        <time>2025-12-13T07:37:13.922Z</time>
      </trkpt>
      <trkpt lat="48.623097" lon="10.169895">
        <ele>474.742669</ele>
        <time>2025-12-13T07:37:20.249Z</time>
      </trkpt>
      <trkpt lat="48.623038" lon="10.169914">
        <ele>474.495590</ele>
        <time>2025-12-13T07:37:21.188Z</time>
      </trkpt>
      <trkpt lat="48.622862" lon="10.169968">
        <ele>473.760019</ele>
        <time>2025-12-13T07:37:24.021Z</time>
      </trkpt>
      <trkpt lat="48.622796" lon="10.169992">
        <ele>473.481983</ele>
        <time>2025-12-13T07:37:25.123Z</time>
      </trkpt>
      <trkpt lat="48.622616" lon="10.170050">
        <ele>472.728165</ele>
        <time>2025-12-13T07:37:28.139Z</time>
      </trkpt>
      <trkpt lat="48.622358" lon="10.170135">
        <ele>471.646629</ele>
        <time>2025-12-13T07:37:32.574Z</time>
      </trkpt>
      <trkpt lat="48.621955" lon="10.170267">
        <ele>469.957695</ele>
        <time>2025-12-13T07:37:40.078Z</time>
      </trkpt>
      <trkpt lat="48.621927" lon="10.170276">
        <ele>469.840447</ele>
        <time>2025-12-13T07:37:40.645Z</time>
      </trkpt>
      <trkpt lat="48.621687" lon="10.170354">
        <ele>469.319922</ele>
        <time>2025-12-13T07:37:46.120Z</time>
      </trkpt>
      <trkpt lat="48.621598" lon="10.170385">
        <ele>469.325204</ele>
        <time>2025-12-13T07:37:48.483Z</time>
      </trkpt>
      <trkpt lat="48.621459" lon="10.170426">
        <ele>469.333394</ele>
        <time>2025-12-13T07:37:52.022Z</time>
      </trkpt>
      <trkpt lat="48.621424" lon="10.170437">
        <ele>469.335462</ele>
        <time>2025-12-13T07:37:52.863Z</time>
      </trkpt>
      <trkpt lat="48.621254" lon="10.170488">
        <ele>469.345485</ele>
        <time>2025-12-13T07:37:56.700Z</time>
      </trkpt>
      <trkpt lat="48.621020" lon="10.170559">
        <ele>469.359287</ele>
        <time>2025-12-13T07:38:01.923Z</time>
      </trkpt>
      <trkpt lat="48.620995" lon="10.170566">
        <ele>469.360758</ele>
        <time>2025-12-13T07:38:02.486Z</time>
      </trkpt>
      <trkpt lat="48.620802" lon="10.170625">
        <ele>469.372145</ele>
        <time>2025-12-13T07:38:07.064Z</time>
      </trkpt>
      <trkpt lat="48.620686" lon="10.170660">
        <ele>469.378986</ele>
        <time>2025-12-13T07:38:09.824Z</time>
      </trkpt>
      <trkpt lat="48.620593" lon="10.170696">
        <ele>469.384538</ele>
        <time>2025-12-13T07:38:12.148Z</time>
      </trkpt>
      <trkpt lat="48.620553" lon="10.170713">
        <ele>469.386941</ele>
        <time>2025-12-13T07:38:13.085Z</time>
      </trkpt>
      <trkpt lat="48.620500" lon="10.170736">
        <ele>469.390129</ele>
        <time>2025-12-13T07:38:14.394Z</time>
      </trkpt>
      <trkpt lat="48.620358" lon="10.170846">
        <ele>469.399356</ele>
        <time>2025-12-13T07:38:18.167Z</time>
      </trkpt>
      <trkpt lat="48.620235" lon="10.170883">
        <ele>469.406609</ele>
        <time>2025-12-13T07:38:21.181Z</time>
      </trkpt>
      <trkpt lat="48.620124" lon="10.170924">
        <ele>469.413217</ele>
        <time>2025-12-13T07:38:24.105Z</time>
      </trkpt>
      <trkpt lat="48.620052" lon="10.170862">
        <ele>469.421495</ele>
        <time>2025-12-13T07:38:26.302Z</time>
      </trkpt>
      <trkpt lat="48.620004" lon="10.170888">
        <ele>469.437039</ele>
        <time>2025-12-13T07:38:27.602Z</time>
      </trkpt>
      <trkpt lat="48.619976" lon="10.170953">
        <ele>469.452675</ele>
        <time>2025-12-13T07:38:28.869Z</time>
      </trkpt>
      <trkpt lat="48.619908" lon="10.170977">
        <ele>469.473964</ele>
        <time>2025-12-13T07:38:30.764Z</time>
      </trkpt>
      <trkpt lat="48.619736" lon="10.171051">
        <ele>469.528483</ele>
        <time>2025-12-13T07:38:35.433Z</time>
      </trkpt>
      <trkpt lat="48.619563" lon="10.171059">
        <ele>469.581252</ele>
        <time>2025-12-13T07:38:39.912Z</time>
      </trkpt>
      <trkpt lat="48.619376" lon="10.171107">
        <ele>469.639079</ele>
        <time>2025-12-13T07:38:44.758Z</time>
      </trkpt>
      <trkpt lat="48.619248" lon="10.171152">
        <ele>469.679144</ele>
        <time>2025-12-13T07:38:48.152Z</time>
      </trkpt>
      <trkpt lat="48.619111" lon="10.171227">
        <ele>469.723563</ele>
        <time>2025-12-13T07:38:51.908Z</time>
      </trkpt>
      <trkpt lat="48.618945" lon="10.171410">
        <ele>469.786187</ele>
        <time>2025-12-13T07:38:57.244Z</time>
      </trkpt>
      <trkpt lat="48.618787" lon="10.171755">
        <ele>469.870776</ele>
        <time>2025-12-13T07:39:03.820Z</time>
      </trkpt>
      <trkpt lat="48.618470" lon="10.172350">
        <ele>469.745537</ele>
        <time>2025-12-13T07:39:14.557Z</time>
      </trkpt>
      <trkpt lat="48.618401" lon="10.172475">
        <ele>469.623616</ele>
        <time>2025-12-13T07:39:16.727Z</time>
      </trkpt>
      <trkpt lat="48.618241" lon="10.172717">
        <ele>469.367370</ele>
        <time>2025-12-13T07:39:21.067Z</time>
      </trkpt>
      <trkpt lat="48.618133" lon="10.172899">
        <ele>469.184264</ele>
        <time>2025-12-13T07:39:24.069Z</time>
      </trkpt>
      <trkpt lat="48.618054" lon="10.173184">
        <ele>468.952889</ele>
        <time>2025-12-13T07:39:27.823Z</time>
      </trkpt>
      <trkpt lat="48.617826" lon="10.174490">
        <ele>467.941579</ele>
        <time>2025-12-13T07:39:44.738Z</time>
      </trkpt>
      <trkpt lat="48.617774" lon="10.174844">
        <ele>468.010207</ele>
        <time>2025-12-13T07:39:49.664Z</time>
      </trkpt>
      <trkpt lat="48.617765" lon="10.174897">
        <ele>468.023152</ele>
        <time>2025-12-13T07:39:50.428Z</time>
      </trkpt>
      <trkpt lat="48.617727" lon="10.175211">
        <ele>468.098665</ele>
        <time>2025-12-13T07:39:55.130Z</time>
      </trkpt>
      <trkpt lat="48.617721" lon="10.175273">
        <ele>468.113488</ele>
        <time>2025-12-13T07:39:56.145Z</time>
      </trkpt>
      <trkpt lat="48.617701" lon="10.175560">
        <ele>468.181757</ele>
        <time>2025-12-13T07:40:01.091Z</time>
      </trkpt>
      <trkpt lat="48.617680" lon="10.175915">
        <ele>468.266070</ele>
        <time>2025-12-13T07:40:07.604Z</time>
      </trkpt>
      <trkpt lat="48.617646" lon="10.176592">
        <ele>468.426682</ele>
        <time>2025-12-13T07:40:19.662Z</time>
      </trkpt>
      <trkpt lat="48.617642" lon="10.176637">
        <ele>468.437423</ele>
        <time>2025-12-13T07:40:20.446Z</time>
      </trkpt>
      <trkpt lat="48.617621" lon="10.176869">
        <ele>468.492817</ele>
        <time>2025-12-13T07:40:24.462Z</time>
      </trkpt>
      <trkpt lat="48.617604" lon="10.177020">
        <ele>468.529052</ele>
        <time>2025-12-13T07:40:27.093Z</time>
      </trkpt>
      <trkpt lat="48.617601" lon="10.177048">
        <ele>468.535762</ele>
        <time>2025-12-13T07:40:27.582Z</time>
      </trkpt>
      <trkpt lat="48.617587" lon="10.177131">
        <ele>468.556025</ele>
        <time>2025-12-13T07:40:29.083Z</time>
      </trkpt>
      <trkpt lat="48.617616" lon="10.177254">
        <ele>468.595262</ele>
        <time>2025-12-13T07:40:31.302Z</time>
      </trkpt>
      <trkpt lat="48.617531" lon="10.177228">
        <ele>468.643844</ele>
        <time>2025-12-13T07:40:33.562Z</time>
      </trkpt>
      <trkpt lat="48.617323" lon="10.177066">
        <ele>468.774907</ele>
        <time>2025-12-13T07:40:39.648Z</time>
      </trkpt>
      <trkpt lat="48.617080" lon="10.176881">
        <ele>468.927308</ele>
        <time>2025-12-13T07:40:46.510Z</time>
      </trkpt>
      <trkpt lat="48.616949" lon="10.176798">
        <ele>469.006874</ele>
        <time>2025-12-13T07:40:49.970Z</time>
      </trkpt>
      <trkpt lat="48.616573" lon="10.176649">
        <ele>469.224623</ele>
        <time>2025-12-13T07:40:59.156Z</time>
      </trkpt>
      <trkpt lat="48.616377" lon="10.176591">
        <ele>469.336506</ele>
        <time>2025-12-13T07:41:03.582Z</time>
      </trkpt>
      <trkpt lat="48.616201" lon="10.176572">
        <ele>469.435354</ele>
        <time>2025-12-13T07:41:07.890Z</time>
      </trkpt>
      <trkpt lat="48.616016" lon="10.176538">
        <ele>469.539756</ele>
        <time>2025-12-13T07:41:12.833Z</time>
      </trkpt>
      <trkpt lat="48.615617" lon="10.176469">
        <ele>469.822601</ele>
        <time>2025-12-13T07:41:23.697Z</time>
      </trkpt>
      <trkpt lat="48.615325" lon="10.176484">
        <ele>470.037485</ele>
        <time>2025-12-13T07:41:31.425Z</time>
      </trkpt>
      <trkpt lat="48.615194" lon="10.176558">
        <ele>470.140332</ele>
        <time>2025-12-13T07:41:35.097Z</time>
      </trkpt>
      <trkpt lat="48.615050" lon="10.176693">
        <ele>470.264934</ele>
        <time>2025-12-13T07:41:39.582Z</time>
      </trkpt>
      <trkpt lat="48.614918" lon="10.176800">
        <ele>470.375080</ele>
        <time>2025-12-13T07:41:43.550Z</time>
      </trkpt>
      <trkpt lat="48.614243" lon="10.177044">
        <ele>470.885509</ele>
        <time>2025-12-13T07:42:01.570Z</time>
      </trkpt>
      <trkpt lat="48.613480" lon="10.177574">
        <ele>471.241186</ele>
        <time>2025-12-13T07:42:21.872Z</time>
      </trkpt>
      <trkpt lat="48.613220" lon="10.177741">
        <ele>471.358331</ele>
        <time>2025-12-13T07:42:29.095Z</time>
      </trkpt>
      <trkpt lat="48.612742" lon="10.177972">
        <ele>471.566437</ele>
        <time>2025-12-13T07:42:41.405Z</time>
      </trkpt>
      <trkpt lat="48.612696" lon="10.177994">
        <ele>471.586445</ele>
        <time>2025-12-13T07:42:42.496Z</time>
      </trkpt>
      <trkpt lat="48.612359" lon="10.178027">
        <ele>471.801988</ele>
        <time>2025-12-13T07:42:50.015Z</time>
      </trkpt>
      <trkpt lat="48.611836" lon="10.177876">
        <ele>472.236735</ele>
        <time>2025-12-13T07:43:02.029Z</time>
      </trkpt>
      <trkpt lat="48.611561" lon="10.177906">
        <ele>472.461859</ele>
        <time>2025-12-13T07:43:08.998Z</time>
      </trkpt>
      <trkpt lat="48.610787" lon="10.178176">
        <ele>473.110430</ele>
        <time>2025-12-13T07:43:32.073Z</time>
      </trkpt>
      <trkpt lat="48.610331" lon="10.178433">
        <ele>473.559153</ele>
        <time>2025-12-13T07:43:47.268Z</time>
      </trkpt>
      <trkpt lat="48.609887" lon="10.178458">
        <ele>473.969663</ele>
        <time>2025-12-13T07:44:01.342Z</time>
      </trkpt>
      <trkpt lat="48.608807" lon="10.178305">
        <ele>474.683283</ele>
        <time>2025-12-13T07:44:26.250Z</time>
      </trkpt>
      <trkpt lat="48.608637" lon="10.178241">
        <ele>474.602940</ele>
        <time>2025-12-13T07:44:29.937Z</time>
      </trkpt>
      <trkpt lat="48.608337" lon="10.178039">
        <ele>474.452338</ele>
        <time>2025-12-13T07:44:36.926Z</time>
      </trkpt>
      <trkpt lat="48.607937" lon="10.177931">
        <ele>474.265993</ele>
        <time>2025-12-13T07:44:45.613Z</time>
      </trkpt>
      <trkpt lat="48.607551" lon="10.177704">
        <ele>474.076057</ele>
        <time>2025-12-13T07:44:53.986Z</time>
      </trkpt>
      <trkpt lat="48.607094" lon="10.177317">
        <ele>473.720238</ele>
        <time>2025-12-13T07:45:04.905Z</time>
      </trkpt>
      <trkpt lat="48.606518" lon="10.176645">
        <ele>473.060511</ele>
        <time>2025-12-13T07:45:18.779Z</time>
      </trkpt>
      <trkpt lat="48.606293" lon="10.176438">
        <ele>472.821674</ele>
        <time>2025-12-13T07:45:23.730Z</time>
      </trkpt>
      <trkpt lat="48.606142" lon="10.176331">
        <ele>472.670449</ele>
        <time>2025-12-13T07:45:26.902Z</time>
      </trkpt>
      <trkpt lat="48.605961" lon="10.176250">
        <ele>472.499269</ele>
        <time>2025-12-13T07:45:30.611Z</time>
      </trkpt>
      <trkpt lat="48.605835" lon="10.176234">
        <ele>472.384600</ele>
        <time>2025-12-13T07:45:33.225Z</time>
      </trkpt>
      <trkpt lat="48.605761" lon="10.176446">
        <ele>472.616934</ele>
        <time>2025-12-13T07:45:39.045Z</time>
      </trkpt>
      <trkpt lat="48.605610" lon="10.176704">
        <ele>473.356271</ele>
        <time>2025-12-13T07:45:48.146Z</time>
      </trkpt>
      <trkpt lat="48.605404" lon="10.177316">
        <ele>474.829882</ele>
        <time>2025-12-13T07:46:09.519Z</time>
      </trkpt>
      <trkpt lat="48.605289" lon="10.177948">
        <ele>476.236466</ele>
        <time>2025-12-13T07:46:33.778Z</time>
      </trkpt>
      <trkpt lat="48.604952" lon="10.179271">
        <ele>480.518158</ele>
        <time>2025-12-13T07:47:35.842Z</time>
      </trkpt>
      <trkpt lat="48.604877" lon="10.179467">
        <ele>481.542351</ele>
        <time>2025-12-13T07:47:46.862Z</time>
      </trkpt>
      <trkpt lat="48.604772" lon="10.179687">
        <ele>482.769472</ele>
        <time>2025-12-13T07:48:00.346Z</time>
      </trkpt>
      <trkpt lat="48.604228" lon="10.180426">
        <ele>487.771070</ele>
        <time>2025-12-13T07:48:54.964Z</time>
      </trkpt>
      <trkpt lat="48.604018" lon="10.180712">
        <ele>489.704031</ele>
        <time>2025-12-13T07:49:15.631Z</time>
      </trkpt>
      <trkpt lat="48.603976" lon="10.180908">
        <ele>490.620554</ele>
        <time>2025-12-13T07:49:25.410Z</time>
      </trkpt>
      <trkpt lat="48.603844" lon="10.181794">
        <ele>494.365461</ele>
        <time>2025-12-13T07:50:06.244Z</time>
      </trkpt>
      <trkpt lat="48.603696" lon="10.183109">
        <ele>499.865722</ele>
        <time>2025-12-13T07:51:03.246Z</time>
      </trkpt>
      <trkpt lat="48.603609" lon="10.183555">
        <ele>501.798740</ele>
        <time>2025-12-13T07:51:24.660Z</time>
      </trkpt>
      <trkpt lat="48.603296" lon="10.184578">
        <ele>507.137120</ele>
        <time>2025-12-13T07:52:21.429Z</time>
      </trkpt>
      <trkpt lat="48.603108" lon="10.184947">
        <ele>509.343244</ele>
        <time>2025-12-13T07:52:45.326Z</time>
      </trkpt>
      <trkpt lat="48.602821" lon="10.185388">
        <ele>512.273639</ele>
        <time>2025-12-13T07:53:16.639Z</time>
      </trkpt>
      <trkpt lat="48.602401" lon="10.185999">
        <ele>515.190202</ele>
        <time>2025-12-13T07:53:57.128Z</time>
      </trkpt>
      <trkpt lat="48.602184" lon="10.186155">
        <ele>515.764867</ele>
        <time>2025-12-13T07:54:11.484Z</time>
      </trkpt>
      <trkpt lat="48.601798" lon="10.186310">
        <ele>516.720065</ele>
        <time>2025-12-13T07:54:31.945Z</time>
      </trkpt>
      <trkpt lat="48.601490" lon="10.186408">
        <ele>517.472844</ele>
        <time>2025-12-13T07:54:41.025Z</time>
      </trkpt>
      <trkpt lat="48.601231" lon="10.186453">
        <ele>518.096375</ele>
        <time>2025-12-13T07:54:47.293Z</time>
      </trkpt>
      <trkpt lat="48.601195" lon="10.186518">
        <ele>518.230475</ele>
        <time>2025-12-13T07:54:48.516Z</time>
      </trkpt>
      <trkpt lat="48.601165" lon="10.186660">
        <ele>518.466250</ele>
        <time>2025-12-13T07:54:50.594Z</time>
      </trkpt>
      <trkpt lat="48.600998" lon="10.186631">
        <ele>518.861344</ele>
        <time>2025-12-13T07:54:53.971Z</time>
      </trkpt>
      <trkpt lat="48.600851" lon="10.186670">
        <ele>518.846715</ele>
        <time>2025-12-13T07:54:56.828Z</time>
      </trkpt>
      <trkpt lat="48.600223" lon="10.187017">
        <ele>518.781180</ele>
        <time>2025-12-13T07:55:09.270Z</time>
      </trkpt>
      <trkpt lat="48.600116" lon="10.187023">
        <ele>518.770685</ele>
        <time>2025-12-13T07:55:11.428Z</time>
      </trkpt>
      <trkpt lat="48.599969" lon="10.187004">
        <ele>518.756225</ele>
        <time>2025-12-13T07:55:14.628Z</time>
      </trkpt>
      <trkpt lat="48.599839" lon="10.186932">
        <ele>518.742655</ele>
        <time>2025-12-13T07:55:17.911Z</time>
      </trkpt>
      <trkpt lat="48.599646" lon="10.186736">
        <ele>518.719867</ele>
        <time>2025-12-13T07:55:23.899Z</time>
      </trkpt>
      <trkpt lat="48.599336" lon="10.186784">
        <ele>518.689323</ele>
        <time>2025-12-13T07:55:33.183Z</time>
      </trkpt>
      <trkpt lat="48.599313" lon="10.186924">
        <ele>518.777384</ele>
        <time>2025-12-13T07:55:36.183Z</time>
      </trkpt>
      <trkpt lat="48.599302" lon="10.187030">
        <ele>518.897103</ele>
        <time>2025-12-13T07:55:38.664Z</time>
      </trkpt>
      <trkpt lat="48.599292" lon="10.187129">
        <ele>519.008846</ele>
        <time>2025-12-13T07:55:40.768Z</time>
      </trkpt>
      <trkpt lat="48.599293" lon="10.187315">
        <ele>519.216387</ele>
        <time>2025-12-13T07:55:44.936Z</time>
      </trkpt>
      <trkpt lat="48.599291" lon="10.187505">
        <ele>519.428411</ele>
        <time>2025-12-13T07:55:49.259Z</time>
      </trkpt>
      <trkpt lat="48.599292" lon="10.187610">
        <ele>519.545579</ele>
        <time>2025-12-13T07:55:51.532Z</time>
      </trkpt>
      <trkpt lat="48.599287" lon="10.187879">
        <ele>519.845841</ele>
        <time>2025-12-13T07:55:57.942Z</time>
      </trkpt>
      <trkpt lat="48.599274" lon="10.188043">
        <ele>520.030138</ele>
        <time>2025-12-13T07:56:01.938Z</time>
      </trkpt>
      <trkpt lat="48.599262" lon="10.188165">
        <ele>520.167760</ele>
        <time>2025-12-13T07:56:04.964Z</time>
      </trkpt>
      <trkpt lat="48.599205" lon="10.188340">
        <ele>520.385419</ele>
        <time>2025-12-13T07:56:09.573Z</time>
      </trkpt>
      <trkpt lat="48.599125" lon="10.188581">
        <ele>520.686296</ele>
        <time>2025-12-13T07:56:16.085Z</time>
      </trkpt>
      <trkpt lat="48.599393" lon="10.188784">
        <ele>521.192021</ele>
        <time>2025-12-13T07:56:25.674Z</time>
      </trkpt>
      <trkpt lat="48.602104" lon="10.190905">
        <ele>520.942649</ele>
        <time>2025-12-13T07:58:16.677Z</time>
      </trkpt>
      <trkpt lat="48.601959" lon="10.191628">
        <ele>520.638286</ele>
        <time>2025-12-13T07:58:26.744Z</time>
      </trkpt>
      <trkpt lat="48.601609" lon="10.193381">
        <ele>519.108278</ele>
        <time>2025-12-13T07:58:50.256Z</time>
      </trkpt>
      <trkpt lat="48.601701" lon="10.193799">
        <ele>518.660101</ele>
        <time>2025-12-13T07:58:55.806Z</time>
      </trkpt>
      <trkpt lat="48.602027" lon="10.194143">
        <ele>518.048552</ele>
        <time>2025-12-13T07:59:03.326Z</time>
      </trkpt>
      <trkpt lat="48.603839" lon="10.195677">
        <ele>513.141571</ele>
        <time>2025-12-13T07:59:40.945Z</time>
      </trkpt>
      <trkpt lat="48.604677" lon="10.196354">
        <ele>508.180074</ele>
        <time>2025-12-13T07:59:56.985Z</time>
      </trkpt>
      <trkpt lat="48.604777" lon="10.196492">
        <ele>507.473108</ele>
        <time>2025-12-13T07:59:59.162Z</time>
      </trkpt>
      <trkpt lat="48.604837" lon="10.196644">
        <ele>506.861817</ele>
        <time>2025-12-13T08:00:01.026Z</time>
      </trkpt>
      <trkpt lat="48.604872" lon="10.196846">
        <ele>506.140730</ele>
        <time>2025-12-13T08:00:03.222Z</time>
      </trkpt>
      <trkpt lat="48.604602" lon="10.198821">
        <ele>498.317380</ele>
        <time>2025-12-13T08:00:24.244Z</time>
      </trkpt>
      <trkpt lat="48.604571" lon="10.199205">
        <ele>496.736350</ele>
        <time>2025-12-13T08:00:28.347Z</time>
      </trkpt>
      <trkpt lat="48.604578" lon="10.199416">
        <ele>495.872924</ele>
        <time>2025-12-13T08:00:30.603Z</time>
      </trkpt>
      <trkpt lat="48.604608" lon="10.199533">
        <ele>495.360064</ele>
        <time>2025-12-13T08:00:31.948Z</time>
      </trkpt>
      <trkpt lat="48.603976" lon="10.200357">
        <ele>490.870745</ele>
        <time>2025-12-13T08:00:45.204Z</time>
      </trkpt>
      <trkpt lat="48.603646" lon="10.200679">
        <ele>489.082296</ele>
        <time>2025-12-13T08:00:51.601Z</time>
      </trkpt>
      <trkpt lat="48.603018" lon="10.201079">
        <ele>485.979142</ele>
        <time>2025-12-13T08:01:02.672Z</time>
      </trkpt>
      <trkpt lat="48.602859" lon="10.201164">
        <ele>485.211163</ele>
        <time>2025-12-13T08:01:05.403Z</time>
      </trkpt>
      <trkpt lat="48.601054" lon="10.202132">
        <ele>476.983036</ele>
        <time>2025-12-13T08:01:36.510Z</time>
      </trkpt>
      <trkpt lat="48.600240" lon="10.202541">
        <ele>473.976581</ele>
        <time>2025-12-13T08:01:50.863Z</time>
      </trkpt>
      <trkpt lat="48.600167" lon="10.202577">
        <ele>473.709495</ele>
        <time>2025-12-13T08:01:52.169Z</time>
      </trkpt>
      <trkpt lat="48.599662" lon="10.202831">
        <ele>471.858276</ele>
        <time>2025-12-13T08:02:01.355Z</time>
      </trkpt>
      <trkpt lat="48.599179" lon="10.203007">
        <ele>470.139730</ele>
        <time>2025-12-13T08:02:09.845Z</time>
      </trkpt>
      <trkpt lat="48.598367" lon="10.203204">
        <ele>467.337172</ele>
        <time>2025-12-13T08:02:23.557Z</time>
      </trkpt>
      <trkpt lat="48.598222" lon="10.203211">
        <ele>466.842783</ele>
        <time>2025-12-13T08:02:25.968Z</time>
      </trkpt>
      <trkpt lat="48.598051" lon="10.203178">
        <ele>466.255315</ele>
        <time>2025-12-13T08:02:28.860Z</time>
      </trkpt>
      <trkpt lat="48.597366" lon="10.202936">
        <ele>464.342510</ele>
        <time>2025-12-13T08:02:40.882Z</time>
      </trkpt>
      <trkpt lat="48.597155" lon="10.202944">
        <ele>464.188303</ele>
        <time>2025-12-13T08:02:44.532Z</time>
      </trkpt>
      <trkpt lat="48.596925" lon="10.202980">
        <ele>464.019364</ele>
        <time>2025-12-13T08:02:48.729Z</time>
      </trkpt>
      <trkpt lat="48.596809" lon="10.202998">
        <ele>463.934168</ele>
        <time>2025-12-13T08:02:50.895Z</time>
      </trkpt>
      <trkpt lat="48.596779" lon="10.203003">
        <ele>463.912117</ele>
        <time>2025-12-13T08:02:51.451Z</time>
      </trkpt>
      <trkpt lat="48.595701" lon="10.203140">
        <ele>463.253753</ele>
        <time>2025-12-13T08:03:17.511Z</time>
      </trkpt>
      <trkpt lat="48.595402" lon="10.203216">
        <ele>463.784740</ele>
        <time>2025-12-13T08:03:27.033Z</time>
      </trkpt>
      <trkpt lat="48.595339" lon="10.203227">
        <ele>463.895806</ele>
        <time>2025-12-13T08:03:29.260Z</time>
      </trkpt>
      <trkpt lat="48.595058" lon="10.203317">
        <ele>464.398841</ele>
        <time>2025-12-13T08:03:39.997Z</time>
      </trkpt>
      <trkpt lat="48.594941" lon="10.203341">
        <ele>464.605621</ele>
        <time>2025-12-13T08:03:44.715Z</time>
      </trkpt>
      <trkpt lat="48.594634" lon="10.203481">
        <ele>465.167193</ele>
        <time>2025-12-13T08:03:58.216Z</time>
      </trkpt>
      <trkpt lat="48.594536" lon="10.203542">
        <ele>465.352795</ele>
        <time>2025-12-13T08:04:02.556Z</time>
      </trkpt>
      <trkpt lat="48.594025" lon="10.203864">
        <ele>466.295421</ele>
        <time>2025-12-13T08:04:17.513Z</time>
      </trkpt>
      <trkpt lat="48.593731" lon="10.204043">
        <ele>465.579908</ele>
        <time>2025-12-13T08:04:23.660Z</time>
      </trkpt>
      <trkpt lat="48.593592" lon="10.204198">
        <ele>465.189994</ele>
        <time>2025-12-13T08:04:26.879Z</time>
      </trkpt>
      <trkpt lat="48.593479" lon="10.204349">
        <ele>464.849535</ele>
        <time>2025-12-13T08:04:29.624Z</time>
      </trkpt>
      <trkpt lat="48.593360" lon="10.204527">
        <ele>464.471632</ele>
        <time>2025-12-13T08:04:32.560Z</time>
      </trkpt>
      <trkpt lat="48.593116" lon="10.204793">
        <ele>463.792531</ele>
        <time>2025-12-13T08:04:37.728Z</time>
      </trkpt>
      <trkpt lat="48.592904" lon="10.204943">
        <ele>463.264115</ele>
        <time>2025-12-13T08:04:41.692Z</time>
      </trkpt>
      <trkpt lat="48.592308" lon="10.205212">
        <ele>461.968381</ele>
        <time>2025-12-13T08:04:51.957Z</time>
      </trkpt>
      <trkpt lat="48.592165" lon="10.205265">
        <ele>461.728393</ele>
        <time>2025-12-13T08:04:54.503Z</time>
      </trkpt>
      <trkpt lat="48.592019" lon="10.205331">
        <ele>461.480006</ele>
        <time>2025-12-13T08:04:57.290Z</time>
      </trkpt>
      <trkpt lat="48.591835" lon="10.205410">
        <ele>461.168232</ele>
        <time>2025-12-13T08:05:01.034Z</time>
      </trkpt>
      <trkpt lat="48.591556" lon="10.205548">
        <ele>460.689750</ele>
        <time>2025-12-13T08:05:07.019Z</time>
      </trkpt>
      <trkpt lat="48.591306" lon="10.205622">
        <ele>460.274519</ele>
        <time>2025-12-13T08:05:12.274Z</time>
      </trkpt>
      <trkpt lat="48.591142" lon="10.205612">
        <ele>460.006986</ele>
        <time>2025-12-13T08:05:15.647Z</time>
      </trkpt>
      <trkpt lat="48.591105" lon="10.205610">
        <ele>459.946638</ele>
        <time>2025-12-13T08:05:16.389Z</time>
      </trkpt>
      <trkpt lat="48.590680" lon="10.205571">
        <ele>459.324329</ele>
        <time>2025-12-13T08:05:24.602Z</time>
      </trkpt>
      <trkpt lat="48.590376" lon="10.205635">
        <ele>459.370382</ele>
        <time>2025-12-13T08:05:30.556Z</time>
      </trkpt>
      <trkpt lat="48.590069" lon="10.205700">
        <ele>459.416894</ele>
        <time>2025-12-13T08:05:37.037Z</time>
      </trkpt>
      <trkpt lat="48.589283" lon="10.205789">
        <ele>459.535156</ele>
        <time>2025-12-13T08:05:54.588Z</time>
      </trkpt>
      <trkpt lat="48.588739" lon="10.205868">
        <ele>459.969831</ele>
        <time>2025-12-13T08:06:11.591Z</time>
      </trkpt>
      <trkpt lat="48.587537" lon="10.206074">
        <ele>462.358723</ele>
        <time>2025-12-13T08:06:53.752Z</time>
      </trkpt>
      <trkpt lat="48.587028" lon="10.206255">
        <ele>463.410635</ele>
        <time>2025-12-13T08:07:09.393Z</time>
      </trkpt>
      <trkpt lat="48.586543" lon="10.206502">
        <ele>464.498990</ele>
        <time>2025-12-13T08:07:22.726Z</time>
      </trkpt>
      <trkpt lat="48.585512" lon="10.207156">
        <ele>466.876716</ele>
        <time>2025-12-13T08:07:59.787Z</time>
      </trkpt>
      <trkpt lat="48.585394" lon="10.207231">
        <ele>467.202201</ele>
        <time>2025-12-13T08:08:06.123Z</time>
      </trkpt>
      <trkpt lat="48.584775" lon="10.207710">
        <ele>469.109474</ele>
        <time>2025-12-13T08:08:35.899Z</time>
      </trkpt>
      <trkpt lat="48.584488" lon="10.207954">
        <ele>470.012593</ele>
        <time>2025-12-13T08:08:48.886Z</time>
      </trkpt>
      <trkpt lat="48.584269" lon="10.208179">
        <ele>470.738852</ele>
        <time>2025-12-13T08:08:58.713Z</time>
      </trkpt>
      <trkpt lat="48.584143" lon="10.208318">
        <ele>471.166677</ele>
        <time>2025-12-13T08:09:04.026Z</time>
      </trkpt>
      <trkpt lat="48.583892" lon="10.208598">
        <ele>471.835528</ele>
        <time>2025-12-13T08:09:12.594Z</time>
      </trkpt>
      <trkpt lat="48.583381" lon="10.209251">
        <ele>470.905938</ele>
        <time>2025-12-13T08:09:26.244Z</time>
      </trkpt>
      <trkpt lat="48.583134" lon="10.209671">
        <ele>470.389464</ele>
        <time>2025-12-13T08:09:33.752Z</time>
      </trkpt>
      <trkpt lat="48.582954" lon="10.210061">
        <ele>469.952422</ele>
        <time>2025-12-13T08:09:39.842Z</time>
      </trkpt>
      <trkpt lat="48.582740" lon="10.210711">
        <ele>468.916569</ele>
        <time>2025-12-13T08:09:47.948Z</time>
      </trkpt>
      <trkpt lat="48.582492" lon="10.211595">
        <ele>465.190100</ele>
        <time>2025-12-13T08:09:57.925Z</time>
      </trkpt>
      <trkpt lat="48.582223" lon="10.212284">
        <ele>462.085197</ele>
        <time>2025-12-13T08:10:05.783Z</time>
      </trkpt>
      <trkpt lat="48.581609" lon="10.213341">
        <ele>457.838691</ele>
        <time>2025-12-13T08:10:19.778Z</time>
      </trkpt>
      <trkpt lat="48.581171" lon="10.212787">
        <ele>456.316954</ele>
        <time>2025-12-13T08:10:29.788Z</time>
      </trkpt>
      <trkpt lat="48.580861" lon="10.212457">
        <ele>455.306678</ele>
        <time>2025-12-13T08:10:37.401Z</time>
      </trkpt>
      <trkpt lat="48.580698" lon="10.212331">
        <ele>454.818864</ele>
        <time>2025-12-13T08:10:41.306Z</time>
      </trkpt>
      <trkpt lat="48.580622" lon="10.212271">
        <ele>454.590404</ele>
        <time>2025-12-13T08:10:43.209Z</time>
      </trkpt>
      <trkpt lat="48.580235" lon="10.212029">
        <ele>454.035175</ele>
        <time>2025-12-13T08:10:52.574Z</time>
      </trkpt>
      <trkpt lat="48.580220" lon="10.211967">
        <ele>454.031146</ele>
        <time>2025-12-13T08:10:54.188Z</time>
      </trkpt>
      <trkpt lat="48.579600" lon="10.211686">
        <ele>453.971442</ele>
        <time>2025-12-13T08:11:08.617Z</time>
      </trkpt>
      <trkpt lat="48.579228" lon="10.211571">
        <ele>453.936419</ele>
        <time>2025-12-13T08:11:16.857Z</time>
      </trkpt>
      <trkpt lat="48.579216" lon="10.211624">
        <ele>453.933000</ele>
        <time>2025-12-13T08:11:17.605Z</time>
      </trkpt>
      <trkpt lat="48.578331" lon="10.211441">
        <ele>453.981470</ele>
        <time>2025-12-13T08:11:37.262Z</time>
      </trkpt>
      <trkpt lat="48.578098" lon="10.211315">
        <ele>454.035696</ele>
        <time>2025-12-13T08:11:43.280Z</time>
      </trkpt>
      <trkpt lat="48.577841" lon="10.211084">
        <ele>454.101217</ele>
        <time>2025-12-13T08:11:50.729Z</time>
      </trkpt>
      <trkpt lat="48.577668" lon="10.210781">
        <ele>454.159240</ele>
        <time>2025-12-13T08:11:57.094Z</time>
      </trkpt>
      <trkpt lat="48.577470" lon="10.210202">
        <ele>454.253731</ele>
        <time>2025-12-13T08:12:07.109Z</time>
      </trkpt>
      <trkpt lat="48.577331" lon="10.209807">
        <ele>454.421472</ele>
        <time>2025-12-13T08:12:13.877Z</time>
      </trkpt>
      <trkpt lat="48.577063" lon="10.209276">
        <ele>454.802202</ele>
        <time>2025-12-13T08:12:24.123Z</time>
      </trkpt>
      <trkpt lat="48.576444" lon="10.208390">
        <ele>455.536762</ele>
        <time>2025-12-13T08:12:46.497Z</time>
      </trkpt>
      <trkpt lat="48.576177" lon="10.208053">
        <ele>455.840897</ele>
        <time>2025-12-13T08:12:58.041Z</time>
      </trkpt>
      <trkpt lat="48.575657" lon="10.207465">
        <ele>457.171522</ele>
        <time>2025-12-13T08:13:18.466Z</time>
      </trkpt>
      <trkpt lat="48.575357" lon="10.207152">
        <ele>457.918434</ele>
        <time>2025-12-13T08:13:30.406Z</time>
      </trkpt>
      <trkpt lat="48.575214" lon="10.207009">
        <ele>458.269758</ele>
        <time>2025-12-13T08:13:36.245Z</time>
      </trkpt>
      <trkpt lat="48.575086" lon="10.206924">
        <ele>458.556219</ele>
        <time>2025-12-13T08:13:41.046Z</time>
      </trkpt>
      <trkpt lat="48.575071" lon="10.206917">
        <ele>458.588385</ele>
        <time>2025-12-13T08:13:41.578Z</time>
      </trkpt>
      <trkpt lat="48.574591" lon="10.206704">
        <ele>459.585355</ele>
        <time>2025-12-13T08:13:58.511Z</time>
      </trkpt>
      <trkpt lat="48.574023" lon="10.206358">
        <ele>460.469066</ele>
        <time>2025-12-13T08:14:17.832Z</time>
      </trkpt>
      <trkpt lat="48.573826" lon="10.206283">
        <ele>460.762224</ele>
        <time>2025-12-13T08:14:24.729Z</time>
      </trkpt>
      <trkpt lat="48.573004" lon="10.206169">
        <ele>461.953378</ele>
        <time>2025-12-13T08:14:50.299Z</time>
      </trkpt>
      <trkpt lat="48.571938" lon="10.206075">
        <ele>462.306016</ele>
        <time>2025-12-13T08:15:11.007Z</time>
      </trkpt>
      <trkpt lat="48.571829" lon="10.206056">
        <ele>462.328034</ele>
        <time>2025-12-13T08:15:13.406Z</time>
      </trkpt>
      <trkpt lat="48.571246" lon="10.205833">
        <ele>462.448712</ele>
        <time>2025-12-13T08:15:29.359Z</time>
      </trkpt>
      <trkpt lat="48.570825" lon="10.205621">
        <ele>463.140139</ele>
        <time>2025-12-13T08:15:43.777Z</time>
      </trkpt>
      <trkpt lat="48.570666" lon="10.205598">
        <ele>463.479925</ele>
        <time>2025-12-13T08:15:49.376Z</time>
      </trkpt>
      <trkpt lat="48.570553" lon="10.205630">
        <ele>463.724492</ele>
        <time>2025-12-13T08:15:53.751Z</time>
      </trkpt>
      <trkpt lat="48.570386" lon="10.205753">
        <ele>464.119695</ele>
        <time>2025-12-13T08:16:01.326Z</time>
      </trkpt>
      <trkpt lat="48.570036" lon="10.206214">
        <ele>465.107345</ele>
        <time>2025-12-13T08:16:21.911Z</time>
      </trkpt>
      <trkpt lat="48.569910" lon="10.206402">
        <ele>465.484011</ele>
        <time>2025-12-13T08:16:27.868Z</time>
      </trkpt>
      <trkpt lat="48.569511" lon="10.207309">
        <ele>465.858978</ele>
        <time>2025-12-13T08:16:43.803Z</time>
      </trkpt>
      <trkpt lat="48.568937" lon="10.208451">
        <ele>464.611803</ele>
        <time>2025-12-13T08:17:01.389Z</time>
      </trkpt>
      <trkpt lat="48.568684" lon="10.209157">
        <ele>463.910497</ele>
        <time>2025-12-13T08:17:11.042Z</time>
      </trkpt>
      <trkpt lat="48.568341" lon="10.210704">
        <ele>462.308954</ele>
        <time>2025-12-13T08:17:31.508Z</time>
      </trkpt>
      <trkpt lat="48.568215" lon="10.211037">
        <ele>461.932408</ele>
        <time>2025-12-13T08:17:36.389Z</time>
      </trkpt>
      <trkpt lat="48.568121" lon="10.211176">
        <ele>461.737314</ele>
        <time>2025-12-13T08:17:38.929Z</time>
      </trkpt>
      <trkpt lat="48.567996" lon="10.211284">
        <ele>461.523718</ele>
        <time>2025-12-13T08:17:41.731Z</time>
      </trkpt>
      <trkpt lat="48.567817" lon="10.211348">
        <ele>461.256667</ele>
        <time>2025-12-13T08:17:45.307Z</time>
      </trkpt>
      <trkpt lat="48.567503" lon="10.211260">
        <ele>460.932849</ele>
        <time>2025-12-13T08:17:51.620Z</time>
      </trkpt>
      <trkpt lat="48.567372" lon="10.211144">
        <ele>460.778893</ele>
        <time>2025-12-13T08:17:54.658Z</time>
      </trkpt>
      <trkpt lat="48.567324" lon="10.211058">
        <ele>460.703403</ele>
        <time>2025-12-13T08:17:56.144Z</time>
      </trkpt>
      <trkpt lat="48.567287" lon="10.210682">
        <ele>460.448336</ele>
        <time>2025-12-13T08:18:01.180Z</time>
      </trkpt>
      <trkpt lat="48.567287" lon="10.210570">
        <ele>460.373186</ele>
        <time>2025-12-13T08:18:02.673Z</time>
      </trkpt>
      <trkpt lat="48.567285" lon="10.209475">
        <ele>459.638448</ele>
        <time>2025-12-13T08:18:17.257Z</time>
      </trkpt>
      <trkpt lat="48.567342" lon="10.208301">
        <ele>459.064085</ele>
        <time>2025-12-13T08:18:32.507Z</time>
      </trkpt>
      <trkpt lat="48.567311" lon="10.208058">
        <ele>458.957987</ele>
        <time>2025-12-13T08:18:35.784Z</time>
      </trkpt>
      <trkpt lat="48.567271" lon="10.207944">
        <ele>458.902666</ele>
        <time>2025-12-13T08:18:37.483Z</time>
      </trkpt>
      <trkpt lat="48.567222" lon="10.207859">
        <ele>458.854336</ele>
        <time>2025-12-13T08:18:38.986Z</time>
      </trkpt>
      <trkpt lat="48.567154" lon="10.207807">
        <ele>458.804961</ele>
        <time>2025-12-13T08:18:40.530Z</time>
      </trkpt>
      <trkpt lat="48.566964" lon="10.207765">
        <ele>458.680555</ele>
        <time>2025-12-13T08:18:44.404Z</time>
      </trkpt>
      <trkpt lat="48.566709" lon="10.207826">
        <ele>458.513290</ele>
        <time>2025-12-13T08:18:49.650Z</time>
      </trkpt>
      <trkpt lat="48.566282" lon="10.208009">
        <ele>458.549812</ele>
        <time>2025-12-13T08:18:59.110Z</time>
      </trkpt>
      <trkpt lat="48.565796" lon="10.208303">
        <ele>460.230927</ele>
        <time>2025-12-13T08:19:13.116Z</time>
      </trkpt>
      <trkpt lat="48.565676" lon="10.208379">
        <ele>460.648763</ele>
        <time>2025-12-13T08:19:17.991Z</time>
      </trkpt>
      <trkpt lat="48.564956" lon="10.209013">
        <ele>463.324837</ele>
        <time>2025-12-13T08:19:55.269Z</time>
      </trkpt>
      <trkpt lat="48.564850" lon="10.209069">
        <ele>463.685442</ele>
        <time>2025-12-13T08:20:00.818Z</time>
      </trkpt>
      <trkpt lat="48.564699" lon="10.209074">
        <ele>464.231367</ele>
        <time>2025-12-13T08:20:08.547Z</time>
      </trkpt>
      <trkpt lat="48.564537" lon="10.208908">
        <ele>465.194828</ele>
        <time>2025-12-13T08:20:18.863Z</time>
      </trkpt>
      <trkpt lat="48.563921" lon="10.207652">
        <ele>470.287293</ele>
        <time>2025-12-13T08:21:13.801Z</time>
      </trkpt>
      <trkpt lat="48.563738" lon="10.207147">
        <ele>472.162804</ele>
        <time>2025-12-13T08:21:30.009Z</time>
      </trkpt>
      <trkpt lat="48.563698" lon="10.206898">
        <ele>472.904853</ele>
        <time>2025-12-13T08:21:36.382Z</time>
      </trkpt>
      <trkpt lat="48.563713" lon="10.205679">
        <ele>472.690399</ele>
        <time>2025-12-13T08:21:58.106Z</time>
      </trkpt>
      <trkpt lat="48.563848" lon="10.204191">
        <ele>472.397635</ele>
        <time>2025-12-13T08:22:16.350Z</time>
      </trkpt>
      <trkpt lat="48.563860" lon="10.203720">
        <ele>471.869270</ele>
        <time>2025-12-13T08:22:21.896Z</time>
      </trkpt>
      <trkpt lat="48.563759" lon="10.202289">
        <ele>470.256071</ele>
        <time>2025-12-13T08:22:39.719Z</time>
      </trkpt>
      <trkpt lat="48.563758" lon="10.202031">
        <ele>469.966857</ele>
        <time>2025-12-13T08:22:43.108Z</time>
      </trkpt>
      <trkpt lat="48.563756" lon="10.201550">
        <ele>469.427661</ele>
        <time>2025-12-13T08:22:49.440Z</time>
      </trkpt>
      <trkpt lat="48.563821" lon="10.199459">
        <ele>467.218781</ele>
        <time>2025-12-13T08:23:15.800Z</time>
      </trkpt>
      <trkpt lat="48.563857" lon="10.199137">
        <ele>466.874588</ele>
        <time>2025-12-13T08:23:19.799Z</time>
      </trkpt>
      <trkpt lat="48.564216" lon="10.197396">
        <ele>465.286382</ele>
        <time>2025-12-13T08:23:41.936Z</time>
      </trkpt>
      <trkpt lat="48.564256" lon="10.196792">
        <ele>464.782820</ele>
        <time>2025-12-13T08:23:49.738Z</time>
      </trkpt>
      <trkpt lat="48.564211" lon="10.196144">
        <ele>464.276825</ele>
        <time>2025-12-13T08:23:59.082Z</time>
      </trkpt>
      <trkpt lat="48.564097" lon="10.195665">
        <ele>464.479530</ele>
        <time>2025-12-13T08:24:07.578Z</time>
      </trkpt>
      <trkpt lat="48.563977" lon="10.195342">
        <ele>464.627036</ele>
        <time>2025-12-13T08:24:13.924Z</time>
      </trkpt>
      <trkpt lat="48.563793" lon="10.195001">
        <ele>464.802244</ele>
        <time>2025-12-13T08:24:21.531Z</time>
      </trkpt>
      <trkpt lat="48.563630" lon="10.194832">
        <ele>464.921195</ele>
        <time>2025-12-13T08:24:26.740Z</time>
      </trkpt>
      <trkpt lat="48.563486" lon="10.194735">
        <ele>465.016064</ele>
        <time>2025-12-13T08:24:30.902Z</time>
      </trkpt>
      <trkpt lat="48.563246" lon="10.194683">
        <ele>465.161957</ele>
        <time>2025-12-13T08:24:37.289Z</time>
      </trkpt>
      <trkpt lat="48.563071" lon="10.194712">
        <ele>465.267891</ele>
        <time>2025-12-13T08:24:41.967Z</time>
      </trkpt>
      <trkpt lat="48.562689" lon="10.194835">
        <ele>465.531651</ele>
        <time>2025-12-13T08:24:52.164Z</time>
      </trkpt>
      <trkpt lat="48.562438" lon="10.194971">
        <ele>465.721854</ele>
        <time>2025-12-13T08:24:58.784Z</time>
      </trkpt>
      <trkpt lat="48.562202" lon="10.195054">
        <ele>465.894695</ele>
        <time>2025-12-13T08:25:04.844Z</time>
      </trkpt>
      <trkpt lat="48.561877" lon="10.195121">
        <ele>466.128667</ele>
        <time>2025-12-13T08:25:13.854Z</time>
      </trkpt>
      <trkpt lat="48.561584" lon="10.195182">
        <ele>466.339641</ele>
        <time>2025-12-13T08:25:22.082Z</time>
      </trkpt>
      <trkpt lat="48.561310" lon="10.195151">
        <ele>466.535635</ele>
        <time>2025-12-13T08:25:29.605Z</time>
      </trkpt>
      <trkpt lat="48.560966" lon="10.194906">
        <ele>466.414433</ele>
        <time>2025-12-13T08:25:39.617Z</time>
      </trkpt>
      <trkpt lat="48.559965" lon="10.193683">
        <ele>465.284895</ele>
        <time>2025-12-13T08:26:04.870Z</time>
      </trkpt>
      <trkpt lat="48.559887" lon="10.193501">
        <ele>465.158979</ele>
        <time>2025-12-13T08:26:07.412Z</time>
      </trkpt>
      <trkpt lat="48.559869" lon="10.193445">
        <ele>465.122826</ele>
        <time>2025-12-13T08:26:08.159Z</time>
      </trkpt>
      <trkpt lat="48.559914" lon="10.193404">
        <ele>465.076718</ele>
        <time>2025-12-13T08:26:09.088Z</time>
      </trkpt>
      <trkpt lat="48.559892" lon="10.193296">
        <ele>465.037419</ele>
        <time>2025-12-13T08:26:10.455Z</time>
      </trkpt>
      <trkpt lat="48.559980" lon="10.193204">
        <ele>465.002918</ele>
        <time>2025-12-13T08:26:12.434Z</time>
      </trkpt>
      <trkpt lat="48.560342" lon="10.193006">
        <ele>464.878794</ele>
        <time>2025-12-13T08:26:19.797Z</time>
      </trkpt>
      <trkpt lat="48.560432" lon="10.192932">
        <ele>464.845759</ele>
        <time>2025-12-13T08:26:23.326Z</time>
      </trkpt>
      <trkpt lat="48.560692" lon="10.192651">
        <ele>464.742696</ele>
        <time>2025-12-13T08:26:29.847Z</time>
      </trkpt>
      <trkpt lat="48.560847" lon="10.192452">
        <ele>464.677119</ele>
        <time>2025-12-13T08:26:34.111Z</time>
      </trkpt>
      <trkpt lat="48.560995" lon="10.192192">
        <ele>464.603943</ele>
        <time>2025-12-13T08:26:39.855Z</time>
      </trkpt>
      <trkpt lat="48.561423" lon="10.191682">
        <ele>464.511879</ele>
        <time>2025-12-13T08:26:56.544Z</time>
      </trkpt>
      <trkpt lat="48.561887" lon="10.190822">
        <ele>464.719239</ele>
        <time>2025-12-13T08:27:15.682Z</time>
      </trkpt>
      <trkpt lat="48.561828" lon="10.190732">
        <ele>464.742914</ele>
        <time>2025-12-13T08:27:17.492Z</time>
      </trkpt>
      <trkpt lat="48.561738" lon="10.190551">
        <ele>464.785223</ele>
        <time>2025-12-13T08:27:21.877Z</time>
      </trkpt>
      <trkpt lat="48.561597" lon="10.190383">
        <ele>464.835928</ele>
        <time>2025-12-13T08:27:27.065Z</time>
      </trkpt>
      <trkpt lat="48.561512" lon="10.190310">
        <ele>464.863536</ele>
        <time>2025-12-13T08:27:29.851Z</time>
      </trkpt>
      <trkpt lat="48.561264" lon="10.190067">
        <ele>464.947002</ele>
        <time>2025-12-13T08:27:36.761Z</time>
      </trkpt>
      <trkpt lat="48.561112" lon="10.189775">
        <ele>464.935980</ele>
        <time>2025-12-13T08:27:42.353Z</time>
      </trkpt>
      <trkpt lat="48.561048" lon="10.189571">
        <ele>464.883138</ele>
        <time>2025-12-13T08:27:45.684Z</time>
      </trkpt>
      <trkpt lat="48.560865" lon="10.188655">
        <ele>464.659181</ele>
        <time>2025-12-13T08:28:00.705Z</time>
      </trkpt>
      <trkpt lat="48.560714" lon="10.188150">
        <ele>464.529476</ele>
        <time>2025-12-13T08:28:09.692Z</time>
      </trkpt>
      <trkpt lat="48.560596" lon="10.187888">
        <ele>464.455298</ele>
        <time>2025-12-13T08:28:14.778Z</time>
      </trkpt>
      <trkpt lat="48.559388" lon="10.185791">
        <ele>463.940406</ele>
        <time>2025-12-13T08:28:58.475Z</time>
      </trkpt>
      <trkpt lat="48.558973" lon="10.184937">
        <ele>464.185735</ele>
        <time>2025-12-13T08:29:15.602Z</time>
      </trkpt>
      <trkpt lat="48.558459" lon="10.183792">
        <ele>464.862078</ele>
        <time>2025-12-13T08:29:40.621Z</time>
      </trkpt>
      <trkpt lat="48.557787" lon="10.182718">
        <ele>466.074946</ele>
        <time>2025-12-13T08:30:14.277Z</time>
      </trkpt>
      <trkpt lat="48.557596" lon="10.182465">
        <ele>466.499917</ele>
        <time>2025-12-13T08:30:24.038Z</time>
      </trkpt>
      <trkpt lat="48.557428" lon="10.182316">
        <ele>466.825837</ele>
        <time>2025-12-13T08:30:31.594Z</time>
      </trkpt>
      <trkpt lat="48.557210" lon="10.182203">
        <ele>467.211428</ele>
        <time>2025-12-13T08:30:40.446Z</time>
      </trkpt>
      <trkpt lat="48.556238" lon="10.182099">
        <ele>467.793966</ele>
        <time>2025-12-13T08:31:07.898Z</time>
      </trkpt>
      <trkpt lat="48.555852" lon="10.182016">
        <ele>467.370826</ele>
        <time>2025-12-13T08:31:16.226Z</time>
      </trkpt>
      <trkpt lat="48.555321" lon="10.181828">
        <ele>466.778930</ele>
        <time>2025-12-13T08:31:27.537Z</time>
      </trkpt>
      <trkpt lat="48.555139" lon="10.181631">
        <ele>466.535947</ele>
        <time>2025-12-13T08:31:32.063Z</time>
      </trkpt>
      <trkpt lat="48.554929" lon="10.181068">
        <ele>466.213792</ele>
        <time>2025-12-13T08:31:40.948Z</time>
      </trkpt>
      <trkpt lat="48.554522" lon="10.180350">
        <ele>466.063501</ele>
        <time>2025-12-13T08:31:55.566Z</time>
      </trkpt>
      <trkpt lat="48.554135" lon="10.179909">
        <ele>465.947069</ele>
        <time>2025-12-13T08:32:08.253Z</time>
      </trkpt>
      <trkpt lat="48.553714" lon="10.179217">
        <ele>465.890342</ele>
        <time>2025-12-13T08:32:25.282Z</time>
      </trkpt>
      <trkpt lat="48.553382" lon="10.178931">
        <ele>466.145721</ele>
        <time>2025-12-13T08:32:36.302Z</time>
      </trkpt>
      <trkpt lat="48.552871" lon="10.178331">
        <ele>466.578182</ele>
        <time>2025-12-13T08:32:55.136Z</time>
      </trkpt>
      <trkpt lat="48.552435" lon="10.177736">
        <ele>466.970791</ele>
        <time>2025-12-13T08:33:11.534Z</time>
      </trkpt>
      <trkpt lat="48.551746" lon="10.176701">
        <ele>467.256718</ele>
        <time>2025-12-13T08:33:36.400Z</time>
      </trkpt>
      <trkpt lat="48.551270" lon="10.176068">
        <ele>467.422148</ele>
        <time>2025-12-13T08:33:52.302Z</time>
      </trkpt>
      <trkpt lat="48.550922" lon="10.175467">
        <ele>467.705243</ele>
        <time>2025-12-13T08:34:06.481Z</time>
      </trkpt>
      <trkpt lat="48.550781" lon="10.175168">
        <ele>467.906461</ele>
        <time>2025-12-13T08:34:13.270Z</time>
      </trkpt>
      <trkpt lat="48.550651" lon="10.174822">
        <ele>468.124527</ele>
        <time>2025-12-13T08:34:20.796Z</time>
      </trkpt>
      <trkpt lat="48.550455" lon="10.174173">
        <ele>468.515524</ele>
        <time>2025-12-13T08:34:34.662Z</time>
      </trkpt>
      <trkpt lat="48.550366" lon="10.173589">
        <ele>468.843997</ele>
        <time>2025-12-13T08:34:46.683Z</time>
      </trkpt>
      <trkpt lat="48.550351" lon="10.172968">
        <ele>469.128233</ele>
        <time>2025-12-13T08:34:59.303Z</time>
      </trkpt>
      <trkpt lat="48.550428" lon="10.172256">
        <ele>469.413346</ele>
        <time>2025-12-13T08:35:13.667Z</time>
      </trkpt>
      <trkpt lat="48.550723" lon="10.171145">
        <ele>469.886419</ele>
        <time>2025-12-13T08:35:34.571Z</time>
      </trkpt>
      <trkpt lat="48.550924" lon="10.169830">
        <ele>471.028620</ele>
        <time>2025-12-13T08:35:57.011Z</time>
      </trkpt>
      <trkpt lat="48.551731" lon="10.168534">
        <ele>472.909825</ele>
        <time>2025-12-13T08:36:50.871Z</time>
      </trkpt>
      <trkpt lat="48.551837" lon="10.168435">
        <ele>473.290027</ele>
        <time>2025-12-13T08:36:58.104Z</time>
      </trkpt>
      <trkpt lat="48.551902" lon="10.168435">
        <ele>473.498516</ele>
        <time>2025-12-13T08:37:02.074Z</time>
      </trkpt>
      <trkpt lat="48.552570" lon="10.168396">
        <ele>475.642739</ele>
        <time>2025-12-13T08:37:44.292Z</time>
      </trkpt>
      <trkpt lat="48.553175" lon="10.168494">
        <ele>477.594412</ele>
        <time>2025-12-13T08:38:19.689Z</time>
      </trkpt>
      <trkpt lat="48.553417" lon="10.168545">
        <ele>478.378148</ele>
        <time>2025-12-13T08:38:30.630Z</time>
      </trkpt>
      <trkpt lat="48.553785" lon="10.168593">
        <ele>478.127807</ele>
        <time>2025-12-13T08:38:44.446Z</time>
      </trkpt>
      <trkpt lat="48.553974" lon="10.168509">
        <ele>477.710766</ele>
        <time>2025-12-13T08:38:51.088Z</time>
      </trkpt>
      <trkpt lat="48.554114" lon="10.168333">
        <ele>477.325220</ele>
        <time>2025-12-13T08:38:56.939Z</time>
      </trkpt>
      <trkpt lat="48.554365" lon="10.167844">
        <ele>476.458166</ele>
        <time>2025-12-13T08:39:09.378Z</time>
      </trkpt>
      <trkpt lat="48.554881" lon="10.166671">
        <ele>474.669306</ele>
        <time>2025-12-13T08:39:37.446Z</time>
      </trkpt>
      <trkpt lat="48.555320" lon="10.165449">
        <ele>473.606497</ele>
        <time>2025-12-13T08:40:08.982Z</time>
      </trkpt>
      <trkpt lat="48.555926" lon="10.163355">
        <ele>472.702142</ele>
        <time>2025-12-13T08:41:04.943Z</time>
      </trkpt>
      <trkpt lat="48.556019" lon="10.163050">
        <ele>472.672129</ele>
        <time>2025-12-13T08:41:13.063Z</time>
      </trkpt>
      <trkpt lat="48.556165" lon="10.162704">
        <ele>472.635455</ele>
        <time>2025-12-13T08:41:22.953Z</time>
      </trkpt>
      <trkpt lat="48.556349" lon="10.162367">
        <ele>472.596410</ele>
        <time>2025-12-13T08:41:33.409Z</time>
      </trkpt>
      <trkpt lat="48.557297" lon="10.161039">
        <ele>472.496733</ele>
        <time>2025-12-13T08:42:20.528Z</time>
      </trkpt>
      <trkpt lat="48.557572" lon="10.160379">
        <ele>472.462067</ele>
        <time>2025-12-13T08:42:40.282Z</time>
      </trkpt>
      <trkpt lat="48.557696" lon="10.159898">
        <ele>472.434380</ele>
        <time>2025-12-13T08:42:53.284Z</time>
      </trkpt>
      <trkpt lat="48.557757" lon="10.159393">
        <ele>472.401651</ele>
        <time>2025-12-13T08:43:06.044Z</time>
      </trkpt>
      <trkpt lat="48.557768" lon="10.159004">
        <ele>472.376827</ele>
        <time>2025-12-13T08:43:15.579Z</time>
      </trkpt>
      <trkpt lat="48.557464" lon="10.156505">
        <ele>472.574895</ele>
        <time>2025-12-13T08:44:16.731Z</time>
      </trkpt>
      <trkpt lat="48.557358" lon="10.155961">
        <ele>472.748888</ele>
        <time>2025-12-13T08:44:32.670Z</time>
      </trkpt>
      <trkpt lat="48.557310" lon="10.155640">
        <ele>472.849860</ele>
        <time>2025-12-13T08:44:41.614Z</time>
      </trkpt>
      <trkpt lat="48.557300" lon="10.155532">
        <ele>472.883319</ele>
        <time>2025-12-13T08:44:43.365Z</time>
      </trkpt>
      <trkpt lat="48.557288" lon="10.155410">
        <ele>472.921162</ele>
        <time>2025-12-13T08:44:45.550Z</time>
      </trkpt>
      <trkpt lat="48.557277" lon="10.155149">
        <ele>473.001405</ele>
        <time>2025-12-13T08:44:50.020Z</time>
      </trkpt>
      <trkpt lat="48.557289" lon="10.154815">
        <ele>473.104034</ele>
        <time>2025-12-13T08:44:55.798Z</time>
      </trkpt>
      <trkpt lat="48.557348" lon="10.154540">
        <ele>473.108953</ele>
        <time>2025-12-13T08:45:00.992Z</time>
      </trkpt>
      <trkpt lat="48.557049" lon="10.154308">
        <ele>473.105888</ele>
        <time>2025-12-13T08:45:09.796Z</time>
      </trkpt>
      <trkpt lat="48.556760" lon="10.153988">
        <ele>473.102622</ele>
        <time>2025-12-13T08:45:17.900Z</time>
      </trkpt>
      <trkpt lat="48.556717" lon="10.153940">
        <ele>473.102134</ele>
        <time>2025-12-13T08:45:19.058Z</time>
      </trkpt>
      <trkpt lat="48.556017" lon="10.153004">
        <ele>473.077309</ele>
        <time>2025-12-13T08:45:38.346Z</time>
      </trkpt>
      <trkpt lat="48.555840" lon="10.152832">
        <ele>473.019387</ele>
        <time>2025-12-13T08:45:42.876Z</time>
      </trkpt>
      <trkpt lat="48.555559" lon="10.152698">
        <ele>472.938287</ele>
        <time>2025-12-13T08:45:49.156Z</time>
      </trkpt>
      <trkpt lat="48.555529" lon="10.152556">
        <ele>472.911133</ele>
        <time>2025-12-13T08:45:52.694Z</time>
      </trkpt>
      <trkpt lat="48.555468" lon="10.152475">
        <ele>472.888781</ele>
        <time>2025-12-13T08:45:55.631Z</time>
      </trkpt>
      <trkpt lat="48.555254" lon="10.152385">
        <ele>472.827643</ele>
        <time>2025-12-13T08:46:03.632Z</time>
      </trkpt>
      <trkpt lat="48.554579" lon="10.152204">
        <ele>472.638961</ele>
        <time>2025-12-13T08:46:28.741Z</time>
      </trkpt>
      <trkpt lat="48.554259" lon="10.152055">
        <ele>472.622056</ele>
        <time>2025-12-13T08:46:41.130Z</time>
      </trkpt>
      <trkpt lat="48.554171" lon="10.151993">
        <ele>472.633760</ele>
        <time>2025-12-13T08:46:44.662Z</time>
      </trkpt>
      <trkpt lat="48.554070" lon="10.151846">
        <ele>472.650664</ele>
        <time>2025-12-13T08:46:49.772Z</time>
      </trkpt>
      <trkpt lat="48.553994" lon="10.151672">
        <ele>472.667297</ele>
        <time>2025-12-13T08:46:54.827Z</time>
      </trkpt>
      <trkpt lat="48.553853" lon="10.150886">
        <ele>472.732270</ele>
        <time>2025-12-13T08:47:15.018Z</time>
      </trkpt>
      <trkpt lat="48.553762" lon="10.149622">
        <ele>472.824421</ele>
        <time>2025-12-13T08:47:47.774Z</time>
      </trkpt>
      <trkpt lat="48.553556" lon="10.148620">
        <ele>472.864375</ele>
        <time>2025-12-13T08:48:14.300Z</time>
      </trkpt>
      <trkpt lat="48.553391" lon="10.147484">
        <ele>472.908664</ele>
        <time>2025-12-13T08:48:42.673Z</time>
      </trkpt>
      <trkpt lat="48.553357" lon="10.146961">
        <ele>472.965316</ele>
        <time>2025-12-13T08:48:55.373Z</time>
      </trkpt>
      <trkpt lat="48.553375" lon="10.146435">
        <ele>473.064713</ele>
        <time>2025-12-13T08:49:08.144Z</time>
      </trkpt>
      <trkpt lat="48.553440" lon="10.146035">
        <ele>473.142440</ele>
        <time>2025-12-13T08:49:18.220Z</time>
      </trkpt>
      <trkpt lat="48.553540" lon="10.145672">
        <ele>473.216639</ele>
        <time>2025-12-13T08:49:27.986Z</time>
      </trkpt>
      <trkpt lat="48.553718" lon="10.145172">
        <ele>473.323778</ele>
        <time>2025-12-13T08:49:42.673Z</time>
      </trkpt>
      <trkpt lat="48.554089" lon="10.144407">
        <ele>473.647742</ele>
        <time>2025-12-13T08:50:08.719Z</time>
      </trkpt>
      <trkpt lat="48.554973" lon="10.142852">
        <ele>474.829720</ele>
        <time>2025-12-13T08:51:06.746Z</time>
      </trkpt>
      <trkpt lat="48.555741" lon="10.141297">
        <ele>475.317012</ele>
        <time>2025-12-13T08:51:55.335Z</time>
      </trkpt>
      <trkpt lat="48.555871" lon="10.140935">
        <ele>475.396531</ele>
        <time>2025-12-13T08:52:05.335Z</time>
      </trkpt>
      <trkpt lat="48.555888" lon="10.140796">
        <ele>475.423823</ele>
        <time>2025-12-13T08:52:08.842Z</time>
      </trkpt>
      <trkpt lat="48.555878" lon="10.140655">
        <ele>475.451203</ele>
        <time>2025-12-13T08:52:12.445Z</time>
      </trkpt>
      <trkpt lat="48.555778" lon="10.140408">
        <ele>475.507107</ele>
        <time>2025-12-13T08:52:20.130Z</time>
      </trkpt>
      <trkpt lat="48.555546" lon="10.139991">
        <ele>475.563505</ele>
        <time>2025-12-13T08:52:34.711Z</time>
      </trkpt>
      <trkpt lat="48.555249" lon="10.139329">
        <ele>475.632791</ele>
        <time>2025-12-13T08:52:55.355Z</time>
      </trkpt>
      <trkpt lat="48.555070" lon="10.139094">
        <ele>475.663830</ele>
        <time>2025-12-13T08:53:04.654Z</time>
      </trkpt>
      <trkpt lat="48.554190" lon="10.138044">
        <ele>475.666204</ele>
        <time>2025-12-13T08:53:45.507Z</time>
      </trkpt>
      <trkpt lat="48.554080" lon="10.137906">
        <ele>475.632320</ele>
        <time>2025-12-13T08:53:48.396Z</time>
      </trkpt>
      <trkpt lat="48.553655" lon="10.137207">
        <ele>475.483433</ele>
        <time>2025-12-13T08:54:01.040Z</time>
      </trkpt>
      <trkpt lat="48.551378" lon="10.134999">
        <ele>476.511068</ele>
        <time>2025-12-13T08:55:07.867Z</time>
      </trkpt>
      <trkpt lat="48.549636" lon="10.133925">
        <ele>477.995183</ele>
        <time>2025-12-13T08:56:00.706Z</time>
      </trkpt>
      <trkpt lat="48.549234" lon="10.133784">
        <ele>477.982926</ele>
        <time>2025-12-13T08:56:10.265Z</time>
      </trkpt>
      <trkpt lat="48.548969" lon="10.133611">
        <ele>477.974352</ele>
        <time>2025-12-13T08:56:16.459Z</time>
      </trkpt>
      <trkpt lat="48.548213" lon="10.132997">
        <ele>477.920328</ele>
        <time>2025-12-13T08:56:33.889Z</time>
      </trkpt>
      <trkpt lat="48.547821" lon="10.132804">
        <ele>477.806760</ele>
        <time>2025-12-13T08:56:42.243Z</time>
      </trkpt>
      <trkpt lat="48.547179" lon="10.132557">
        <ele>477.624274</ele>
        <time>2025-12-13T08:56:56.129Z</time>
      </trkpt>
      <trkpt lat="48.546964" lon="10.132532">
        <ele>477.564876</ele>
        <time>2025-12-13T08:57:00.893Z</time>
      </trkpt>
      <trkpt lat="48.546337" lon="10.132460">
        <ele>477.645769</ele>
        <time>2025-12-13T08:57:16.182Z</time>
      </trkpt>
      <trkpt lat="48.545996" lon="10.132463">
        <ele>477.917930</ele>
        <time>2025-12-13T08:57:24.965Z</time>
      </trkpt>
      <trkpt lat="48.545698" lon="10.132544">
        <ele>478.159587</ele>
        <time>2025-12-13T08:57:32.963Z</time>
      </trkpt>
      <trkpt lat="48.545404" lon="10.132750">
        <ele>478.418248</ele>
        <time>2025-12-13T08:57:41.642Z</time>
      </trkpt>
      <trkpt lat="48.544960" lon="10.133124">
        <ele>478.823985</ele>
        <time>2025-12-13T08:57:55.356Z</time>
      </trkpt>
      <trkpt lat="48.544659" lon="10.133291">
        <ele>479.522839</ele>
        <time>2025-12-13T08:58:04.015Z</time>
      </trkpt>
      <trkpt lat="48.544412" lon="10.133362">
        <ele>480.197491</ele>
        <time>2025-12-13T08:58:11.650Z</time>
      </trkpt>
      <trkpt lat="48.544213" lon="10.133345">
        <ele>480.732308</ele>
        <time>2025-12-13T08:58:18.096Z</time>
      </trkpt>
      <trkpt lat="48.544051" lon="10.133257">
        <ele>481.194246</ele>
        <time>2025-12-13T08:58:24.031Z</time>
      </trkpt>
      <trkpt lat="48.543713" lon="10.132907">
        <ele>482.293836</ele>
        <time>2025-12-13T08:58:39.524Z</time>
      </trkpt>
      <trkpt lat="48.543621" lon="10.133042">
        <ele>482.638003</ele>
        <time>2025-12-13T08:58:44.768Z</time>
      </trkpt>
      <trkpt lat="48.543317" lon="10.133465">
        <ele>483.752976</ele>
        <time>2025-12-13T08:59:02.067Z</time>
      </trkpt>
      <trkpt lat="48.543163" lon="10.133877">
        <ele>484.767689</ele>
        <time>2025-12-13T08:59:15.935Z</time>
      </trkpt>
      <trkpt lat="48.543047" lon="10.134325">
        <ele>485.799380</ele>
        <time>2025-12-13T08:59:30.249Z</time>
      </trkpt>
      <trkpt lat="48.542830" lon="10.135477">
        <ele>488.368130</ele>
        <time>2025-12-13T09:00:00.760Z</time>
      </trkpt>
      <trkpt lat="48.542744" lon="10.135801">
        <ele>489.116780</ele>
        <time>2025-12-13T09:00:08.230Z</time>
      </trkpt>
      <trkpt lat="48.542281" lon="10.137013">
        <ele>490.868144</ele>
        <time>2025-12-13T09:00:36.412Z</time>
      </trkpt>
      <trkpt lat="48.542028" lon="10.137442">
        <ele>491.501783</ele>
        <time>2025-12-13T09:00:47.321Z</time>
      </trkpt>
      <trkpt lat="48.541699" lon="10.137677">
        <ele>492.108044</ele>
        <time>2025-12-13T09:00:57.875Z</time>
      </trkpt>
      <trkpt lat="48.541121" lon="10.138023">
        <ele>493.403864</ele>
        <time>2025-12-13T09:01:16.991Z</time>
      </trkpt>
      <trkpt lat="48.540974" lon="10.138102">
        <ele>493.776018</ele>
        <time>2025-12-13T09:01:22.238Z</time>
      </trkpt>
      <trkpt lat="48.540632" lon="10.138286">
        <ele>494.641954</ele>
        <time>2025-12-13T09:01:35.031Z</time>
      </trkpt>
      <trkpt lat="48.540264" lon="10.138483">
        <ele>495.573199</ele>
        <time>2025-12-13T09:01:50.524Z</time>
      </trkpt>
      <trkpt lat="48.539775" lon="10.138743">
        <ele>496.809710</ele>
        <time>2025-12-13T09:02:10.075Z</time>
      </trkpt>
      <trkpt lat="48.539628" lon="10.138774">
        <ele>496.820463</ele>
        <time>2025-12-13T09:02:14.721Z</time>
      </trkpt>
      <trkpt lat="48.539469" lon="10.138707">
        <ele>496.807376</ele>
        <time>2025-12-13T09:02:19.382Z</time>
      </trkpt>
      <trkpt lat="48.539052" lon="10.138029">
        <ele>496.758802</ele>
        <time>2025-12-13T09:02:33.494Z</time>
      </trkpt>
      <trkpt lat="48.538946" lon="10.137850">
        <ele>496.746196</ele>
        <time>2025-12-13T09:02:36.690Z</time>
      </trkpt>
      <trkpt lat="48.538663" lon="10.137472">
        <ele>496.716245</ele>
        <time>2025-12-13T09:02:43.825Z</time>
      </trkpt>
      <trkpt lat="48.538371" lon="10.137199">
        <ele>496.689019</ele>
        <time>2025-12-13T09:02:50.151Z</time>
      </trkpt>
      <trkpt lat="48.538384" lon="10.137123">
        <ele>496.722193</ele>
        <time>2025-12-13T09:02:51.126Z</time>
      </trkpt>
      <trkpt lat="48.538414" lon="10.136942">
        <ele>496.803429</ele>
        <time>2025-12-13T09:02:53.480Z</time>
      </trkpt>
      <trkpt lat="48.538395" lon="10.136473">
        <ele>497.008003</ele>
        <time>2025-12-13T09:02:59.757Z</time>
      </trkpt>
      <trkpt lat="48.538269" lon="10.135696">
        <ele>497.356291</ele>
        <time>2025-12-13T09:03:14.002Z</time>
      </trkpt>
      <trkpt lat="48.538243" lon="10.135388">
        <ele>497.491474</ele>
        <time>2025-12-13T09:03:20.303Z</time>
      </trkpt>
      <trkpt lat="48.538272" lon="10.135020">
        <ele>497.652824</ele>
        <time>2025-12-13T09:03:28.404Z</time>
      </trkpt>
      <trkpt lat="48.538297" lon="10.134643">
        <ele>497.817784</ele>
        <time>2025-12-13T09:03:36.638Z</time>
      </trkpt>
      <trkpt lat="48.538298" lon="10.134499">
        <ele>497.887171</ele>
        <time>2025-12-13T09:03:39.695Z</time>
      </trkpt>
      <trkpt lat="48.538379" lon="10.134456">
        <ele>497.986236</ele>
        <time>2025-12-13T09:03:42.392Z</time>
      </trkpt>
      <trkpt lat="48.538454" lon="10.134277">
        <ele>498.148066</ele>
        <time>2025-12-13T09:03:46.725Z</time>
      </trkpt>
      <trkpt lat="48.538595" lon="10.133803">
        <ele>498.545051</ele>
        <time>2025-12-13T09:03:56.810Z</time>
      </trkpt>
      <trkpt lat="48.538777" lon="10.133198">
        <ele>499.052715</ele>
        <time>2025-12-13T09:04:08.446Z</time>
      </trkpt>
      <trkpt lat="48.538863" lon="10.132988">
        <ele>499.241353</ele>
        <time>2025-12-13T09:04:12.701Z</time>
      </trkpt>
      <trkpt lat="48.538968" lon="10.132805">
        <ele>499.426347</ele>
        <time>2025-12-13T09:04:16.888Z</time>
      </trkpt>
      <trkpt lat="48.539093" lon="10.132754">
        <ele>499.575745</ele>
        <time>2025-12-13T09:04:20.311Z</time>
      </trkpt>
      <trkpt lat="48.539128" lon="10.132629">
        <ele>499.679427</ele>
        <time>2025-12-13T09:04:22.690Z</time>
      </trkpt>
      <trkpt lat="48.539244" lon="10.131703">
        <ele>500.466696</ele>
        <time>2025-12-13T09:04:39.531Z</time>
      </trkpt>
      <trkpt lat="48.539278" lon="10.131394">
        <ele>500.741587</ele>
        <time>2025-12-13T09:04:45.280Z</time>
      </trkpt>
      <trkpt lat="48.539281" lon="10.131239">
        <ele>500.877670</ele>
        <time>2025-12-13T09:04:47.996Z</time>
      </trkpt>
      <trkpt lat="48.539249" lon="10.131027">
        <ele>501.068491</ele>
        <time>2025-12-13T09:04:51.916Z</time>
      </trkpt>
      <trkpt lat="48.539237" lon="10.130939">
        <ele>501.147339</ele>
        <time>2025-12-13T09:04:53.622Z</time>
      </trkpt>
      <trkpt lat="48.539188" lon="10.130609">
        <ele>501.444134</ele>
        <time>2025-12-13T09:04:59.851Z</time>
      </trkpt>
      <trkpt lat="48.539177" lon="10.130538">
        <ele>501.508125</ele>
        <time>2025-12-13T09:05:01.276Z</time>
      </trkpt>
      <trkpt lat="48.539164" lon="10.130380">
        <ele>501.647849</ele>
        <time>2025-12-13T09:05:04.408Z</time>
      </trkpt>
      <trkpt lat="48.539138" lon="10.130120">
        <ele>501.878608</ele>
        <time>2025-12-13T09:05:09.822Z</time>
      </trkpt>
      <trkpt lat="48.539121" lon="10.129864">
        <ele>502.104396</ele>
        <time>2025-12-13T09:05:15.280Z</time>
      </trkpt>
      <trkpt lat="48.539098" lon="10.129531">
        <ele>502.432202</ele>
        <time>2025-12-13T09:05:22.513Z</time>
      </trkpt>
      <trkpt lat="48.539448" lon="10.129495">
        <ele>503.131967</ele>
        <time>2025-12-13T09:05:33.521Z</time>
      </trkpt>
      <trkpt lat="48.539734" lon="10.129476">
        <ele>503.703005</ele>
        <time>2025-12-13T09:05:42.847Z</time>
      </trkpt>
      <trkpt lat="48.539832" lon="10.129388">
        <ele>503.930427</ele>
        <time>2025-12-13T09:05:46.584Z</time>
      </trkpt>
      <trkpt lat="48.539956" lon="10.129048">
        <ele>504.443079</ele>
        <time>2025-12-13T09:05:54.939Z</time>
      </trkpt>
      <trkpt lat="48.540005" lon="10.128848">
        <ele>504.724721</ele>
        <time>2025-12-13T09:05:59.634Z</time>
      </trkpt>
      <trkpt lat="48.540062" lon="10.128618">
        <ele>505.049061</ele>
        <time>2025-12-13T09:06:05.055Z</time>
      </trkpt>
      <trkpt lat="48.540152" lon="10.128115">
        <ele>505.737197</ele>
        <time>2025-12-13T09:06:16.797Z</time>
      </trkpt>
      <trkpt lat="48.540580" lon="10.128155">
        <ele>506.079847</ele>
        <time>2025-12-13T09:06:30.609Z</time>
      </trkpt>
      <trkpt lat="48.541970" lon="10.128278">
        <ele>506.744082</ele>
        <time>2025-12-13T09:07:05.801Z</time>
      </trkpt>
      <trkpt lat="48.542564" lon="10.128220">
        <ele>504.639835</ele>
        <time>2025-12-13T09:07:16.329Z</time>
      </trkpt>
      <trkpt lat="48.542674" lon="10.128103">
        <ele>504.094120</ele>
        <time>2025-12-13T09:07:18.572Z</time>
      </trkpt>
      <trkpt lat="48.542937" lon="10.127776">
        <ele>502.712384</ele>
        <time>2025-12-13T09:07:24.088Z</time>
      </trkpt>
      <trkpt lat="48.543193" lon="10.127372">
        <ele>501.210607</ele>
        <time>2025-12-13T09:07:29.942Z</time>
      </trkpt>
      <trkpt lat="48.543542" lon="10.126580">
        <ele>498.128992</ele>
        <time>2025-12-13T09:07:39.655Z</time>
      </trkpt>
      <trkpt lat="48.543790" lon="10.126089">
        <ele>495.412117</ele>
        <time>2025-12-13T09:07:45.823Z</time>
      </trkpt>
      <trkpt lat="48.543932" lon="10.125917">
        <ele>494.202622</ele>
        <time>2025-12-13T09:07:48.557Z</time>
      </trkpt>
      <trkpt lat="48.544157" lon="10.125830">
        <ele>492.659311</ele>
        <time>2025-12-13T09:07:52.028Z</time>
      </trkpt>
      <trkpt lat="48.544252" lon="10.125876">
        <ele>491.996404</ele>
        <time>2025-12-13T09:07:53.520Z</time>
      </trkpt>
      <trkpt lat="48.544543" lon="10.126118">
        <ele>489.789046</ele>
        <time>2025-12-13T09:07:58.461Z</time>
      </trkpt>
      <trkpt lat="48.544665" lon="10.126095">
        <ele>488.972079</ele>
        <time>2025-12-13T09:08:00.287Z</time>
      </trkpt>
      <trkpt lat="48.545255" lon="10.125799">
        <ele>486.282912</ele>
        <time>2025-12-13T09:08:09.730Z</time>
      </trkpt>
      <trkpt lat="48.545525" lon="10.125700">
        <ele>485.426974</ele>
        <time>2025-12-13T09:08:14.234Z</time>
      </trkpt>
      <trkpt lat="48.545743" lon="10.125699">
        <ele>484.755383</ele>
        <time>2025-12-13T09:08:17.944Z</time>
      </trkpt>
      <trkpt lat="48.546079" lon="10.123551">
        <ele>482.119331</ele>
        <time>2025-12-13T09:09:08.928Z</time>
      </trkpt>
      <trkpt lat="48.546120" lon="10.123007">
        <ele>482.203788</ele>
        <time>2025-12-13T09:09:22.645Z</time>
      </trkpt>
      <trkpt lat="48.546115" lon="10.122563">
        <ele>482.272286</ele>
        <time>2025-12-13T09:09:34.124Z</time>
      </trkpt>
      <trkpt lat="48.546183" lon="10.122365">
        <ele>482.306694</ele>
        <time>2025-12-13T09:09:40.086Z</time>
      </trkpt>
      <trkpt lat="48.546247" lon="10.122291">
        <ele>482.325473</ele>
        <time>2025-12-13T09:09:43.249Z</time>
      </trkpt>
      <trkpt lat="48.546326" lon="10.122221">
        <ele>482.346814</ele>
        <time>2025-12-13T09:09:47.111Z</time>
      </trkpt>
      <trkpt lat="48.546428" lon="10.122068">
        <ele>482.380308</ele>
        <time>2025-12-13T09:09:53.135Z</time>
      </trkpt>
      <trkpt lat="48.546173" lon="10.121462">
        <ele>483.228459</ele>
        <time>2025-12-13T09:10:14.106Z</time>
      </trkpt>
      <trkpt lat="48.545512" lon="10.119584">
        <ele>486.443187</ele>
        <time>2025-12-13T09:11:25.448Z</time>
      </trkpt>
      <trkpt lat="48.545070" lon="10.118853">
        <ele>486.749259</ele>
        <time>2025-12-13T09:11:57.897Z</time>
      </trkpt>
      <trkpt lat="48.544606" lon="10.118212">
        <ele>486.986424</ele>
        <time>2025-12-13T09:12:22.822Z</time>
      </trkpt>
      <trkpt lat="48.544239" lon="10.117681">
        <ele>487.178105</ele>
        <time>2025-12-13T09:12:32.186Z</time>
      </trkpt>
      <trkpt lat="48.544456" lon="10.117198">
        <ele>486.895497</ele>
        <time>2025-12-13T09:12:38.979Z</time>
      </trkpt>
      <trkpt lat="48.544781" lon="10.116466">
        <ele>486.400045</ele>
        <time>2025-12-13T09:12:49.390Z</time>
      </trkpt>
      <trkpt lat="48.544853" lon="10.116304">
        <ele>486.290361</ele>
        <time>2025-12-13T09:12:51.797Z</time>
      </trkpt>
      <trkpt lat="48.544913" lon="10.116158">
        <ele>486.193763</ele>
        <time>2025-12-13T09:12:53.968Z</time>
      </trkpt>
      <trkpt lat="48.545155" lon="10.115126">
        <ele>485.811302</ele>
        <time>2025-12-13T09:13:13.541Z</time>
      </trkpt>
      <trkpt lat="48.545183" lon="10.114732">
        <ele>486.188166</ele>
        <time>2025-12-13T09:13:23.683Z</time>
      </trkpt>
      <trkpt lat="48.545132" lon="10.114105">
        <ele>486.788955</ele>
        <time>2025-12-13T09:13:39.679Z</time>
      </trkpt>
      <trkpt lat="48.545149" lon="10.113492">
        <ele>487.372456</ele>
        <time>2025-12-13T09:13:52.938Z</time>
      </trkpt>
      <trkpt lat="48.545136" lon="10.113260">
        <ele>487.593887</ele>
        <time>2025-12-13T09:13:57.298Z</time>
      </trkpt>
      <trkpt lat="48.545022" lon="10.112669">
        <ele>488.179327</ele>
        <time>2025-12-13T09:14:06.822Z</time>
      </trkpt>
      <trkpt lat="48.544876" lon="10.111525">
        <ele>488.808326</ele>
        <time>2025-12-13T09:14:21.744Z</time>
      </trkpt>
      <trkpt lat="48.544862" lon="10.111280">
        <ele>488.934333</ele>
        <time>2025-12-13T09:14:24.971Z</time>
      </trkpt>
      <trkpt lat="48.544896" lon="10.110969">
        <ele>489.095851</ele>
        <time>2025-12-13T09:14:29.535Z</time>
      </trkpt>
      <trkpt lat="48.545007" lon="10.110363">
        <ele>489.418038</ele>
        <time>2025-12-13T09:14:41.694Z</time>
      </trkpt>
      <trkpt lat="48.545078" lon="10.110192">
        <ele>489.521467</ele>
        <time>2025-12-13T09:14:46.583Z</time>
      </trkpt>
      <trkpt lat="48.545184" lon="10.110341">
        <ele>489.633540</ele>
        <time>2025-12-13T09:14:52.422Z</time>
      </trkpt>
      <trkpt lat="48.545309" lon="10.110438">
        <ele>490.288284</ele>
        <time>2025-12-13T09:14:58.614Z</time>
      </trkpt>
      <trkpt lat="48.546345" lon="10.110619">
        <ele>495.440139</ele>
        <time>2025-12-13T09:15:50.736Z</time>
      </trkpt>
      <trkpt lat="48.547463" lon="10.110457">
        <ele>501.015680</ele>
        <time>2025-12-13T09:16:45.304Z</time>
      </trkpt>
      <trkpt lat="48.547778" lon="10.110380">
        <ele>502.609520</ele>
        <time>2025-12-13T09:16:58.848Z</time>
      </trkpt>
      <trkpt lat="48.548618" lon="10.109825">
        <ele>507.188956</ele>
        <time>2025-12-13T09:17:41.388Z</time>
      </trkpt>
      <trkpt lat="48.549211" lon="10.109393">
        <ele>510.931621</ele>
        <time>2025-12-13T09:18:14.843Z</time>
      </trkpt>
      <trkpt lat="48.549611" lon="10.109038">
        <ele>513.603595</ele>
        <time>2025-12-13T09:18:39.256Z</time>
      </trkpt>
      <trkpt lat="48.549866" lon="10.108790">
        <ele>515.350316</ele>
        <time>2025-12-13T09:18:55.331Z</time>
      </trkpt>
      <trkpt lat="48.549940" lon="10.108717">
        <ele>515.859346</ele>
        <time>2025-12-13T09:18:59.958Z</time>
      </trkpt>
      <trkpt lat="48.550678" lon="10.107726">
        <ele>520.703915</ele>
        <time>2025-12-13T09:19:50.284Z</time>
      </trkpt>
      <trkpt lat="48.550992" lon="10.107115">
        <ele>522.977341</ele>
        <time>2025-12-13T09:20:13.639Z</time>
      </trkpt>
      <trkpt lat="48.551201" lon="10.106647">
        <ele>524.636570</ele>
        <time>2025-12-13T09:20:29.083Z</time>
      </trkpt>
      <trkpt lat="48.551433" lon="10.106009">
        <ele>526.200306</ele>
        <time>2025-12-13T09:20:46.748Z</time>
      </trkpt>
      <trkpt lat="48.551896" lon="10.104586">
        <ele>527.947035</ele>
        <time>2025-12-13T09:21:16.144Z</time>
      </trkpt>
      <trkpt lat="48.552297" lon="10.103710">
        <ele>529.222413</ele>
        <time>2025-12-13T09:21:36.337Z</time>
      </trkpt>
      <trkpt lat="48.552411" lon="10.103560">
        <ele>529.568496</ele>
        <time>2025-12-13T09:21:41.185Z</time>
      </trkpt>
      <trkpt lat="48.552774" lon="10.103067">
        <ele>530.685928</ele>
        <time>2025-12-13T09:21:57.962Z</time>
      </trkpt>
      <trkpt lat="48.553097" lon="10.102787">
        <ele>531.538440</ele>
        <time>2025-12-13T09:22:11.507Z</time>
      </trkpt>
      <trkpt lat="48.553759" lon="10.102432">
        <ele>533.152558</ele>
        <time>2025-12-13T09:22:36.658Z</time>
      </trkpt>
      <trkpt lat="48.554766" lon="10.102181">
        <ele>535.566553</ele>
        <time>2025-12-13T09:23:09.591Z</time>
      </trkpt>
      <trkpt lat="48.555410" lon="10.102140">
        <ele>537.091119</ele>
        <time>2025-12-13T09:23:31.406Z</time>
      </trkpt>
      <trkpt lat="48.555692" lon="10.102170">
        <ele>537.927331</ele>
        <time>2025-12-13T09:23:41.893Z</time>
      </trkpt>
      <trkpt lat="48.555790" lon="10.100727">
        <ele>540.903547</ele>
        <time>2025-12-13T09:24:33.336Z</time>
      </trkpt>
      <trkpt lat="48.555949" lon="10.098805">
        <ele>544.781957</ele>
        <time>2025-12-13T09:25:40.910Z</time>
      </trkpt>
      <trkpt lat="48.556264" lon="10.094968">
        <ele>552.187295</ele>
        <time>2025-12-13T09:27:52.403Z</time>
      </trkpt>
      <trkpt lat="48.556580" lon="10.091731">
        <ele>557.921690</ele>
        <time>2025-12-13T09:29:43.087Z</time>
      </trkpt>
      <trkpt lat="48.556804" lon="10.091830">
        <ele>558.168751</ele>
        <time>2025-12-13T09:29:53.413Z</time>
      </trkpt>
      <trkpt lat="48.557338" lon="10.092218">
        <ele>558.796008</ele>
        <time>2025-12-13T09:30:18.290Z</time>
      </trkpt>
      <trkpt lat="48.557435" lon="10.092218">
        <ele>558.898691</ele>
        <time>2025-12-13T09:30:22.215Z</time>
      </trkpt>
      <trkpt lat="48.557502" lon="10.092124">
        <ele>558.995479</ele>
        <time>2025-12-13T09:30:25.802Z</time>
      </trkpt>
      <trkpt lat="48.557767" lon="10.090509">
        <ele>560.061443</ele>
        <time>2025-12-13T09:31:10.357Z</time>
      </trkpt>
      <trkpt lat="48.557972" lon="10.088686">
        <ele>560.972207</ele>
        <time>2025-12-13T09:32:01.118Z</time>
      </trkpt>
      <trkpt lat="48.558245" lon="10.087891">
        <ele>561.277233</ele>
        <time>2025-12-13T09:32:24.672Z</time>
      </trkpt>
      <trkpt lat="48.558612" lon="10.085062">
        <ele>561.913468</ele>
        <time>2025-12-13T09:33:37.818Z</time>
      </trkpt>
      <trkpt lat="48.558642" lon="10.084832">
        <ele>561.962626</ele>
        <time>2025-12-13T09:33:43.674Z</time>
      </trkpt>
      <trkpt lat="48.558759" lon="10.083935">
        <ele>562.154342</ele>
        <time>2025-12-13T09:34:06.364Z</time>
      </trkpt>
      <trkpt lat="48.558956" lon="10.082474">
        <ele>562.611192</ele>
        <time>2025-12-13T09:34:45.576Z</time>
      </trkpt>
      <trkpt lat="48.559239" lon="10.082584">
        <ele>562.810897</ele>
        <time>2025-12-13T09:34:53.516Z</time>
      </trkpt>
      <trkpt lat="48.561473" lon="10.083461">
        <ele>564.029467</ele>
        <time>2025-12-13T09:35:55.295Z</time>
      </trkpt>
      <trkpt lat="48.562454" lon="10.083886">
        <ele>564.186784</ele>
        <time>2025-12-13T09:36:18.201Z</time>
      </trkpt>
      <trkpt lat="48.565026" lon="10.085000">
        <ele>563.816694</ele>
        <time>2025-12-13T09:37:18.883Z</time>
      </trkpt>
      <trkpt lat="48.565552" lon="10.080920">
        <ele>564.007719</ele>
        <time>2025-12-13T09:39:02.058Z</time>
      </trkpt>
      <trkpt lat="48.565909" lon="10.078327">
        <ele>564.334697</ele>
        <time>2025-12-13T09:40:08.177Z</time>
      </trkpt>
      <trkpt lat="48.566270" lon="10.075705">
        <ele>565.224602</ele>
        <time>2025-12-13T09:41:18.180Z</time>
      </trkpt>
      <trkpt lat="48.566482" lon="10.074259">
        <ele>566.119927</ele>
        <time>2025-12-13T09:41:59.659Z</time>
      </trkpt>
      <trkpt lat="48.566611" lon="10.073031">
        <ele>566.806328</ele>
        <time>2025-12-13T09:42:34.327Z</time>
      </trkpt>
      <trkpt lat="48.566876" lon="10.072911">
        <ele>567.011462</ele>
        <time>2025-12-13T09:42:41.798Z</time>
      </trkpt>
      <trkpt lat="48.567005" lon="10.072896">
        <ele>567.107401</ele>
        <time>2025-12-13T09:42:45.279Z</time>
      </trkpt>
      <trkpt lat="48.568990" lon="10.073195">
        <ele>568.789705</ele>
        <time>2025-12-13T09:43:35.098Z</time>
      </trkpt>
      <trkpt lat="48.569310" lon="10.073174">
        <ele>569.093492</ele>
        <time>2025-12-13T09:43:44.123Z</time>
      </trkpt>
      <trkpt lat="48.569545" lon="10.073030">
        <ele>569.334002</ele>
        <time>2025-12-13T09:43:51.471Z</time>
      </trkpt>
      <trkpt lat="48.569788" lon="10.072764">
        <ele>569.636032</ele>
        <time>2025-12-13T09:44:00.443Z</time>
      </trkpt>
      <trkpt lat="48.569904" lon="10.072557">
        <ele>569.861407</ele>
        <time>2025-12-13T09:44:05.954Z</time>
      </trkpt>
      <trkpt lat="48.570498" lon="10.071220">
        <ele>571.199409</ele>
        <time>2025-12-13T09:44:39.032Z</time>
      </trkpt>
      <trkpt lat="48.570852" lon="10.070550">
        <ele>571.794054</ele>
        <time>2025-12-13T09:44:53.455Z</time>
      </trkpt>
      <trkpt lat="48.571170" lon="10.070214">
        <ele>571.634306</ele>
        <time>2025-12-13T09:45:01.946Z</time>
      </trkpt>
      <trkpt lat="48.571351" lon="10.070081">
        <ele>571.551445</ele>
        <time>2025-12-13T09:45:06.132Z</time>
      </trkpt>
      <trkpt lat="48.571646" lon="10.069950">
        <ele>571.424856</ele>
        <time>2025-12-13T09:45:12.319Z</time>
      </trkpt>
      <trkpt lat="48.571897" lon="10.069891">
        <ele>571.320274</ele>
        <time>2025-12-13T09:45:17.355Z</time>
      </trkpt>
      <trkpt lat="48.572596" lon="10.069894">
        <ele>571.195114</ele>
        <time>2025-12-13T09:45:31.464Z</time>
      </trkpt>
      <trkpt lat="48.572895" lon="10.069890">
        <ele>571.471517</ele>
        <time>2025-12-13T09:45:37.937Z</time>
      </trkpt>
      <trkpt lat="48.573236" lon="10.069779">
        <ele>571.793961</ele>
        <time>2025-12-13T09:45:46.112Z</time>
      </trkpt>
      <trkpt lat="48.574799" lon="10.069033">
        <ele>574.187585</ele>
        <time>2025-12-13T09:46:37.371Z</time>
      </trkpt>
      <trkpt lat="48.575131" lon="10.068845">
        <ele>575.025898</ele>
        <time>2025-12-13T09:46:50.188Z</time>
      </trkpt>
      <trkpt lat="48.575313" lon="10.068586">
        <ele>575.616980</ele>
        <time>2025-12-13T09:46:59.304Z</time>
      </trkpt>
      <trkpt lat="48.575492" lon="10.068240">
        <ele>576.304109</ele>
        <time>2025-12-13T09:47:10.047Z</time>
      </trkpt>
      <trkpt lat="48.575794" lon="10.067774">
        <ele>577.217509</ele>
        <time>2025-12-13T09:47:25.593Z</time>
      </trkpt>
      <trkpt lat="48.576369" lon="10.067387">
        <ele>578.217525</ele>
        <time>2025-12-13T09:47:44.767Z</time>
      </trkpt>
      <trkpt lat="48.576382" lon="10.067009">
        <ele>578.615397</ele>
        <time>2025-12-13T09:47:51.986Z</time>
      </trkpt>
      <trkpt lat="48.576413" lon="10.066143">
        <ele>579.527028</ele>
        <time>2025-12-13T09:48:08.155Z</time>
      </trkpt>
      <trkpt lat="48.576591" lon="10.062958">
        <ele>582.089759</ele>
        <time>2025-12-13T09:49:08.122Z</time>
      </trkpt>
      <trkpt lat="48.576738" lon="10.060319">
        <ele>583.460437</ele>
        <time>2025-12-13T09:49:54.669Z</time>
      </trkpt>
      <trkpt lat="48.577018" lon="10.058574">
        <ele>583.404556</ele>
        <time>2025-12-13T09:50:20.669Z</time>
      </trkpt>
      <trkpt lat="48.577630" lon="10.054758">
        <ele>582.656790</ele>
        <time>2025-12-13T09:51:15.828Z</time>
      </trkpt>
      <trkpt lat="48.577845" lon="10.053872">
        <ele>582.492340</ele>
        <time>2025-12-13T09:51:29.335Z</time>
      </trkpt>
      <trkpt lat="48.578929" lon="10.054230">
        <ele>582.197304</ele>
        <time>2025-12-13T09:51:53.304Z</time>
      </trkpt>
      <trkpt lat="48.578728" lon="10.046113">
        <ele>581.195446</ele>
        <time>2025-12-13T09:53:53.469Z</time>
      </trkpt>
      <trkpt lat="48.578608" lon="10.040399">
        <ele>586.182372</ele>
        <time>2025-12-13T09:55:48.946Z</time>
      </trkpt>
      <trkpt lat="48.578544" lon="10.037350">
        <ele>588.253794</ele>
        <time>2025-12-13T09:56:49.845Z</time>
      </trkpt>
      <trkpt lat="48.578494" lon="10.035097">
        <ele>588.018369</ele>
        <time>2025-12-13T09:57:22.299Z</time>
      </trkpt>
      <trkpt lat="48.578445" lon="10.033008">
        <ele>586.417994</ele>
        <time>2025-12-13T09:57:49.655Z</time>
      </trkpt>
      <trkpt lat="48.578393" lon="10.030808">
        <ele>586.166949</ele>
        <time>2025-12-13T09:58:22.065Z</time>
      </trkpt>
      <trkpt lat="48.578376" lon="10.030224">
        <ele>586.145301</ele>
        <time>2025-12-13T09:58:32.580Z</time>
      </trkpt>
      <trkpt lat="48.578363" lon="10.029777">
        <ele>586.326857</ele>
        <time>2025-12-13T09:58:40.929Z</time>
      </trkpt>
      <trkpt lat="48.578350" lon="10.029317">
        <ele>586.633192</ele>
        <time>2025-12-13T09:58:49.949Z</time>
      </trkpt>
      <trkpt lat="48.578331" lon="10.028681">
        <ele>587.056779</ele>
        <time>2025-12-13T09:59:02.214Z</time>
      </trkpt>
      <trkpt lat="48.578293" lon="10.028593">
        <ele>587.126696</ele>
        <time>2025-12-13T09:59:04.148Z</time>
      </trkpt>
      <trkpt lat="48.578484" lon="10.028085">
        <ele>587.515456</ele>
        <time>2025-12-13T09:59:14.462Z</time>
      </trkpt>
      <trkpt lat="48.578575" lon="10.027793">
        <ele>587.730209</ele>
        <time>2025-12-13T09:59:20.138Z</time>
      </trkpt>
      <trkpt lat="48.578627" lon="10.027630">
        <ele>587.850609</ele>
        <time>2025-12-13T09:59:23.313Z</time>
      </trkpt>
      <trkpt lat="48.578666" lon="10.027499">
        <ele>587.946186</ele>
        <time>2025-12-13T09:59:25.863Z</time>
      </trkpt>
      <trkpt lat="48.578688" lon="10.027428">
        <ele>588.027709</ele>
        <time>2025-12-13T09:59:27.284Z</time>
      </trkpt>
      <trkpt lat="48.578778" lon="10.027140">
        <ele>588.363199</ele>
        <time>2025-12-13T09:59:33.089Z</time>
      </trkpt>
      <trkpt lat="48.578811" lon="10.027035">
        <ele>588.485641</ele>
        <time>2025-12-13T09:59:35.241Z</time>
      </trkpt>
      <trkpt lat="48.578888" lon="10.026788">
        <ele>588.773243</ele>
        <time>2025-12-13T09:59:40.321Z</time>
      </trkpt>
      <trkpt lat="48.578924" lon="10.026647">
        <ele>588.932435</ele>
        <time>2025-12-13T09:59:43.216Z</time>
      </trkpt>
      <trkpt lat="48.578944" lon="10.026557">
        <ele>589.032437</ele>
        <time>2025-12-13T09:59:45.083Z</time>
      </trkpt>
      <trkpt lat="48.579004" lon="10.026289">
        <ele>589.330447</ele>
        <time>2025-12-13T09:59:50.563Z</time>
      </trkpt>
      <trkpt lat="48.579122" lon="10.025742">
        <ele>589.936457</ele>
        <time>2025-12-13T10:00:02.449Z</time>
      </trkpt>
      <trkpt lat="48.579134" lon="10.025679">
        <ele>590.005510</ele>
        <time>2025-12-13T10:00:03.860Z</time>
      </trkpt>
      <trkpt lat="48.579211" lon="10.025255">
        <ele>590.468628</ele>
        <time>2025-12-13T10:00:13.493Z</time>
      </trkpt>
      <trkpt lat="48.579255" lon="10.025009">
        <ele>590.737042</ele>
        <time>2025-12-13T10:00:19.048Z</time>
      </trkpt>
      <trkpt lat="48.579277" lon="10.024887">
        <ele>590.880141</ele>
        <time>2025-12-13T10:00:21.835Z</time>
      </trkpt>
      <trkpt lat="48.579290" lon="10.024758">
        <ele>591.040808</ele>
        <time>2025-12-13T10:00:24.649Z</time>
      </trkpt>
      <trkpt lat="48.579308" lon="10.024582">
        <ele>591.260088</ele>
        <time>2025-12-13T10:00:28.551Z</time>
      </trkpt>
      <trkpt lat="48.579345" lon="10.024210">
        <ele>591.723272</ele>
        <time>2025-12-13T10:00:36.753Z</time>
      </trkpt>
      <trkpt lat="48.579394" lon="10.023929">
        <ele>592.081078</ele>
        <time>2025-12-13T10:00:42.905Z</time>
      </trkpt>
      <trkpt lat="48.579588" lon="10.024066">
        <ele>592.479595</ele>
        <time>2025-12-13T10:00:49.744Z</time>
      </trkpt>
      <trkpt lat="48.579613" lon="10.024085">
        <ele>592.531673</ele>
        <time>2025-12-13T10:00:50.655Z</time>
      </trkpt>
      <trkpt lat="48.579817" lon="10.024230">
        <ele>592.951223</ele>
        <time>2025-12-13T10:00:57.763Z</time>
      </trkpt>
      <trkpt lat="48.579892" lon="10.024283">
        <ele>593.105307</ele>
        <time>2025-12-13T10:01:00.350Z</time>
      </trkpt>
      <trkpt lat="48.579965" lon="10.024335">
        <ele>593.255499</ele>
        <time>2025-12-13T10:01:02.851Z</time>
      </trkpt>
      <trkpt lat="48.580188" lon="10.024480">
        <ele>593.707298</ele>
        <time>2025-12-13T10:01:10.097Z</time>
      </trkpt>
      <trkpt lat="48.580237" lon="10.024511">
        <ele>593.806159</ele>
        <time>2025-12-13T10:01:11.581Z</time>
      </trkpt>
      <trkpt lat="48.580329" lon="10.024568">
        <ele>593.991206</ele>
        <time>2025-12-13T10:01:14.401Z</time>
      </trkpt>
      <trkpt lat="48.580419" lon="10.024618">
        <ele>594.174549</ele>
        <time>2025-12-13T10:01:17.105Z</time>
      </trkpt>
      <trkpt lat="48.580554" lon="10.024692">
        <ele>594.565146</ele>
        <time>2025-12-13T10:01:21.318Z</time>
      </trkpt>
      <trkpt lat="48.580611" lon="10.024723">
        <ele>594.729916</ele>
        <time>2025-12-13T10:01:23.183Z</time>
      </trkpt>
      <trkpt lat="48.580714" lon="10.024771">
        <ele>595.023087</ele>
        <time>2025-12-13T10:01:26.469Z</time>
      </trkpt>
      <trkpt lat="48.580886" lon="10.024850">
        <ele>595.512046</ele>
        <time>2025-12-13T10:01:32.222Z</time>
      </trkpt>
      <trkpt lat="48.580915" lon="10.024863">
        <ele>595.594321</ele>
        <time>2025-12-13T10:01:33.230Z</time>
      </trkpt>
      <trkpt lat="48.581143" lon="10.024942">
        <ele>596.230563</ele>
        <time>2025-12-13T10:01:41.094Z</time>
      </trkpt>
      <trkpt lat="48.581185" lon="10.024952">
        <ele>596.346211</ele>
        <time>2025-12-13T10:01:42.553Z</time>
      </trkpt>
      <trkpt lat="48.581332" lon="10.024963">
        <ele>596.746539</ele>
        <time>2025-12-13T10:01:47.705Z</time>
      </trkpt>
      <trkpt lat="48.581417" lon="10.024964">
        <ele>596.977745</ele>
        <time>2025-12-13T10:01:50.758Z</time>
      </trkpt>
      <trkpt lat="48.581447" lon="10.024965">
        <ele>597.059365</ele>
        <time>2025-12-13T10:01:51.816Z</time>
      </trkpt>
      <trkpt lat="48.581621" lon="10.024987">
        <ele>597.534295</ele>
        <time>2025-12-13T10:01:58.039Z</time>
      </trkpt>
      <trkpt lat="48.581685" lon="10.025041">
        <ele>597.733658</ele>
        <time>2025-12-13T10:02:00.785Z</time>
      </trkpt>
      <trkpt lat="48.581762" lon="10.024909">
        <ele>598.050330</ele>
        <time>2025-12-13T10:02:05.184Z</time>
      </trkpt>
      <trkpt lat="48.581835" lon="10.024850">
        <ele>598.275490</ele>
        <time>2025-12-13T10:02:08.401Z</time>
      </trkpt>
      <trkpt lat="48.581979" lon="10.024825">
        <ele>598.669743</ele>
        <time>2025-12-13T10:02:14.225Z</time>
      </trkpt>
      <trkpt lat="48.582070" lon="10.024815">
        <ele>598.917915</ele>
        <time>2025-12-13T10:02:18.005Z</time>
      </trkpt>
      <trkpt lat="48.582154" lon="10.024817">
        <ele>599.258075</ele>
        <time>2025-12-13T10:02:21.686Z</time>
      </trkpt>
      <trkpt lat="48.582290" lon="10.024826">
        <ele>600.063239</ele>
        <time>2025-12-13T10:02:27.656Z</time>
      </trkpt>
      <trkpt lat="48.582386" lon="10.024838">
        <ele>600.632984</ele>
        <time>2025-12-13T10:02:32.010Z</time>
      </trkpt>
      <trkpt lat="48.582403" lon="10.024840">
        <ele>600.733837</ele>
        <time>2025-12-13T10:02:32.769Z</time>
      </trkpt>
      <trkpt lat="48.582460" lon="10.024848">
        <ele>601.072423</ele>
        <time>2025-12-13T10:02:35.419Z</time>
      </trkpt>
      <trkpt lat="48.582566" lon="10.024826">
        <ele>601.705259</ele>
        <time>2025-12-13T10:02:40.578Z</time>
      </trkpt>
      <trkpt lat="48.582649" lon="10.024763">
        <ele>602.254589</ele>
        <time>2025-12-13T10:02:45.188Z</time>
      </trkpt>
      <trkpt lat="48.582682" lon="10.024699">
        <ele>602.572088</ele>
        <time>2025-12-13T10:02:47.930Z</time>
      </trkpt>
      <trkpt lat="48.582717" lon="10.024630">
        <ele>602.912300</ele>
        <time>2025-12-13T10:02:50.862Z</time>
      </trkpt>
      <trkpt lat="48.582722" lon="10.024620">
        <ele>602.961346</ele>
        <time>2025-12-13T10:02:51.292Z</time>
      </trkpt>
      <trkpt lat="48.582736" lon="10.024446">
        <ele>603.647185</ele>
        <time>2025-12-13T10:02:57.263Z</time>
      </trkpt>
      <trkpt lat="48.582711" lon="10.024125">
        <ele>604.911859</ele>
        <time>2025-12-13T10:03:09.060Z</time>
      </trkpt>
      <trkpt lat="48.582706" lon="10.024064">
        <ele>605.152363</ele>
        <time>2025-12-13T10:03:11.468Z</time>
      </trkpt>
      <trkpt lat="48.582698" lon="10.023969">
        <ele>605.527076</ele>
        <time>2025-12-13T10:03:15.180Z</time>
      </trkpt>
      <trkpt lat="48.582684" lon="10.023491">
        <ele>607.399213</ele>
        <time>2025-12-13T10:03:34.995Z</time>
      </trkpt>
      <trkpt lat="48.582693" lon="10.023362">
        <ele>607.906760</ele>
        <time>2025-12-13T10:03:40.344Z</time>
      </trkpt>
      <trkpt lat="48.582710" lon="10.023113">
        <ele>608.886215</ele>
        <time>2025-12-13T10:03:50.361Z</time>
      </trkpt>
      <trkpt lat="48.582726" lon="10.022887">
        <ele>609.689717</ele>
        <time>2025-12-13T10:03:58.985Z</time>
      </trkpt>
      <trkpt lat="48.582734" lon="10.022769">
        <ele>609.689717</ele>
        <time>2025-12-13T10:04:03.222Z</time>
      </trkpt>
      <trkpt lat="48.582744" lon="10.022610">
        <ele>609.689717</ele>
        <time>2025-12-13T10:04:08.739Z</time>
      </trkpt>
      <trkpt lat="48.582756" lon="10.022448">
        <ele>609.689717</ele>
        <time>2025-12-13T10:04:14.038Z</time>
      </trkpt>
      <trkpt lat="48.582768" lon="10.022270">
        <ele>609.689717</ele>
        <time>2025-12-13T10:04:19.364Z</time>
      </trkpt>
      <trkpt lat="48.582769" lon="10.022245">
        <ele>609.689717</ele>
        <time>2025-12-13T10:04:20.043Z</time>
      </trkpt>
      <trkpt lat="48.582773" lon="10.022198">
        <ele>609.689717</ele>
        <time>2025-12-13T10:04:21.342Z</time>
      </trkpt>
      <trkpt lat="48.582778" lon="10.022122">
        <ele>609.689717</ele>
        <time>2025-12-13T10:04:23.340Z</time>
      </trkpt>
      <trkpt lat="48.582791" lon="10.021823">
        <ele>609.689717</ele>
        <time>2025-12-13T10:04:30.714Z</time>
      </trkpt>
      <trkpt lat="48.582473" lon="10.021885">
        <ele>609.689717</ele>
        <time>2025-12-13T10:04:41.408Z</time>
      </trkpt>
      <trkpt lat="48.582127" lon="10.021952">
        <ele>609.689717</ele>
        <time>2025-12-13T10:04:50.635Z</time>
      </trkpt>
      <trkpt lat="48.581898" lon="10.022061">
        <ele>609.689717</ele>
        <time>2025-12-13T10:04:55.578Z</time>
      </trkpt>
      <trkpt lat="48.581759" lon="10.022098">
        <ele>609.689717</ele>
        <time>2025-12-13T10:04:58.102Z</time>
      </trkpt>
    </trkseg>
  </trk>
</gpx>